Provisional Data: Little Pine Creek near Waterville, PA


Please select a monitoring station.
Please select start date.
Please select start date.

Toggle Unit: C/F Toggle Unit: C/F
Sample Time Temperature (C) Temperature (F) Specific Conductivity (mS/cm) pH   Turbidity (NTU+) DO (mg/L)
12/23/2021 12:00:00 AM 2.07 35.726 0.097 7.05 1.35 13.49
12/23/2021 12:15:00 AM 2.07 35.726 0.097 7.06 1.35 13.5
12/23/2021 12:30:00 AM 2.08 35.744 0.097 7.06 1.36 13.49
12/23/2021 12:45:00 AM 2.09 35.762 0.097 7.05 1.35 13.49
12/23/2021 1:00:00 AM 2.09 35.762 0.097 7.05 1.34 13.49
12/23/2021 1:15:00 AM 2.09 35.762 0.097 7.05 1.34 13.49
12/23/2021 1:30:00 AM 2.09 35.762 0.097 7.05 1.33 13.5
12/23/2021 1:45:00 AM 2.09 35.762 0.097 7.05 1.32 13.49
12/23/2021 2:00:00 AM 2.09 35.762 0.097 7.05 1.39 13.51
12/23/2021 2:15:00 AM 2.08 35.744 0.097 7.06 1.35 13.5
12/23/2021 2:30:00 AM 2.07 35.726 0.097 7.06 1.34 13.51
12/23/2021 2:45:00 AM 2.07 35.726 0.097 7.06 1.36 13.52
12/23/2021 3:00:00 AM 2.06 35.708 0.097 7.05 1.32 13.52
12/23/2021 3:15:00 AM 2.05 35.69 0.097 7.05 1.35 13.52
12/23/2021 3:30:00 AM 2.03 35.654 0.097 7.05 1.36 13.54
12/23/2021 3:45:00 AM 2.02 35.636 0.097 7.05 1.38 13.54
12/23/2021 4:00:00 AM 1.99 35.582 0.097 7.05 1.4 13.54
12/23/2021 4:15:00 AM 1.99 35.582 0.097 7.05 1.34 13.55
12/23/2021 4:30:00 AM 1.98 35.564 0.097 7.05 1.36 13.55
12/23/2021 4:45:00 AM 1.98 35.564 0.097 7.05 1.33 13.56
12/23/2021 5:00:00 AM 1.96 35.528 0.097 7.05 1.35 13.56
12/23/2021 5:15:00 AM 1.95 35.51 0.097 7.05 1.37 13.56
12/23/2021 5:30:00 AM 1.93 35.474 0.097 7.05 1.33 13.57
12/23/2021 5:45:00 AM 1.93 35.474 0.097 7.05 1.34 13.58
12/23/2021 6:00:00 AM 1.91 35.438 0.097 7.05 1.32 13.59
12/23/2021 6:15:00 AM 1.9 35.42 0.097 7.05 1.35 13.59
12/23/2021 6:30:00 AM 1.89 35.402 0.097 7.05 1.3 13.6
12/23/2021 6:45:00 AM 1.87 35.366 0.097 7.05 1.33 13.6
12/23/2021 7:00:00 AM 1.86 35.348 0.097 7.05 1.31 13.6
12/23/2021 7:15:00 AM 1.84 35.312 0.097 7.05 1.33 13.62
12/23/2021 7:30:00 AM 1.82 35.276 0.097 7.05 1.34 13.62
12/23/2021 7:45:00 AM 1.81 35.258 0.097 7.05 1.34 13.65
12/23/2021 8:00:00 AM 1.81 35.258 0.096 7.06 1.36 13.67
12/23/2021 8:15:00 AM 1.81 35.258 0.096 7.07 1.5 13.7
12/23/2021 8:30:00 AM 1.82 35.276 0.096 7.07 1.36 13.74
12/23/2021 8:45:00 AM 1.83 35.294 0.096 7.08 1.36 13.77
12/23/2021 9:00:00 AM 1.86 35.348 0.096 7.09 1.38 13.81
12/23/2021 9:15:00 AM 1.87 35.366 0.096 7.1 1.34 13.84
12/23/2021 9:30:00 AM 1.89 35.402 0.096 7.1 1.34 13.87
12/23/2021 9:45:00 AM 1.91 35.438 0.096 7.11 1.33 13.9
12/23/2021 10:00:00 AM 1.92 35.456 0.096 7.12 1.37 13.92
12/23/2021 10:15:00 AM 1.96 35.528 0.096 7.12 1.34 13.94
12/23/2021 10:30:00 AM 1.98 35.564 0.095 7.13 1.37 13.97
12/23/2021 10:45:00 AM 2 35.6 0.095 7.14 1.33 13.99
12/23/2021 11:00:00 AM 2.04 35.672 0.095 7.14 1.36 14.01
12/23/2021 11:15:00 AM 2.07 35.726 0.095 7.15 1.38 14
12/23/2021 11:30:00 AM 2.1 35.78 0.095 7.15 1.33 14
12/23/2021 11:45:00 AM 2.22 35.996 0.095 7.15 1.31 14
12/23/2021 12:00:00 PM 2.34 36.212 0.095 7.16 1.36 14
12/23/2021 12:15:00 PM 2.45 36.41 0.095 7.16 1.36 14
12/23/2021 12:30:00 PM 2.55 36.59 0.095 7.17 1.33 13.98
12/23/2021 12:45:00 PM 2.65 36.77 0.095 7.17 1.34 13.97
12/23/2021 1:00:00 PM 2.72 36.896 0.095 7.18 1.32 13.95
12/23/2021 1:15:00 PM 2.73 36.914 0.095 7.17 1.34 13.94
12/23/2021 1:30:00 PM 2.7 36.86 0.095 7.17 1.39 13.92
12/23/2021 1:45:00 PM 2.66 36.788 0.094 7.17 1.34 13.9
12/23/2021 2:00:00 PM 2.69 36.842 0.094 7.17 1.37 13.9
12/23/2021 2:15:00 PM 2.66 36.788 0.094 7.17 1.32 13.89
12/23/2021 2:30:00 PM 2.57 36.626 0.094 7.17 1.36 13.88
12/23/2021 2:45:00 PM 2.59 36.662 0.094 7.17 1.33 13.88
12/23/2021 3:00:00 PM 2.6 36.68 0.094 7.17 1.33 13.87
12/23/2021 3:15:00 PM 2.61 36.698 0.094 7.17 1.35 13.85
12/23/2021 3:30:00 PM 2.6 36.68 0.094 7.17 1.28 13.83
12/23/2021 3:45:00 PM 2.59 36.662 0.094 7.17 1.32 13.83
12/23/2021 4:00:00 PM 2.56 36.608 0.094 7.17 1.31 13.81
12/23/2021 4:15:00 PM 2.53 36.554 0.094 7.16 1.32 13.79
12/23/2021 4:30:00 PM 2.5 36.5 0.094 7.15 1.33 13.73
12/23/2021 4:45:00 PM 2.49 36.482 0.095 7.14 1.31 13.69
12/23/2021 5:00:00 PM 2.47 36.446 0.095 7.13 1.36 13.65
12/23/2021 5:15:00 PM 2.45 36.41 0.095 7.12 1.35 13.61
12/23/2021 5:30:00 PM 2.45 36.41 0.095 7.11 1.36 13.58
12/23/2021 5:45:00 PM 2.44 36.392 0.095 7.11 1.37 13.55
12/23/2021 6:00:00 PM 2.44 36.392 0.095 7.1 1.42 13.53
12/23/2021 6:15:00 PM 2.43 36.374 0.095 7.09 1.38 13.49
12/23/2021 6:30:00 PM 2.42 36.356 0.095 7.08 1.4 13.47
12/23/2021 6:45:00 PM 2.41 36.338 0.095 7.08 1.39 13.45
12/23/2021 7:00:00 PM 2.4 36.32 0.095 7.07 1.41 13.45
12/23/2021 7:15:00 PM 2.39 36.302 0.096 7.07 1.38 13.43
12/23/2021 7:30:00 PM 2.39 36.302 0.096 7.07 1.44 13.42
12/23/2021 7:45:00 PM 2.39 36.302 0.096 7.07 1.44 13.42
12/23/2021 8:00:00 PM 2.39 36.302 0.096 7.06 1.38 13.42
12/23/2021 8:15:00 PM 2.38 36.284 0.096 7.06 1.35 13.41
12/23/2021 8:30:00 PM 2.38 36.284 0.096 7.06 1.39 13.41
12/23/2021 8:45:00 PM 2.38 36.284 0.096 7.05 1.42 13.4
12/23/2021 9:00:00 PM 2.38 36.284 0.096 7.06 1.44 13.4
12/23/2021 9:15:00 PM 2.37 36.266 0.096 7.06 1.41 13.39
12/23/2021 9:30:00 PM 2.37 36.266 0.096 7.05 1.4 13.4
12/23/2021 9:45:00 PM 2.37 36.266 0.096 7.05 1.41 13.39
12/23/2021 10:00:00 PM 2.36 36.248 0.096 7.05 1.38 13.39
12/23/2021 10:15:00 PM 2.36 36.248 0.096 7.05 1.44 13.39
12/23/2021 10:30:00 PM 2.37 36.266 0.096 7.05 1.4 13.39
12/23/2021 10:45:00 PM 2.37 36.266 0.096 7.05 1.44 13.38
12/23/2021 11:00:00 PM 2.38 36.284 0.096 7.05 1.44 13.39
12/23/2021 11:15:00 PM 2.37 36.266 0.096 7.05 1.42 13.39
12/23/2021 11:30:00 PM 2.38 36.284 0.096 7.05 1.44 13.37
12/23/2021 11:45:00 PM 2.38 36.284 0.096 7.05 1.48 13.37
12/24/2021 12:00:00 AM 2.37 36.266 0.096 7.05 1.44 13.38
12/24/2021 12:15:00 AM 2.24 36.032 0.096 7.05 1.43 13.36
12/24/2021 12:30:00 AM 2.11 35.798 0.095 7.05 1.42 13.37
12/24/2021 12:45:00 AM 2.14 35.852 0.096 7.05 1.37 13.38
12/24/2021 1:00:00 AM 2.14 35.852 0.096 7.05 1.38 13.4
12/24/2021 1:15:00 AM 2.15 35.87 0.095 7.05 1.4 13.4
12/24/2021 1:30:00 AM 2.17 35.906 0.096 7.05 1.42 13.4
12/24/2021 1:45:00 AM 2.2 35.96 0.096 7.05 1.38 13.4
12/24/2021 2:00:00 AM 2.21 35.978 0.096 7.05 1.4 13.4
12/24/2021 2:15:00 AM 2.21 35.978 0.096 7.05 1.4 13.41
12/24/2021 2:30:00 AM 2.2 35.96 0.096 7.05 1.39 13.41
12/24/2021 2:45:00 AM 2.2 35.96 0.096 7.05 1.4 13.43
12/24/2021 3:00:00 AM 2.2 35.96 0.096 7.04 1.41 13.42
12/24/2021 3:15:00 AM 2.21 35.978 0.096 7.05 1.41 13.41
12/24/2021 3:30:00 AM 2.22 35.996 0.096 7.04 1.36 13.41
12/24/2021 3:45:00 AM 2.25 36.05 0.096 7.05 1.36 13.39
12/24/2021 4:00:00 AM 2.28 36.104 0.096 7.05 1.41 13.39
12/24/2021 4:15:00 AM 2.31 36.158 0.096 7.05 1.43 13.38
12/24/2021 4:30:00 AM 2.33 36.194 0.096 7.04 1.38 13.38
12/24/2021 4:45:00 AM 2.36 36.248 0.097 7.05 1.48 13.37
12/24/2021 5:00:00 AM 2.37 36.266 0.096 7.04 1.89 13.37
12/24/2021 5:15:00 AM 2.38 36.284 0.097 7.05 1.5 13.37
12/24/2021 5:30:00 AM 2.39 36.302 0.096 7.05 1.41 13.36
12/24/2021 5:45:00 AM 2.4 36.32 0.096 7.04 1.44 13.36
12/24/2021 6:00:00 AM 2.41 36.338 0.096 7.04 1.39 13.36
12/24/2021 6:15:00 AM 2.41 36.338 0.097 7.05 1.39 13.37
12/24/2021 6:30:00 AM 2.41 36.338 0.097 7.05 1.41 13.36
12/24/2021 6:45:00 AM 2.42 36.356 0.097 7.05 1.44 13.36
12/24/2021 7:00:00 AM 2.42 36.356 0.096 7.04 1.39 13.36
12/24/2021 7:15:00 AM 2.42 36.356 0.097 7.05 1.45 13.36
12/24/2021 7:30:00 AM 2.43 36.374 0.096 7.05 1.39 13.36
12/24/2021 7:45:00 AM 2.43 36.374 0.096 7.05 1.4 13.37
12/24/2021 8:00:00 AM 2.44 36.392 0.096 7.05 1.4 13.38
12/24/2021 8:15:00 AM 2.45 36.41 0.096 7.05 1.35 13.39
12/24/2021 8:30:00 AM 2.46 36.428 0.096 7.05 1.4 13.41
12/24/2021 8:45:00 AM 2.47 36.446 0.096 7.06 1.41 13.44
12/24/2021 9:00:00 AM 2.48 36.464 0.096 7.07 1.37 13.47
12/24/2021 9:15:00 AM 2.5 36.5 0.096 7.08 1.37 13.51
12/24/2021 9:30:00 AM 2.52 36.536 0.096 7.09 1.36 13.54
12/24/2021 9:45:00 AM 2.55 36.59 0.096 7.1 1.37 13.58
12/24/2021 10:00:00 AM 2.58 36.644 0.096 7.11 1.36 13.62
12/24/2021 10:15:00 AM 2.62 36.716 0.096 7.11 1.38 13.65
12/24/2021 10:30:00 AM 2.66 36.788 0.096 7.12 1.41 13.69
12/24/2021 10:45:00 AM 2.72 36.896 0.096 7.13 1.37 13.72
12/24/2021 11:00:00 AM 2.77 36.986 0.096 7.14 1.4 13.74
12/24/2021 11:15:00 AM 2.83 37.094 0.096 7.15 1.39 13.75
12/24/2021 11:30:00 AM 2.9 37.22 0.096 7.15 1.36 13.76
12/24/2021 11:45:00 AM 2.96 37.328 0.096 7.16 1.35 13.77
12/24/2021 12:00:00 PM 3.03 37.454 0.096 7.17 1.37 13.76
12/24/2021 12:15:00 PM 3.11 37.598 0.096 7.17 1.44 13.77
12/24/2021 12:30:00 PM 3.21 37.778 0.096 7.18 1.38 13.75
12/24/2021 12:45:00 PM 3.31 37.958 0.096 7.18 1.36 13.73
12/24/2021 1:00:00 PM 3.38 38.084 0.096 7.18 1.36 13.73
12/24/2021 1:15:00 PM 3.4 38.12 0.096 7.18 1.38 13.71
12/24/2021 1:30:00 PM 3.42 38.156 0.096 7.18 1.32 13.71
12/24/2021 1:45:00 PM 3.37 38.066 0.096 7.18 1.36 13.7
12/24/2021 2:00:00 PM 3.29 37.922 0.096 7.18 1.38 13.68
12/24/2021 2:15:00 PM 3.18 37.724 0.096 7.18 1.39 13.66
12/24/2021 2:30:00 PM 3.14 37.652 0.096 7.18 1.34 13.66
12/24/2021 2:45:00 PM 3.11 37.598 0.096 7.18 1.35 13.65
12/24/2021 3:00:00 PM 3.09 37.562 0.096 7.17 1.35 13.64
12/24/2021 3:15:00 PM 3.09 37.562 0.096 7.18 1.35 13.64
12/24/2021 3:30:00 PM 3.08 37.544 0.096 7.18 1.34 13.63
12/24/2021 3:45:00 PM 3.06 37.508 0.096 7.17 1.35 13.62
12/24/2021 4:00:00 PM 3.02 37.436 0.096 7.17 1.34 13.58
12/24/2021 4:15:00 PM 2.98 37.364 0.096 7.15 1.36 13.54
12/24/2021 4:30:00 PM 2.95 37.31 0.096 7.15 1.4 13.5
12/24/2021 4:45:00 PM 2.92 37.256 0.096 7.13 1.34 13.46
12/24/2021 5:00:00 PM 2.88 37.184 0.096 7.12 1.37 13.42
12/24/2021 5:15:00 PM 2.84 37.112 0.096 7.12 1.34 13.39
12/24/2021 5:30:00 PM 2.82 37.076 0.096 7.11 1.47 13.37
12/24/2021 5:45:00 PM 2.8 37.04 0.097 7.1 1.45 13.34
12/24/2021 6:00:00 PM 2.78 37.004 0.097 7.09 1.39 13.33
12/24/2021 6:15:00 PM 2.76 36.968 0.097 7.08 1.38 13.32
12/24/2021 6:30:00 PM 2.74 36.932 0.097 7.08 1.39 13.29
12/24/2021 6:45:00 PM 2.72 36.896 0.097 7.07 1.37 13.28
12/24/2021 7:00:00 PM 2.71 36.878 0.097 7.07 1.45 13.27
12/24/2021 7:15:00 PM 2.7 36.86 0.097 7.06 1.42 13.26
12/24/2021 7:30:00 PM 2.69 36.842 0.097 7.06 1.38 13.25
12/24/2021 7:45:00 PM 2.67 36.806 0.097 7.06 1.41 13.25
12/24/2021 8:00:00 PM 2.67 36.806 0.097 7.05 1.41 13.24
12/24/2021 8:15:00 PM 2.68 36.824 0.097 7.05 1.39 13.24
12/24/2021 8:30:00 PM 2.67 36.806 0.097 7.05 1.41 13.24
12/24/2021 8:45:00 PM 2.67 36.806 0.097 7.05 1.42 13.23
12/24/2021 9:00:00 PM 2.67 36.806 0.097 7.05 1.41 13.23
12/24/2021 9:15:00 PM 2.68 36.824 0.097 7.05 1.46 13.23
12/24/2021 9:30:00 PM 2.68 36.824 0.097 7.05 1.4 13.22
12/24/2021 9:45:00 PM 2.69 36.842 0.097 7.05 1.38 13.22
12/24/2021 10:00:00 PM 2.7 36.86 0.097 7.05 1.41 13.22
12/24/2021 10:15:00 PM 2.71 36.878 0.097 7.04 1.37 13.22
12/24/2021 10:30:00 PM 2.72 36.896 0.097 7.04 1.38 13.21
12/24/2021 10:45:00 PM 2.72 36.896 0.097 7.04 1.42 13.2
12/24/2021 11:00:00 PM 2.73 36.914 0.097 7.04 1.4 13.2
12/24/2021 11:15:00 PM 2.74 36.932 0.097 7.04 1.35 13.19
12/24/2021 11:30:00 PM 2.76 36.968 0.097 7.04 1.37 13.19
12/24/2021 11:45:00 PM 2.77 36.986 0.097 7.04 1.42 13.18
12/25/2021 12:00:00 AM 2.78 37.004 0.097 7.04 1.45 13.18
12/25/2021 12:15:00 AM 2.79 37.022 0.097 7.04 1.39 13.16
12/25/2021 12:30:00 AM 2.81 37.058 0.097 7.04 1.35 13.16
12/25/2021 12:45:00 AM 2.82 37.076 0.097 7.04 1.39 13.15
12/25/2021 1:00:00 AM 2.83 37.094 0.097 7.04 1.38 13.15
12/25/2021 1:15:00 AM 2.84 37.112 0.097 7.04 1.41 13.14
12/25/2021 1:30:00 AM 2.84 37.112 0.097 7.04 1.42 13.13
12/25/2021 1:45:00 AM 2.85 37.13 0.097 7.04 1.36 13.12
12/25/2021 2:00:00 AM 2.86 37.148 0.098 7.04 1.4 13.11
12/25/2021 2:15:00 AM 2.87 37.166 0.098 7.04 1.43 13.11
12/25/2021 2:30:00 AM 2.87 37.166 0.098 7.04 1.4 13.1
12/25/2021 2:45:00 AM 2.88 37.184 0.098 7.04 1.39 13.1
12/25/2021 3:00:00 AM 2.9 37.22 0.098 7.04 1.39 13.1
12/25/2021 3:15:00 AM 2.91 37.238 0.099 7.04 1.38 13.08
12/25/2021 3:30:00 AM 2.92 37.256 0.098 7.04 1.39 13.08
12/25/2021 3:45:00 AM 2.94 37.292 0.098 7.04 1.46 13.07
12/25/2021 4:00:00 AM 2.95 37.31 0.098 7.04 1.4 13.06
12/25/2021 4:15:00 AM 2.97 37.346 0.098 7.04 1.35 13.05
12/25/2021 4:30:00 AM 2.98 37.364 0.098 7.04 1.33 13.04
12/25/2021 4:45:00 AM 3 37.4 0.098 7.04 1.37 13.03
12/25/2021 5:00:00 AM 3.01 37.418 0.098 7.04 1.45 13.03
12/25/2021 5:15:00 AM 3.03 37.454 0.098 7.04 1.42 13.01
12/25/2021 5:30:00 AM 3.04 37.472 0.098 7.04 1.44 13.01
12/25/2021 5:45:00 AM 3.05 37.49 0.098 7.04 1.37 13
12/25/2021 6:00:00 AM 3.06 37.508 0.098 7.04 1.4 13
12/25/2021 6:15:00 AM 3.06 37.508 0.098 7.04 1.4 12.99
12/25/2021 6:30:00 AM 3.07 37.526 0.098 7.04 1.44 12.99
12/25/2021 6:45:00 AM 3.08 37.544 0.098 7.04 1.45 12.99
12/25/2021 7:00:00 AM 3.08 37.544 0.098 7.04 1.61 12.98
12/25/2021 7:15:00 AM 3.09 37.562 0.098 7.04 1.48 12.98
12/25/2021 7:30:00 AM 3.1 37.58 0.097 7.04 1.41 12.97
12/25/2021 7:45:00 AM 3.12 37.616 0.097 7.04 1.44 12.96
12/25/2021 8:00:00 AM 3.13 37.634 0.097 7.04 1.46 12.97
12/25/2021 8:15:00 AM 3.14 37.652 0.097 7.04 1.43 12.96
12/25/2021 8:30:00 AM 3.16 37.688 0.097 7.05 1.42 12.97
12/25/2021 8:45:00 AM 3.18 37.724 0.097 7.05 1.41 12.99
12/25/2021 9:00:00 AM 3.21 37.778 0.097 7.06 1.41 13.01
12/25/2021 9:15:00 AM 3.23 37.814 0.097 7.06 1.47 13.02
12/25/2021 9:30:00 AM 3.25 37.85 0.097 7.06 1.41 13.02
12/25/2021 9:45:00 AM 3.27 37.886 0.097 7.07 1.42 13.05
12/25/2021 10:00:00 AM 3.3 37.94 0.097 7.08 1.43 13.07
12/25/2021 10:15:00 AM 3.34 38.012 0.097 7.08 1.49 13.11
12/25/2021 10:30:00 AM 3.38 38.084 0.097 7.09 1.49 13.14
12/25/2021 10:45:00 AM 3.43 38.174 0.097 7.11 1.44 13.16
12/25/2021 11:00:00 AM 3.48 38.264 0.097 7.12 1.41 13.2
12/25/2021 11:15:00 AM 3.5 38.3 0.097 7.12 1.45 13.18
12/25/2021 11:30:00 AM 3.51 38.318 0.097 7.12 1.45 13.16
12/25/2021 11:45:00 AM 3.52 38.336 0.097 7.12 1.45 13.14
12/25/2021 12:00:00 PM 3.54 38.372 0.097 7.13 1.46 13.14
12/25/2021 12:15:00 PM 3.57 38.426 0.097 7.13 1.44 13.16
12/25/2021 12:30:00 PM 3.59 38.462 0.097 7.14 1.55 13.18
12/25/2021 12:45:00 PM 3.61 38.498 0.097 7.14 1.45 13.17
12/25/2021 1:00:00 PM 3.66 38.588 0.097 7.15 1.48 13.2
12/25/2021 1:15:00 PM 3.7 38.66 0.097 7.15 1.46 13.19
12/25/2021 1:30:00 PM 3.72 38.696 0.097 7.15 1.46 13.17
12/25/2021 1:45:00 PM 3.75 38.75 0.097 7.16 1.47 13.18
12/25/2021 2:00:00 PM 3.75 38.75 0.097 7.16 1.46 13.16
12/25/2021 2:15:00 PM 3.76 38.768 0.097 7.16 1.44 13.15
12/25/2021 2:30:00 PM 3.78 38.804 0.097 7.16 1.47 13.16
12/25/2021 2:45:00 PM 3.79 38.822 0.097 7.16 1.44 13.16
12/25/2021 3:00:00 PM 3.8 38.84 0.097 7.17 1.54 13.16
12/25/2021 3:15:00 PM 3.8 38.84 0.097 7.17 1.46 13.14
12/25/2021 3:30:00 PM 3.82 38.876 0.098 7.17 1.43 13.15
12/25/2021 3:45:00 PM 3.81 38.858 0.098 7.16 1.5 13.1
12/25/2021 4:00:00 PM 3.8 38.84 0.098 7.15 1.48 13.06
12/25/2021 4:15:00 PM 3.79 38.822 0.098 7.14 1.54 13.03
12/25/2021 4:30:00 PM 3.78 38.804 0.098 7.13 1.48 12.99
12/25/2021 4:45:00 PM 3.76 38.768 0.098 7.12 1.48 12.96
12/25/2021 5:00:00 PM 3.74 38.732 0.098 7.12 1.5 12.93
12/25/2021 5:15:00 PM 3.74 38.732 0.098 7.11 1.52 12.9
12/25/2021 5:30:00 PM 3.72 38.696 0.098 7.1 1.54 12.88
12/25/2021 5:45:00 PM 3.7 38.66 0.098 7.09 1.54 12.86
12/25/2021 6:00:00 PM 3.68 38.624 0.098 7.09 1.6 12.83
12/25/2021 6:15:00 PM 3.67 38.606 0.098 7.08 1.54 12.82
12/25/2021 6:30:00 PM 3.66 38.588 0.099 7.07 1.53 12.82
12/25/2021 6:45:00 PM 3.66 38.588 0.099 7.07 1.54 12.81
12/25/2021 7:00:00 PM 3.65 38.57 0.099 7.06 1.54 12.8
12/25/2021 7:15:00 PM 3.64 38.552 0.099 7.06 1.49 12.79
12/25/2021 7:30:00 PM 3.64 38.552 0.099 7.06 1.5 12.8
12/25/2021 7:45:00 PM 3.63 38.534 0.099 7.05 1.55 12.8
12/25/2021 8:00:00 PM 3.64 38.552 0.099 7.05 1.54 12.79
12/25/2021 8:15:00 PM 3.64 38.552 0.099 7.05 1.53 12.8
12/25/2021 8:30:00 PM 3.64 38.552 0.099 7.05 1.53 12.79
12/25/2021 8:45:00 PM 3.64 38.552 0.099 7.05 1.51 12.8
12/25/2021 9:00:00 PM 3.64 38.552 0.099 7.05 1.56 12.79
12/25/2021 9:15:00 PM 3.64 38.552 0.099 7.05 1.55 12.81
12/25/2021 9:30:00 PM 3.64 38.552 0.099 7.05 1.54 12.8
12/25/2021 9:45:00 PM 3.64 38.552 0.099 7.05 1.5 12.8
12/25/2021 10:00:00 PM 3.64 38.552 0.099 7.04 1.52 12.81
12/25/2021 10:15:00 PM 3.63 38.534 0.099 7.05 1.53 12.83
12/25/2021 10:30:00 PM 3.63 38.534 0.099 7.05 1.52 12.82
12/25/2021 10:45:00 PM 3.64 38.552 0.099 7.04 1.53 12.81
12/25/2021 11:00:00 PM 3.64 38.552 0.099 7.04 1.51 12.82
12/25/2021 11:15:00 PM 3.64 38.552 0.099 7.04 1.51 12.83
12/25/2021 11:30:00 PM 3.65 38.57 0.099 7.04 1.51 12.83
12/25/2021 11:45:00 PM 3.65 38.57 0.099 7.04 1.55 12.84
12/26/2021 12:00:00 AM 3.63 38.534 0.099 7.04 1.52 12.84
12/26/2021 12:15:00 AM 3.63 38.534 0.099 7.04 1.5 12.85
12/26/2021 12:30:00 AM 3.62 38.516 0.099 7.04 1.5 12.85
12/26/2021 12:45:00 AM 3.6 38.48 0.099 7.04 1.49 12.86
12/26/2021 1:00:00 AM 3.58 38.444 0.099 7.04 1.48 12.85
12/26/2021 1:15:00 AM 3.57 38.426 0.099 7.04 1.5 12.85
12/26/2021 1:30:00 AM 3.56 38.408 0.099 7.04 1.52 12.87
12/26/2021 1:45:00 AM 3.54 38.372 0.099 7.04 1.5 12.86
12/26/2021 2:00:00 AM 3.52 38.336 0.099 7.04 1.47 12.87
12/26/2021 2:15:00 AM 3.51 38.318 0.099 7.04 1.46 12.89
12/26/2021 2:30:00 AM 3.52 38.336 0.099 7.04 1.5 12.88
12/26/2021 2:45:00 AM 3.52 38.336 0.099 7.04 1.51 12.89
12/26/2021 3:00:00 AM 3.52 38.336 0.099 7.04 1.5 12.89
12/26/2021 3:15:00 AM 3.52 38.336 0.099 7.04 1.49 12.91
12/26/2021 3:30:00 AM 3.51 38.318 0.099 7.04 1.49 12.91
12/26/2021 3:45:00 AM 3.5 38.3 0.099 7.04 1.41 12.92
12/26/2021 4:00:00 AM 3.49 38.282 0.099 7.04 1.41 12.92
12/26/2021 4:15:00 AM 3.48 38.264 0.099 7.04 1.44 12.92
12/26/2021 4:30:00 AM 3.48 38.264 0.099 7.04 1.44 12.94
12/26/2021 4:45:00 AM 3.47 38.246 0.099 7.04 1.43 12.94
12/26/2021 5:00:00 AM 3.45 38.21 0.099 7.04 1.44 12.95
12/26/2021 5:15:00 AM 3.44 38.192 0.099 7.04 1.5 12.94
12/26/2021 5:30:00 AM 3.43 38.174 0.099 7.04 1.45 12.94
12/26/2021 5:45:00 AM 3.42 38.156 0.099 7.04 1.44 12.95
12/26/2021 6:00:00 AM 3.42 38.156 0.099 7.04 1.42 12.94
12/26/2021 6:15:00 AM 3.41 38.138 0.099 7.05 1.42 12.94
12/26/2021 6:30:00 AM 3.4 38.12 0.099 7.05 1.42 12.95
12/26/2021 6:45:00 AM 3.4 38.12 0.099 7.05 1.39 12.96
12/26/2021 7:00:00 AM 3.39 38.102 0.099 7.05 1.41 12.95
12/26/2021 7:15:00 AM 3.38 38.084 0.099 7.05 1.42 12.96
12/26/2021 7:30:00 AM 3.37 38.066 0.099 7.05 1.39 12.97
12/26/2021 7:45:00 AM 3.36 38.048 0.099 7.05 1.4 12.99
12/26/2021 8:00:00 AM 3.35 38.03 0.099 7.06 1.42 13
12/26/2021 8:15:00 AM 3.36 38.048 0.099 7.06 1.41 13.04
12/26/2021 8:30:00 AM 3.38 38.084 0.099 7.07 1.41 13.09
12/26/2021 8:45:00 AM 3.39 38.102 0.099 7.08 1.4 13.13
12/26/2021 9:00:00 AM 3.4 38.12 0.099 7.09 1.41 13.14
12/26/2021 9:15:00 AM 3.43 38.174 0.099 7.09 1.4 13.18
12/26/2021 9:30:00 AM 3.47 38.246 0.099 7.1 1.42 13.21
12/26/2021 9:45:00 AM 3.5 38.3 0.099 7.11 1.38 13.23
12/26/2021 10:00:00 AM 3.55 38.39 0.098 7.12 1.38 13.26
12/26/2021 10:15:00 AM 3.59 38.462 0.098 7.13 1.41 13.29
12/26/2021 10:30:00 AM 3.63 38.534 0.098 7.14 1.39 13.31
12/26/2021 10:45:00 AM 3.69 38.642 0.098 7.15 1.39 13.32
12/26/2021 11:00:00 AM 3.76 38.768 0.098 7.16 1.4 13.33
12/26/2021 11:15:00 AM 3.84 38.912 0.098 7.16 1.4 13.34
12/26/2021 11:30:00 AM 3.94 39.092 0.098 7.18 1.44 13.34
12/26/2021 11:45:00 AM 4.05 39.29 0.098 7.18 1.36 13.34
12/26/2021 12:00:00 PM 4.18 39.524 0.098 7.19 1.38 13.33
12/26/2021 12:15:00 PM 4.33 39.794 0.098 7.19 1.38 13.32
12/26/2021 12:30:00 PM 4.44 39.992 0.098 7.2 1.35 13.31
12/26/2021 12:45:00 PM 4.53 40.154 0.098 7.2 1.41 13.3
12/26/2021 1:00:00 PM 4.57 40.226 0.098 7.2 1.45 13.27
12/26/2021 1:15:00 PM 4.57 40.226 0.098 7.21 1.48 13.26
12/26/2021 1:30:00 PM 4.62 40.316 0.098 7.21 1.39 13.26
12/26/2021 1:45:00 PM 4.6 40.28 0.098 7.21 1.39 13.24
12/26/2021 2:00:00 PM 4.64 40.352 0.098 7.21 1.43 13.23
12/26/2021 2:15:00 PM 4.52 40.136 0.098 7.21 1.53 13.22
12/26/2021 2:30:00 PM 4.46 40.028 0.098 7.21 1.54 13.2
12/26/2021 2:45:00 PM 4.53 40.154 0.098 7.22 1.52 13.21
12/26/2021 3:00:00 PM 4.52 40.136 0.098 7.21 1.51 13.19
12/26/2021 3:15:00 PM 4.48 40.064 0.099 7.21 1.51 13.16
12/26/2021 3:30:00 PM 4.46 40.028 0.099 7.2 1.42 13.13
12/26/2021 3:45:00 PM 4.42 39.956 0.099 7.19 1.41 13.09
12/26/2021 4:00:00 PM 4.38 39.884 0.099 7.19 1.47 13.06
12/26/2021 4:15:00 PM 4.34 39.812 0.099 7.18 1.42 13.02
12/26/2021 4:30:00 PM 4.28 39.704 0.099 7.17 1.45 12.99
12/26/2021 4:45:00 PM 4.23 39.614 0.099 7.16 1.44 12.97
12/26/2021 5:00:00 PM 4.17 39.506 0.099 7.15 1.48 12.94
12/26/2021 5:15:00 PM 4.11 39.398 0.099 7.13 1.41 12.93
12/26/2021 5:30:00 PM 4.05 39.29 0.099 7.12 1.45 12.91
12/26/2021 5:45:00 PM 4 39.2 0.099 7.12 1.42 12.9
12/26/2021 6:00:00 PM 3.95 39.11 0.099 7.11 1.42 12.9
12/26/2021 6:15:00 PM 3.9 39.02 0.099 7.1 1.47 12.89
12/26/2021 6:30:00 PM 3.86 38.948 0.099 7.09 1.48 12.89
12/26/2021 6:45:00 PM 3.82 38.876 0.099 7.09 1.46 12.89
12/26/2021 7:00:00 PM 3.78 38.804 0.099 7.08 1.42 12.89
12/26/2021 7:15:00 PM 3.75 38.75 0.099 7.08 1.47 12.89
12/26/2021 7:30:00 PM 3.71 38.678 0.099 7.07 1.68 12.9
12/26/2021 7:45:00 PM 3.68 38.624 0.099 7.07 1.48 12.89
12/26/2021 8:00:00 PM 3.65 38.57 0.099 7.07 1.47 12.91
12/26/2021 8:15:00 PM 3.63 38.534 0.099 7.07 1.46 12.91
12/26/2021 8:30:00 PM 3.61 38.498 0.099 7.07 1.52 12.9
12/26/2021 8:45:00 PM 3.58 38.444 0.099 7.07 1.46 12.92
12/26/2021 9:00:00 PM 3.57 38.426 0.099 7.07 1.5 12.92
12/26/2021 9:15:00 PM 3.55 38.39 0.099 7.06 1.46 12.91
12/26/2021 9:30:00 PM 3.54 38.372 0.099 7.06 1.47 12.92
12/26/2021 9:45:00 PM 3.54 38.372 0.099 7.06 1.47 12.92
12/26/2021 10:00:00 PM 3.54 38.372 0.099 7.06 1.51 12.93
12/26/2021 10:15:00 PM 3.54 38.372 0.099 7.06 1.46 12.93
12/26/2021 10:30:00 PM 3.56 38.408 0.099 7.06 1.44 12.93
12/26/2021 10:45:00 PM 3.57 38.426 0.099 7.06 1.42 12.92
12/26/2021 11:00:00 PM 3.59 38.462 0.099 7.06 1.44 12.93
12/26/2021 11:15:00 PM 3.61 38.498 0.099 7.06 1.47 12.91
12/26/2021 11:30:00 PM 3.63 38.534 0.099 7.06 1.49 12.91
12/26/2021 11:45:00 PM 3.64 38.552 0.099 7.06 1.42 12.9
12/27/2021 12:00:00 AM 3.66 38.588 0.099 7.06 1.48 12.9
12/27/2021 12:15:00 AM 3.68 38.624 0.099 7.06 1.49 12.89
12/27/2021 12:30:00 AM 3.7 38.66 0.099 7.06 1.43 12.88
12/27/2021 12:45:00 AM 3.71 38.678 0.099 7.06 1.45 12.87
12/27/2021 1:00:00 AM 3.72 38.696 0.099 7.05 1.44 12.88
12/27/2021 1:15:00 AM 3.73 38.714 0.099 7.05 1.42 12.87
12/27/2021 1:30:00 AM 3.75 38.75 0.099 7.05 1.41 12.87
12/27/2021 1:45:00 AM 3.76 38.768 0.099 7.05 1.43 12.86
12/27/2021 2:00:00 AM 3.77 38.786 0.099 7.05 1.44 12.86
12/27/2021 2:15:00 AM 3.76 38.768 0.099 7.05 1.43 12.86
12/27/2021 2:30:00 AM 3.74 38.732 0.099 7.05 1.46 12.87
12/27/2021 2:45:00 AM 3.71 38.678 0.099 7.05 1.41 12.87
12/27/2021 3:00:00 AM 3.68 38.624 0.099 7.05 1.43 12.87
12/27/2021 3:15:00 AM 3.66 38.588 0.099 7.05 1.45 12.89
12/27/2021 3:30:00 AM 3.65 38.57 0.099 7.05 1.54 12.89
12/27/2021 3:45:00 AM 3.64 38.552 0.099 7.05 1.4 12.89
12/27/2021 4:00:00 AM 3.64 38.552 0.099 7.05 1.43 12.9
12/27/2021 4:15:00 AM 3.63 38.534 0.099 7.05 1.43 12.9
12/27/2021 4:30:00 AM 3.63 38.534 0.099 7.05 1.41 12.89
12/27/2021 4:45:00 AM 3.63 38.534 0.099 7.05 1.41 12.9
12/27/2021 5:00:00 AM 3.63 38.534 0.099 7.05 1.44 12.91
12/27/2021 5:15:00 AM 3.63 38.534 0.099 7.05 1.46 12.91
12/27/2021 5:30:00 AM 3.63 38.534 0.099 7.05 1.42 12.88
12/27/2021 5:45:00 AM 3.64 38.552 0.099 7.05 1.4 12.9
12/27/2021 6:00:00 AM 3.64 38.552 0.099 7.05 1.42 12.9
12/27/2021 6:15:00 AM 3.65 38.57 0.099 7.05 1.4 12.88
12/27/2021 6:30:00 AM 3.66 38.588 0.099 7.05 1.39 12.88
12/27/2021 6:45:00 AM 3.66 38.588 0.099 7.05 1.38 12.89
12/27/2021 7:00:00 AM 3.67 38.606 0.099 7.05 1.42 12.88
12/27/2021 7:15:00 AM 3.69 38.642 0.099 7.05 1.43 12.87
12/27/2021 7:30:00 AM 3.7 38.66 0.099 7.05 1.43 12.86
12/27/2021 7:45:00 AM 3.72 38.696 0.099 7.05 1.47 12.85
12/27/2021 8:00:00 AM 3.74 38.732 0.099 7.05 1.41 12.86
12/27/2021 8:15:00 AM 3.76 38.768 0.099 7.06 1.4 12.86
12/27/2021 8:30:00 AM 3.78 38.804 0.099 7.06 1.39 12.86
12/27/2021 8:45:00 AM 3.8 38.84 0.099 7.06 1.39 12.86
12/27/2021 9:00:00 AM 3.82 38.876 0.099 7.06 1.42 12.87
12/27/2021 9:15:00 AM 3.84 38.912 0.099 7.07 1.39 12.88
12/27/2021 9:30:00 AM 3.81 38.858 0.099 7.07 1.38 12.89
12/27/2021 9:45:00 AM 3.73 38.714 0.099 7.07 1.46 12.9
12/27/2021 10:00:00 AM 3.64 38.552 0.099 7.08 1.42 12.89
12/27/2021 10:15:00 AM 3.64 38.552 0.099 7.08 1.44 12.95
12/27/2021 10:30:00 AM 3.67 38.606 0.099 7.1 1.43 13
12/27/2021 10:45:00 AM 3.69 38.642 0.098 7.11 1.4 13.06
12/27/2021 11:00:00 AM 3.72 38.696 0.098 7.12 1.43 13.11
12/27/2021 11:15:00 AM 3.77 38.786 0.098 7.13 1.4 13.16
12/27/2021 11:30:00 AM 3.81 38.858 0.099 7.14 1.41 13.18
12/27/2021 11:45:00 AM 3.85 38.93 0.099 7.15 1.49 13.21
12/27/2021 12:00:00 PM 3.89 39.002 0.099 7.16 1.43 13.23
12/27/2021 12:15:00 PM 3.88 38.984 0.099 7.17 1.45 13.24
12/27/2021 12:30:00 PM 3.91 39.038 0.099 7.17 1.4 13.25
12/27/2021 12:45:00 PM 3.92 39.056 0.099 7.18 1.44 13.23
12/27/2021 1:00:00 PM 3.92 39.056 0.098 7.17 1.43 13.2
12/27/2021 1:15:00 PM 3.83 38.894 0.101 7.17 1.76 13.19
12/27/2021 1:30:00 PM 3.85 38.93 0.099 7.17 1.51 13.17
12/27/2021 1:45:00 PM 3.89 39.002 0.109 7.18 2.06 13.16
12/27/2021 2:00:00 PM 3.92 39.056 0.105 7.18 1.83 13.15
12/27/2021 2:15:00 PM 3.96 39.128 0.102 7.17 1.59 13.13
12/27/2021 2:30:00 PM 4.01 39.218 0.1 7.17 1.55 13.11
12/27/2021 2:45:00 PM 4.04 39.272 0.099 7.18 1.5 13.08
12/27/2021 3:00:00 PM 4.05 39.29 0.099 7.16 1.48 13.05
12/27/2021 3:15:00 PM 4.06 39.308 0.099 7.16 1.56 13.02
12/27/2021 3:30:00 PM 4.06 39.308 0.099 7.15 1.53 12.98
12/27/2021 3:45:00 PM 4.06 39.308 0.099 7.14 1.51 12.95
12/27/2021 4:00:00 PM 4.04 39.272 0.099 7.14 1.52 12.92
12/27/2021 4:15:00 PM 4.04 39.272 0.099 7.14 1.52 12.9
12/27/2021 4:30:00 PM 4.02 39.236 0.099 7.13 1.55 12.86
12/27/2021 4:45:00 PM 4.01 39.218 0.099 7.12 1.58 12.84
12/27/2021 5:00:00 PM 4 39.2 0.099 7.11 1.52 12.81
12/27/2021 5:15:00 PM 3.99 39.182 0.1 7.11 1.68 12.79
12/27/2021 5:30:00 PM 3.98 39.164 0.1 7.1 1.56 12.77
12/27/2021 5:45:00 PM 3.98 39.164 0.1 7.1 1.54 12.76
12/27/2021 6:00:00 PM 3.96 39.128 0.1 7.1 1.56 12.75
12/27/2021 6:15:00 PM 3.94 39.092 0.101 7.09 1.57 12.74
12/27/2021 6:30:00 PM 3.93 39.074 0.1 7.08 1.54 12.73
12/27/2021 6:45:00 PM 3.93 39.074 0.102 7.07 1.7 12.72
12/27/2021 7:00:00 PM 3.92 39.056 0.106 7.08 1.6 12.72
12/27/2021 7:15:00 PM 3.91 39.038 0.104 7.07 1.61 12.72
12/27/2021 7:30:00 PM 3.89 39.002 0.102 7.07 1.6 12.72
12/27/2021 7:45:00 PM 3.88 38.984 0.102 7.07 1.6 12.71
12/27/2021 8:00:00 PM 3.86 38.948 0.1 7.07 1.63 12.72
12/27/2021 8:15:00 PM 3.85 38.93 0.111 7.06 1.79 12.72
12/27/2021 8:30:00 PM 3.85 38.93 0.113 7.07 1.79 12.71
12/27/2021 8:45:00 PM 3.84 38.912 0.106 7.06 1.69 12.72
12/27/2021 9:00:00 PM 3.83 38.894 0.103 7.06 1.72 12.72
12/27/2021 9:15:00 PM 3.83 38.894 0.102 7.06 1.7 12.71
12/27/2021 9:30:00 PM 3.83 38.894 0.104 7.06 1.73 12.72
12/27/2021 9:45:00 PM 3.83 38.894 0.102 7.06 1.69 12.71
12/27/2021 10:00:00 PM 3.82 38.876 0.101 7.06 1.65 12.72
12/27/2021 10:15:00 PM 3.82 38.876 0.101 7.06 1.78 12.72
12/27/2021 10:30:00 PM 3.81 38.858 0.114 7.06 2.02 12.72
12/27/2021 10:45:00 PM 3.81 38.858 0.109 7.06 1.78 12.72
12/27/2021 11:00:00 PM 3.81 38.858 0.104 7.05 1.71 12.72
12/27/2021 11:15:00 PM 3.8 38.84 0.102 7.05 1.7 12.73
12/27/2021 11:30:00 PM 3.79 38.822 0.101 7.06 1.68 12.73
12/27/2021 11:45:00 PM 3.78 38.804 0.1 7.05 1.7 12.73
12/28/2021 12:00:00 AM 3.77 38.786 0.1 7.05 1.67 12.74
12/28/2021 12:15:00 AM 3.77 38.786 0.1 7.05 1.6 12.74
12/28/2021 12:30:00 AM 3.76 38.768 0.1 7.05 1.55 12.74
12/28/2021 12:45:00 AM 3.76 38.768 0.1 7.05 1.57 12.74
12/28/2021 1:00:00 AM 3.76 38.768 0.1 7.05 1.56 12.75
12/28/2021 1:15:00 AM 3.76 38.768 0.1 7.05 1.52 12.74
12/28/2021 1:30:00 AM 3.76 38.768 0.1 7.05 1.55 12.74
12/28/2021 1:45:00 AM 3.76 38.768 0.1 7.05 1.58 12.74
12/28/2021 2:00:00 AM 3.77 38.786 0.1 7.05 1.56 12.75
12/28/2021 2:15:00 AM 3.77 38.786 0.1 7.05 1.53 12.75
12/28/2021 2:30:00 AM 3.77 38.786 0.1 7.06 1.55 12.74
12/28/2021 2:45:00 AM 3.77 38.786 0.1 7.06 1.57 12.75
12/28/2021 3:00:00 AM 3.76 38.768 0.1 7.06 1.55 12.76
12/28/2021 3:15:00 AM 3.76 38.768 0.1 7.06 1.55 12.76
12/28/2021 3:30:00 AM 3.75 38.75 0.1 7.05 1.48 12.77
12/28/2021 3:45:00 AM 3.74 38.732 0.1 7.06 1.54 12.78
12/28/2021 4:00:00 AM 3.72 38.696 0.1 7.05 1.5 12.77
12/28/2021 4:15:00 AM 3.71 38.678 0.1 7.06 1.57 12.79
12/28/2021 4:30:00 AM 3.69 38.642 0.1 7.05 1.49 12.79
12/28/2021 4:45:00 AM 3.68 38.624 0.101 7.05 1.53 12.8
12/28/2021 5:00:00 AM 3.66 38.588 0.101 7.06 1.47 12.8
12/28/2021 5:15:00 AM 3.65 38.57 0.101 7.06 1.48 12.8
12/28/2021 5:30:00 AM 3.65 38.57 0.101 7.05 1.5 12.8
12/28/2021 5:45:00 AM 3.64 38.552 0.101 7.05 1.48 12.81
12/28/2021 6:00:00 AM 3.63 38.534 0.101 7.05 1.51 12.82
12/28/2021 6:15:00 AM 3.63 38.534 0.101 7.05 1.45 12.81
12/28/2021 6:30:00 AM 3.62 38.516 0.101 7.05 1.49 12.82
12/28/2021 6:45:00 AM 3.61 38.498 0.101 7.05 1.51 12.84
12/28/2021 7:00:00 AM 3.6 38.48 0.101 7.05 1.5 12.83
12/28/2021 7:15:00 AM 3.6 38.48 0.101 7.05 1.5 12.84
12/28/2021 7:30:00 AM 3.59 38.462 0.101 7.05 1.5 12.85
12/28/2021 7:45:00 AM 3.58 38.444 0.101 7.05 1.48 12.84
12/28/2021 8:00:00 AM 3.58 38.444 0.101 7.06 1.5 12.87
12/28/2021 8:15:00 AM 3.59 38.462 0.101 7.06 1.48 12.89
12/28/2021 8:30:00 AM 3.6 38.48 0.101 7.08 1.46 12.93
12/28/2021 8:45:00 AM 3.62 38.516 0.1 7.08 1.51 12.99
12/28/2021 9:00:00 AM 3.64 38.552 0.1 7.09 1.47 13.03
12/28/2021 9:15:00 AM 3.67 38.606 0.1 7.1 1.46 13.08
12/28/2021 9:30:00 AM 3.71 38.678 0.1 7.11 1.47 13.12
12/28/2021 9:45:00 AM 3.75 38.75 0.1 7.13 1.42 13.15
12/28/2021 10:00:00 AM 3.77 38.786 0.1 7.13 1.45 13.17
12/28/2021 10:15:00 AM 3.79 38.822 0.1 7.14 1.45 13.2
12/28/2021 10:30:00 AM 3.83 38.894 0.1 7.15 1.46 13.23
12/28/2021 10:45:00 AM 3.89 39.002 0.1 7.15 1.44 13.26
12/28/2021 11:00:00 AM 3.95 39.11 0.1 7.17 1.41 13.28
12/28/2021 11:15:00 AM 4 39.2 0.1 7.17 1.43 13.3
12/28/2021 11:30:00 AM 4.08 39.344 0.1 7.18 1.44 13.31
12/28/2021 11:45:00 AM 4.11 39.398 0.1 7.19 1.41 13.31
12/28/2021 12:00:00 PM 4.13 39.434 0.1 7.19 1.43 13.32
12/28/2021 12:15:00 PM 4.13 39.434 0.1 7.19 1.4 13.31
12/28/2021 12:30:00 PM 4.13 39.434 0.1 7.19 1.46 13.3
12/28/2021 12:45:00 PM 4.13 39.434 0.1 7.19 1.39 13.28
12/28/2021 1:00:00 PM 4.11 39.398 0.101 7.19 1.44 13.26
12/28/2021 1:15:00 PM 4.1 39.38 0.101 7.19 1.4 13.23
12/28/2021 1:30:00 PM 4.09 39.362 0.101 7.19 1.41 13.2
12/28/2021 1:45:00 PM 4.08 39.344 0.101 7.17 1.48 13.18
12/28/2021 2:00:00 PM 4.08 39.344 0.101 7.18 1.45 13.18
12/28/2021 2:15:00 PM 4.1 39.38 0.101 7.18 1.45 13.18
12/28/2021 2:30:00 PM 4.1 39.38 0.101 7.17 1.46 13.16
12/28/2021 2:45:00 PM 4.1 39.38 0.101 7.17 1.39 13.12
12/28/2021 3:00:00 PM 4.09 39.362 0.101 7.16 1.39 13.09
12/28/2021 3:15:00 PM 4.07 39.326 0.101 7.16 1.44 13.06
12/28/2021 3:30:00 PM 4.05 39.29 0.101 7.14 1.44 13.02
12/28/2021 3:45:00 PM 4.03 39.254 0.101 7.13 1.47 12.99
12/28/2021 4:00:00 PM 4.01 39.218 0.101 7.13 1.41 12.97
12/28/2021 4:15:00 PM 3.99 39.182 0.101 7.12 1.43 12.95
12/28/2021 4:30:00 PM 3.98 39.164 0.101 7.12 1.47 12.93
12/28/2021 4:45:00 PM 3.96 39.128 0.101 7.11 1.53 12.9
12/28/2021 5:00:00 PM 3.94 39.092 0.101 7.1 1.49 12.88
12/28/2021 5:15:00 PM 3.93 39.074 0.101 7.09 1.44 12.86
12/28/2021 5:30:00 PM 3.92 39.056 0.101 7.09 1.51 12.84
12/28/2021 5:45:00 PM 3.91 39.038 0.101 7.08 1.48 12.82
12/28/2021 6:00:00 PM 3.9 39.02 0.101 7.08 1.44 12.81
12/28/2021 6:15:00 PM 3.88 38.984 0.101 7.07 1.49 12.8
12/28/2021 6:30:00 PM 3.87 38.966 0.102 7.07 1.5 12.8
12/28/2021 6:45:00 PM 3.86 38.948 0.102 7.07 1.48 12.79
12/28/2021 7:00:00 PM 3.85 38.93 0.101 7.06 1.63 12.79
12/28/2021 7:15:00 PM 3.82 38.876 0.101 7.06 1.51 12.78
12/28/2021 7:30:00 PM 3.78 38.804 0.111 7.06 2.1 12.78
12/28/2021 7:45:00 PM 3.74 38.732 0.108 7.06 2.06 12.78
12/28/2021 8:00:00 PM 3.66 38.588 0.105 7.06 1.94 12.78
12/28/2021 8:15:00 PM 3.6 38.48 0.104 7.06 1.92 12.78
12/28/2021 8:30:00 PM 3.56 38.408 0.103 7.05 1.91 12.8
12/28/2021 8:45:00 PM 3.49 38.282 0.103 7.05 1.86 12.79
12/28/2021 9:00:00 PM 3.49 38.282 0.108 7.05 1.92 12.8
12/28/2021 9:15:00 PM 3.48 38.264 0.117 7.04 1.92 12.82
12/28/2021 9:30:00 PM 3.48 38.264 0.121 7.05 2.28 12.81
12/28/2021 9:45:00 PM 3.48 38.264 0.112 7.05 2.11 12.83
12/28/2021 10:00:00 PM 3.48 38.264 0.106 7.04 1.9 12.82
12/28/2021 10:15:00 PM 3.47 38.246 0.103 7.04 1.89 12.84
12/28/2021 10:30:00 PM 3.46 38.228 0.101 7.04 1.84 12.84
12/28/2021 10:45:00 PM 3.45 38.21 0.101 7.04 1.95 12.84
12/28/2021 11:00:00 PM 3.46 38.228 0.101 7.04 1.75 12.84
12/28/2021 11:15:00 PM 3.46 38.228 0.101 7.04 1.63 12.84
12/28/2021 11:30:00 PM 3.48 38.264 0.101 7.04 1.78 12.83
12/28/2021 11:45:00 PM 3.5 38.3 0.101 7.04 1.62 12.84
12/29/2021 12:00:00 AM 3.52 38.336 0.101 7.04 1.63 12.83
12/29/2021 12:15:00 AM 3.55 38.39 0.101 7.03 1.58 12.81
12/29/2021 12:30:00 AM 3.57 38.426 0.101 7.04 1.6 12.82
12/29/2021 12:45:00 AM 3.59 38.462 0.101 7.04 1.58 12.79
12/29/2021 1:00:00 AM 3.61 38.498 0.102 7.04 1.6 12.8
12/29/2021 1:15:00 AM 3.63 38.534 0.102 7.04 1.74 12.79
12/29/2021 1:30:00 AM 3.64 38.552 0.102 7.04 1.59 12.79
12/29/2021 1:45:00 AM 3.65 38.57 0.101 7.04 1.59 12.78
12/29/2021 2:00:00 AM 3.66 38.588 0.101 7.04 1.55 12.77
12/29/2021 2:15:00 AM 3.67 38.606 0.101 7.04 1.59 12.78
12/29/2021 2:30:00 AM 3.67 38.606 0.101 7.04 1.56 12.78
12/29/2021 2:45:00 AM 3.68 38.624 0.101 7.05 1.5 12.78
12/29/2021 3:00:00 AM 3.69 38.642 0.101 7.04 1.54 12.77
12/29/2021 3:15:00 AM 3.69 38.642 0.101 7.04 1.5 12.77
12/29/2021 3:30:00 AM 3.7 38.66 0.101 7.04 1.57 12.78
12/29/2021 3:45:00 AM 3.71 38.678 0.101 7.04 1.56 12.77
12/29/2021 4:00:00 AM 3.72 38.696 0.101 7.04 1.62 12.77
12/29/2021 4:15:00 AM 3.73 38.714 0.101 7.04 1.52 12.76
12/29/2021 4:30:00 AM 3.75 38.75 0.101 7.04 1.54 12.76
12/29/2021 4:45:00 AM 3.76 38.768 0.101 7.04 1.57 12.76
12/29/2021 5:00:00 AM 3.77 38.786 0.101 7.04 1.56 12.76
12/29/2021 5:15:00 AM 3.78 38.804 0.101 7.04 1.5 12.75
12/29/2021 5:30:00 AM 3.79 38.822 0.101 7.04 1.51 12.75
12/29/2021 5:45:00 AM 3.8 38.84 0.101 7.04 1.5 12.75
12/29/2021 6:00:00 AM 3.82 38.876 0.101 7.04 1.58 12.74
12/29/2021 6:15:00 AM 3.83 38.894 0.101 7.04 1.53 12.74
12/29/2021 6:30:00 AM 3.84 38.912 0.101 7.04 1.55 12.74
12/29/2021 6:45:00 AM 3.85 38.93 0.101 7.04 1.54 12.74
12/29/2021 7:00:00 AM 3.87 38.966 0.101 7.05 1.56 12.74
12/29/2021 7:15:00 AM 3.87 38.966 0.101 7.04 1.54 12.74
12/29/2021 7:30:00 AM 3.88 38.984 0.101 7.05 1.53 12.74
12/29/2021 7:45:00 AM 3.89 39.002 0.101 7.04 1.54 12.75
12/29/2021 8:00:00 AM 3.89 39.002 0.101 7.05 1.52 12.75
12/29/2021 8:15:00 AM 3.9 39.02 0.101 7.05 1.52 12.76
12/29/2021 8:30:00 AM 3.9 39.02 0.101 7.06 1.55 12.77
12/29/2021 8:45:00 AM 3.92 39.056 0.1 7.06 1.49 12.79
12/29/2021 9:00:00 AM 3.93 39.074 0.1 7.06 1.54 12.82
12/29/2021 9:15:00 AM 3.95 39.11 0.1 7.07 1.52 12.85
12/29/2021 9:30:00 AM 3.97 39.146 0.1 7.07 1.55 12.89
12/29/2021 9:45:00 AM 4 39.2 0.1 7.08 1.48 12.93
12/29/2021 10:00:00 AM 4.03 39.254 0.1 7.09 1.52 12.97
12/29/2021 10:15:00 AM 4.06 39.308 0.1 7.1 1.52 13
12/29/2021 10:30:00 AM 4.1 39.38 0.1 7.12 1.51 13.03
12/29/2021 10:45:00 AM 4.13 39.434 0.1 7.13 1.57 13.06
12/29/2021 11:00:00 AM 4.16 39.488 0.1 7.13 1.49 13.07
12/29/2021 11:15:00 AM 4.18 39.524 0.1 7.14 1.53 13.09
12/29/2021 11:30:00 AM 4.22 39.596 0.1 7.15 1.51 13.12
12/29/2021 11:45:00 AM 4.25 39.65 0.1 7.16 1.49 13.13
12/29/2021 12:00:00 PM 4.27 39.686 0.1 7.16 1.6 13.13
12/29/2021 12:15:00 PM 4.3 39.74 0.099 7.17 1.49 13.13
12/29/2021 12:30:00 PM 4.32 39.776 0.1 7.17 1.45 13.14
12/29/2021 12:45:00 PM 4.34 39.812 0.099 7.17 1.55 13.13
12/29/2021 1:00:00 PM 4.36 39.848 0.099 7.17 1.47 13.13
12/29/2021 1:15:00 PM 4.4 39.92 0.099 7.18 1.48 13.15
12/29/2021 1:30:00 PM 4.44 39.992 0.099 7.19 1.56 13.16
12/29/2021 1:45:00 PM 4.47 40.046 0.099 7.19 1.56 13.16
12/29/2021 2:00:00 PM 4.49 40.082 0.099 7.19 1.5 13.15
12/29/2021 2:15:00 PM 4.52 40.136 0.099 7.2 1.54 13.16
12/29/2021 2:30:00 PM 4.54 40.172 0.099 7.2 1.56 13.15
12/29/2021 2:45:00 PM 4.55 40.19 0.099 7.2 1.54 13.13
12/29/2021 3:00:00 PM 4.57 40.226 0.099 7.2 1.53 13.12
12/29/2021 3:15:00 PM 4.59 40.262 0.099 7.2 1.64 13.11
12/29/2021 3:30:00 PM 4.61 40.298 0.099 7.2 1.62 13.11
12/29/2021 3:45:00 PM 4.6 40.28 0.099 7.19 1.55 13.07
12/29/2021 4:00:00 PM 4.59 40.262 0.099 7.18 1.59 13.02
12/29/2021 4:15:00 PM 4.57 40.226 0.1 7.16 1.6 12.97
12/29/2021 4:30:00 PM 4.56 40.208 0.1 7.15 1.62 12.92
12/29/2021 4:45:00 PM 4.54 40.172 0.1 7.14 1.61 12.87
12/29/2021 5:00:00 PM 4.52 40.136 0.1 7.12 1.66 12.84
12/29/2021 5:15:00 PM 4.5 40.1 0.1 7.11 1.55 12.81
12/29/2021 5:30:00 PM 4.48 40.064 0.1 7.11 1.61 12.78
12/29/2021 5:45:00 PM 4.46 40.028 0.1 7.1 1.71 12.76
12/29/2021 6:00:00 PM 4.43 39.974 0.1 7.09 1.71 12.74
12/29/2021 6:15:00 PM 4.41 39.938 0.1 7.09 1.85 12.73
12/29/2021 6:30:00 PM 4.38 39.884 0.1 7.08 1.67 12.72
12/29/2021 6:45:00 PM 4.35 39.83 0.101 7.07 1.54 12.72
12/29/2021 7:00:00 PM 4.32 39.776 0.101 7.07 1.54 12.72
12/29/2021 7:15:00 PM 4.29 39.722 0.101 7.06 1.6 12.72
12/29/2021 7:30:00 PM 4.27 39.686 0.101 7.06 1.65 12.72
12/29/2021 7:45:00 PM 4.25 39.65 0.101 7.05 1.54 12.73
12/29/2021 8:00:00 PM 4.24 39.632 0.101 7.05 1.53 12.73
12/29/2021 8:15:00 PM 4.22 39.596 0.101 7.05 1.57 12.73
12/29/2021 8:30:00 PM 4.21 39.578 0.101 7.05 1.54 12.73
12/29/2021 8:45:00 PM 4.2 39.56 0.101 7.05 1.55 12.73
12/29/2021 9:00:00 PM 4.2 39.56 0.101 7.05 1.78 12.74
12/29/2021 9:15:00 PM 4.2 39.56 0.101 7.05 1.5 12.74
12/29/2021 9:30:00 PM 4.2 39.56 0.101 7.04 1.55 12.74
12/29/2021 9:45:00 PM 4.19 39.542 0.101 7.05 1.59 12.75
12/29/2021 10:00:00 PM 4.19 39.542 0.101 7.05 1.61 12.75
12/29/2021 10:15:00 PM 4.2 39.56 0.101 7.04 1.53 12.75
12/29/2021 10:30:00 PM 4.2 39.56 0.101 7.04 1.52 12.75
12/29/2021 10:45:00 PM 4.2 39.56 0.101 7.04 1.55 12.75
12/29/2021 11:00:00 PM 4.21 39.578 0.102 7.04 1.55 12.75
12/29/2021 11:15:00 PM 4.21 39.578 0.102 7.04 1.5 12.74
12/29/2021 11:30:00 PM 4.21 39.578 0.102 7.04 1.53 12.74
12/29/2021 11:45:00 PM 4.22 39.596 0.102 7.04 1.58 12.74
12/30/2021 12:00:00 AM 4.22 39.596 0.102 7.04 1.55 12.75
12/30/2021 12:15:00 AM 4.22 39.596 0.102 7.04 1.56 12.74
12/30/2021 12:30:00 AM 4.22 39.596 0.102 7.04 1.51 12.74
12/30/2021 12:45:00 AM 4.22 39.596 0.102 7.04 1.55 12.74
12/30/2021 1:00:00 AM 4.22 39.596 0.102 7.04 1.58 12.74
12/30/2021 1:15:00 AM 4.23 39.614 0.102 7.04 1.57 12.74
12/30/2021 1:30:00 AM 4.23 39.614 0.102 7.04 1.56 12.74
12/30/2021 1:45:00 AM 4.23 39.614 0.102 7.04 1.59 12.74
12/30/2021 2:00:00 AM 4.24 39.632 0.102 7.04 1.56 12.74
12/30/2021 2:15:00 AM 4.24 39.632 0.102 7.04 1.54 12.74
12/30/2021 2:30:00 AM 4.24 39.632 0.102 7.04 1.57 12.74
12/30/2021 2:45:00 AM 4.24 39.632 0.102 7.04 1.58 12.74
12/30/2021 3:00:00 AM 4.24 39.632 0.102 7.04 1.54 12.74
12/30/2021 3:15:00 AM 4.24 39.632 0.102 7.04 1.52 12.73
12/30/2021 3:30:00 AM 4.25 39.65 0.102 7.04 1.54 12.73
12/30/2021 3:45:00 AM 4.25 39.65 0.102 7.04 1.59 12.74
12/30/2021 4:00:00 AM 4.25 39.65 0.103 7.04 1.77 12.74
12/30/2021 4:15:00 AM 4.25 39.65 0.103 7.04 1.58 12.74
12/30/2021 4:30:00 AM 4.26 39.668 0.103 7.04 1.57 12.74
12/30/2021 4:45:00 AM 4.26 39.668 0.103 7.04 1.56 12.73
12/30/2021 5:00:00 AM 4.27 39.686 0.103 7.04 1.55 12.73
12/30/2021 5:15:00 AM 4.27 39.686 0.103 7.04 1.62 12.74
12/30/2021 5:30:00 AM 4.28 39.704 0.103 7.04 1.64 12.73
12/30/2021 5:45:00 AM 4.28 39.704 0.103 7.03 1.61 12.73
12/30/2021 6:00:00 AM 4.29 39.722 0.103 7.04 1.63 12.73
12/30/2021 6:15:00 AM 4.29 39.722 0.103 7.04 1.6 12.73
12/30/2021 6:30:00 AM 4.3 39.74 0.103 7.03 1.66 12.73
12/30/2021 6:45:00 AM 4.31 39.758 0.103 7.03 1.6 12.72
12/30/2021 7:00:00 AM 4.32 39.776 0.103 7.03 1.64 12.73
12/30/2021 7:15:00 AM 4.33 39.794 0.103 7.04 1.73 12.73
12/30/2021 7:30:00 AM 4.35 39.83 0.103 7.03 1.63 12.72
12/30/2021 7:45:00 AM 4.37 39.866 0.103 7.04 1.63 12.72
12/30/2021 8:00:00 AM 4.39 39.902 0.103 7.04 1.6 12.72
12/30/2021 8:15:00 AM 4.41 39.938 0.104 7.04 1.83 12.73
12/30/2021 8:30:00 AM 4.44 39.992 0.104 7.05 1.63 12.73
12/30/2021 8:45:00 AM 4.48 40.064 0.104 7.05 1.62 12.73
12/30/2021 9:00:00 AM 4.52 40.136 0.105 7.05 1.67 12.73
12/30/2021 9:15:00 AM 4.56 40.208 0.105 7.06 1.66 12.76
12/30/2021 9:30:00 AM 4.59 40.262 0.105 7.07 1.61 12.76
12/30/2021 9:45:00 AM 4.62 40.316 0.105 7.07 1.61 12.79
12/30/2021 10:00:00 AM 4.64 40.352 0.105 7.08 1.6 12.79
12/30/2021 10:15:00 AM 4.66 40.388 0.105 7.09 1.65 12.81
12/30/2021 10:30:00 AM 4.69 40.442 0.105 7.09 1.66 12.85
12/30/2021 10:45:00 AM 4.72 40.496 0.105 7.1 1.7 12.87
12/30/2021 11:00:00 AM 4.76 40.568 0.105 7.12 1.61 12.91
12/30/2021 11:15:00 AM 4.79 40.622 0.105 7.13 1.74 12.94
12/30/2021 11:30:00 AM 4.82 40.676 0.105 7.13 1.65 12.95
12/30/2021 11:45:00 AM 4.86 40.748 0.105 7.14 1.65 12.97
12/30/2021 12:00:00 PM 4.88 40.784 0.105 7.15 1.64 12.98
12/30/2021 12:15:00 PM 4.9 40.82 0.105 7.15 1.72 12.98
12/30/2021 12:30:00 PM 4.94 40.892 0.106 7.15 1.87 12.99
12/30/2021 12:45:00 PM 4.99 40.982 0.106 7.16 1.61 13.01
12/30/2021 1:00:00 PM 5.02 41.036 0.106 7.17 1.6 13
12/30/2021 1:15:00 PM 5.04 41.072 0.106 7.17 1.66 12.98
12/30/2021 1:30:00 PM 5.06 41.108 0.106 7.17 1.77 12.95
12/30/2021 1:45:00 PM 5.08 41.144 0.106 7.16 1.69 12.93
12/30/2021 2:00:00 PM 5.1 41.18 0.107 7.16 1.82 12.92
12/30/2021 2:15:00 PM 5.12 41.216 0.107 7.16 1.67 12.89
12/30/2021 2:30:00 PM 5.14 41.252 0.107 7.16 1.67 12.88
12/30/2021 2:45:00 PM 5.15 41.27 0.107 7.16 1.61 12.86
12/30/2021 3:00:00 PM 5.16 41.288 0.107 7.16 1.65 12.83
12/30/2021 3:15:00 PM 5.15 41.27 0.107 7.15 1.68 12.81
12/30/2021 3:30:00 PM 5.15 41.27 0.107 7.14 1.63 12.77
12/30/2021 3:45:00 PM 5.14 41.252 0.107 7.13 1.75 12.75
12/30/2021 4:00:00 PM 5.13 41.234 0.107 7.13 1.64 12.74
12/30/2021 4:15:00 PM 5.11 41.198 0.107 7.12 1.71 12.71
12/30/2021 4:30:00 PM 5.09 41.162 0.107 7.11 1.66 12.68
12/30/2021 4:45:00 PM 5.07 41.126 0.107 7.1 1.68 12.65
12/30/2021 5:00:00 PM 5.06 41.108 0.107 7.09 1.61 12.63
12/30/2021 5:15:00 PM 5.04 41.072 0.106 7.08 1.73 12.61
12/30/2021 5:30:00 PM 5.03 41.054 0.106 7.08 1.66 12.6
12/30/2021 5:45:00 PM 5.02 41.036 0.106 7.07 1.66 12.58
12/30/2021 6:00:00 PM 5 41 0.106 7.06 1.73 12.56
12/30/2021 6:15:00 PM 4.99 40.982 0.106 7.06 1.67 12.56
12/30/2021 6:30:00 PM 4.98 40.964 0.106 7.06 1.79 12.56
12/30/2021 6:45:00 PM 4.97 40.946 0.106 7.05 1.69 12.55
12/30/2021 7:00:00 PM 4.97 40.946 0.106 7.05 1.77 12.55
12/30/2021 7:15:00 PM 4.96 40.928 0.106 7.05 1.74 12.55
12/30/2021 7:30:00 PM 4.96 40.928 0.106 7.04 1.79 12.55
12/30/2021 7:45:00 PM 4.95 40.91 0.106 7.04 1.73 12.54
12/30/2021 8:00:00 PM 4.95 40.91 0.106 7.04 1.72 12.54
12/30/2021 8:15:00 PM 4.95 40.91 0.106 7.03 1.73 12.54
12/30/2021 8:30:00 PM 4.95 40.91 0.106 7.03 1.78 12.53
12/30/2021 8:45:00 PM 4.95 40.91 0.106 7.03 1.74 12.54
12/30/2021 9:00:00 PM 4.94 40.892 0.105 7.03 1.68 12.54
12/30/2021 9:15:00 PM 4.94 40.892 0.105 7.03 1.8 12.54
12/30/2021 9:30:00 PM 4.95 40.91 0.105 7.03 1.74 12.53
12/30/2021 9:45:00 PM 4.95 40.91 0.105 7.03 1.73 12.54
12/30/2021 10:00:00 PM 4.96 40.928 0.105 7.02 1.78 12.54
12/30/2021 10:15:00 PM 4.96 40.928 0.105 7.02 1.71 12.54
12/30/2021 10:30:00 PM 4.96 40.928 0.105 7.03 1.74 12.53
12/30/2021 10:45:00 PM 4.96 40.928 0.105 7.03 1.81 12.53
12/30/2021 11:00:00 PM 4.96 40.928 0.105 7.03 1.64 12.54
12/30/2021 11:15:00 PM 4.96 40.928 0.105 7.03 1.65 12.54
12/30/2021 11:30:00 PM 4.96 40.928 0.105 7.03 1.76 12.54
12/30/2021 11:45:00 PM 4.96 40.928 0.105 7.02 1.64 12.54
12/31/2021 12:00:00 AM 4.96 40.928 0.105 7.02 1.71 12.53
12/31/2021 12:15:00 AM 4.96 40.928 0.105 7.03 1.7 12.53
12/31/2021 12:30:00 AM 4.96 40.928 0.105 7.03 1.73 12.54
12/31/2021 12:45:00 AM 4.96 40.928 0.105 7.03 1.71 12.54
12/31/2021 1:00:00 AM 4.96 40.928 0.105 7.03 1.68 12.53
12/31/2021 1:15:00 AM 4.96 40.928 0.105 7.03 1.61 12.53
12/31/2021 1:30:00 AM 4.97 40.946 0.105 7.02 1.84 12.54
12/31/2021 1:45:00 AM 4.97 40.946 0.105 7.03 1.69 12.54
12/31/2021 2:00:00 AM 4.97 40.946 0.104 7.03 1.64 12.54
12/31/2021 2:15:00 AM 4.98 40.964 0.104 7.03 1.67 12.54
12/31/2021 2:30:00 AM 4.98 40.964 0.104 7.02 1.64 12.53
12/31/2021 2:45:00 AM 4.98 40.964 0.104 7.02 1.69 12.53
12/31/2021 3:00:00 AM 4.99 40.982 0.104 7.02 1.65 12.53
12/31/2021 3:15:00 AM 4.99 40.982 0.104 7.02 1.63 12.53
12/31/2021 3:30:00 AM 5 41 0.104 7.02 1.65 12.52
12/31/2021 3:45:00 AM 5.01 41.018 0.104 7.02 1.66 12.52
12/31/2021 4:00:00 AM 5.02 41.036 0.104 7.02 1.63 12.51
12/31/2021 4:15:00 AM 5.03 41.054 0.104 7.02 1.59 12.5
12/31/2021 4:30:00 AM 5.04 41.072 0.104 7.02 1.68 12.5
12/31/2021 4:45:00 AM 5.04 41.072 0.104 7.02 1.6 12.5
12/31/2021 5:00:00 AM 5.05 41.09 0.104 7.02 1.64 12.49
12/31/2021 5:15:00 AM 5.06 41.108 0.104 7.02 1.65 12.5
12/31/2021 5:30:00 AM 5.06 41.108 0.104 7.03 1.67 12.49
12/31/2021 5:45:00 AM 5.07 41.126 0.104 7.03 1.67 12.49
12/31/2021 6:00:00 AM 5.08 41.144 0.104 7.03 1.68 12.49
12/31/2021 6:15:00 AM 5.08 41.144 0.104 7.03 1.64 12.48
12/31/2021 6:30:00 AM 5.1 41.18 0.104 7.03 1.68 12.48
12/31/2021 6:45:00 AM 5.11 41.198 0.104 7.03 1.74 12.48
12/31/2021 7:00:00 AM 5.13 41.234 0.103 7.03 1.65 12.47
12/31/2021 7:15:00 AM 5.14 41.252 0.103 7.03 1.7 12.46
12/31/2021 7:30:00 AM 5.16 41.288 0.103 7.03 1.67 12.46
12/31/2021 7:45:00 AM 5.18 41.324 0.103 7.04 1.7 12.46
12/31/2021 8:00:00 AM 5.19 41.342 0.103 7.04 1.65 12.47
12/31/2021 8:15:00 AM 5.21 41.378 0.103 7.05 1.63 12.48
12/31/2021 8:30:00 AM 5.24 41.432 0.103 7.05 1.7 12.5
12/31/2021 8:45:00 AM 5.27 41.486 0.103 7.06 1.68 12.53
12/31/2021 9:00:00 AM 5.29 41.522 0.103 7.07 1.64 12.54
12/31/2021 9:15:00 AM 5.34 41.612 0.103 7.08 1.58 12.58
12/31/2021 9:30:00 AM 5.36 41.648 0.103 7.09 1.63 12.62
12/31/2021 9:45:00 AM 5.45 41.81 0.103 7.11 1.62 12.67
12/31/2021 10:00:00 AM 5.5 41.9 0.103 7.12 1.61 12.7
12/31/2021 10:15:00 AM 5.56 42.008 0.103 7.13 1.65 12.73
12/31/2021 10:30:00 AM 5.6 42.08 0.103 7.14 1.7 12.76
12/31/2021 10:45:00 AM 5.62 42.116 0.102 7.15 1.64 12.77
12/31/2021 11:00:00 AM 5.69 42.242 0.102 7.15 1.63 12.81
12/31/2021 11:15:00 AM 5.82 42.476 0.102 7.16 1.7 12.82
12/31/2021 11:30:00 AM 5.91 42.638 0.102 7.18 1.67 12.85
12/31/2021 11:45:00 AM 5.96 42.728 0.102 7.18 1.69 12.82
12/31/2021 12:00:00 PM 5.94 42.692 0.102 7.18 1.65 12.78
12/31/2021 12:15:00 PM 5.9 42.62 0.102 7.19 1.68 12.77
12/31/2021 12:30:00 PM 5.87 42.566 0.102 7.19 1.69 12.78
12/31/2021 12:45:00 PM 5.89 42.602 0.102 7.19 1.74 12.79
12/31/2021 1:00:00 PM 5.92 42.656 0.102 7.2 1.9 12.8
12/31/2021 1:15:00 PM 5.99 42.782 0.102 7.2 1.85 12.79
12/31/2021 1:30:00 PM 6.06 42.908 0.102 7.2 1.7 12.77
12/31/2021 1:45:00 PM 6.07 42.926 0.102 7.2 1.66 12.75
12/31/2021 2:00:00 PM 6.07 42.926 0.102 7.21 1.66 12.72
12/31/2021 2:15:00 PM 6.07 42.926 0.102 7.2 1.78 12.69
12/31/2021 2:30:00 PM 6.07 42.926 0.102 7.19 1.67 12.68
12/31/2021 2:45:00 PM 6.07 42.926 0.102 7.19 1.67 12.67
12/31/2021 3:00:00 PM 6.07 42.926 0.102 7.2 1.81 12.64
12/31/2021 3:15:00 PM 6.09 42.962 0.102 7.2 1.84 12.65
12/31/2021 3:30:00 PM 6.08 42.944 0.102 7.19 1.76 12.62
12/31/2021 3:45:00 PM 6.05 42.89 0.102 7.19 1.8 12.6
12/31/2021 4:00:00 PM 6.01 42.818 0.103 7.18 1.78 12.59
12/31/2021 4:15:00 PM 5.95 42.71 0.103 7.17 1.72 12.53
12/31/2021 4:30:00 PM 5.9 42.62 0.103 7.15 1.79 12.51
12/31/2021 4:45:00 PM 5.85 42.53 0.103 7.14 1.78 12.48
12/31/2021 5:00:00 PM 5.79 42.422 0.103 7.13 1.75 12.46
12/31/2021 5:15:00 PM 5.75 42.35 0.103 7.12 1.78 12.42
12/31/2021 5:30:00 PM 5.71 42.278 0.103 7.11 2.04 12.41
12/31/2021 5:45:00 PM 5.69 42.242 0.103 7.1 1.86 12.39
12/31/2021 6:00:00 PM 5.68 42.224 0.103 7.09 1.9 12.37
12/31/2021 6:15:00 PM 5.67 42.206 0.103 7.08 1.86 12.35
12/31/2021 6:30:00 PM 5.68 42.224 0.103 7.08 1.87 12.32
12/31/2021 6:45:00 PM 5.68 42.224 0.103 7.07 1.86 12.31
12/31/2021 7:00:00 PM 5.7 42.26 0.103 7.07 1.74 12.3
12/31/2021 7:15:00 PM 5.71 42.278 0.103 7.06 1.95 12.28
12/31/2021 7:30:00 PM 5.72 42.296 0.103 7.06 1.74 12.28
12/31/2021 7:45:00 PM 5.74 42.332 0.103 7.06 1.84 12.28
12/31/2021 8:00:00 PM 5.75 42.35 0.103 7.06 1.79 12.27
12/31/2021 8:15:00 PM 5.77 42.386 0.103 7.06 1.78 12.25
12/31/2021 8:30:00 PM 5.79 42.422 0.103 7.05 1.79 12.24
12/31/2021 8:45:00 PM 5.81 42.458 0.103 7.05 1.77 12.23
12/31/2021 9:00:00 PM 5.82 42.476 0.103 7.05 1.83 12.24
12/31/2021 9:15:00 PM 5.84 42.512 0.103 7.05 1.77 12.24
12/31/2021 9:30:00 PM 5.85 42.53 0.103 7.05 1.75 12.23
12/31/2021 9:45:00 PM 5.86 42.548 0.103 7.05 1.78 12.21
12/31/2021 10:00:00 PM 5.88 42.584 0.103 7.05 1.74 12.22
12/31/2021 10:15:00 PM 5.9 42.62 0.103 7.05 1.81 12.21
12/31/2021 10:30:00 PM 5.92 42.656 0.103 7.05 1.74 12.18
12/31/2021 10:45:00 PM 5.95 42.71 0.103 7.04 1.84 12.17
12/31/2021 11:00:00 PM 5.99 42.782 0.104 7.04 1.74 12.17
12/31/2021 11:15:00 PM 6.03 42.854 0.104 7.04 1.82 12.16
12/31/2021 11:30:00 PM 6.06 42.908 0.104 7.03 1.79 12.14
12/31/2021 11:45:00 PM 6.09 42.962 0.104 7.03 1.72 12.13
1/1/2022 12:00:00 AM 6.12 43.016 0.104 7.03 1.8 12.13
1/1/2022 12:15:00 AM 6.14 43.052 0.104 7.03 1.76 12.1
1/1/2022 12:30:00 AM 6.15 43.07 0.103 7.03 1.82 12.12
1/1/2022 12:45:00 AM 6.17 43.106 0.103 7.03 1.75 12.09
1/1/2022 1:00:00 AM 6.18 43.124 0.103 7.03 1.85 12.1
1/1/2022 1:15:00 AM 6.18 43.124 0.103 7.03 1.86 12.08
1/1/2022 1:30:00 AM 6.18 43.124 0.103 7.03 1.72 12.08
1/1/2022 1:45:00 AM 6.18 43.124 0.103 7.03 1.75 12.08
1/1/2022 2:00:00 AM 6.18 43.124 0.103 7.03 1.78 12.08
1/1/2022 2:15:00 AM 6.19 43.142 0.103 7.03 1.86 12.09
1/1/2022 2:30:00 AM 6.19 43.142 0.103 7.02 1.79 12.07
1/1/2022 2:45:00 AM 6.2 43.16 0.103 7.02 1.87 12.07
1/1/2022 3:00:00 AM 6.2 43.16 0.103 7.03 1.87 12.09
1/1/2022 3:15:00 AM 6.2 43.16 0.103 7.02 1.79 12.07
1/1/2022 3:30:00 AM 6.2 43.16 0.103 7.02 1.83 12.09
1/1/2022 3:45:00 AM 6.2 43.16 0.103 7.02 1.83 12.06
1/1/2022 4:00:00 AM 6.2 43.16 0.103 7.02 1.84 12.08
1/1/2022 4:15:00 AM 6.21 43.178 0.104 7.02 1.77 12.06
1/1/2022 4:30:00 AM 6.21 43.178 0.103 7.02 1.88 12.07
1/1/2022 4:45:00 AM 6.22 43.196 0.103 7.02 1.76 12.06
1/1/2022 5:00:00 AM 6.22 43.196 0.104 7.02 1.77 12.07
1/1/2022 5:15:00 AM 6.22 43.196 0.104 7.02 1.76 12.07
1/1/2022 5:30:00 AM 6.23 43.214 0.104 7.02 1.87 12.05
1/1/2022 5:45:00 AM 6.24 43.232 0.103 7.02 1.79 12.06
1/1/2022 6:00:00 AM 6.24 43.232 0.103 7.01 1.76 12.06
1/1/2022 6:15:00 AM 6.25 43.25 0.103 7.01 1.79 12.05
1/1/2022 6:30:00 AM 6.27 43.286 0.102 7.01 1.77 12.05
1/1/2022 6:45:00 AM 6.29 43.322 0.102 7.01 1.79 12.03
1/1/2022 7:00:00 AM 6.31 43.358 0.102 7.01 1.78 12.04
1/1/2022 7:15:00 AM 6.33 43.394 0.102 7.02 1.89 12.03
1/1/2022 7:30:00 AM 6.33 43.394 0.102 7.03 1.82 12.02
1/1/2022 7:45:00 AM 6.33 43.394 0.102 7.03 1.88 12.02
1/1/2022 8:00:00 AM 6.34 43.412 0.102 7.04 1.79 12.03
1/1/2022 8:15:00 AM 6.34 43.412 0.102 7.05 7.99 12.05
1/1/2022 8:30:00 AM 6.34 43.412 0.102 7.05 10.92 12.06
1/1/2022 8:45:00 AM 6.35 43.43 0.102 7.06 17.36 12.08
1/1/2022 9:00:00 AM 6.36 43.448 0.102 7.06 22.95 12.09
1/1/2022 9:15:00 AM 6.37 43.466 0.102 7.06 21.83 12.1
1/1/2022 9:30:00 AM 6.38 43.484 0.102 7.07 14.09 12.14
1/1/2022 9:45:00 AM 6.4 43.52 0.102 7.08 3.91 12.17
1/1/2022 10:00:00 AM 6.43 43.574 0.101 7.09 1.8 12.21
1/1/2022 10:15:00 AM 6.45 43.61 0.101 7.1 1.77 12.24
1/1/2022 10:30:00 AM 6.47 43.646 0.101 7.11 1.8 12.27
1/1/2022 10:45:00 AM 6.49 43.682 0.101 7.12 1.78 12.29
1/1/2022 11:00:00 AM 6.53 43.754 0.101 7.13 1.79 12.3
1/1/2022 11:15:00 AM 6.55 43.79 0.101 7.14 1.79 12.32
1/1/2022 11:30:00 AM 6.58 43.844 0.101 7.14 1.77 12.34
1/1/2022 11:45:00 AM 6.6 43.88 0.101 7.15 1.76 12.35
1/1/2022 12:00:00 PM 6.61 43.898 0.101 7.15 1.78 12.35
1/1/2022 12:15:00 PM 6.63 43.934 0.101 7.16 1.83 12.35
1/1/2022 12:30:00 PM 6.66 43.988 0.101 7.17 1.8 12.36
1/1/2022 12:45:00 PM 6.7 44.06 0.101 7.17 1.87 12.37
1/1/2022 1:00:00 PM 6.74 44.132 0.101 7.18 1.76 12.39
1/1/2022 1:15:00 PM 6.77 44.186 0.101 7.19 1.89 12.4
1/1/2022 1:30:00 PM 6.81 44.258 0.102 7.19 2.02 12.41
1/1/2022 1:45:00 PM 6.83 44.294 0.101 7.2 1.84 12.41
1/1/2022 2:00:00 PM 6.85 44.33 0.101 7.2 1.89 12.39
1/1/2022 2:15:00 PM 6.86 44.348 0.101 7.2 1.82 12.38
1/1/2022 2:30:00 PM 6.86 44.348 0.101 7.2 1.81 12.35
1/1/2022 2:45:00 PM 6.86 44.348 0.101 7.19 1.76 12.32
1/1/2022 3:00:00 PM 6.86 44.348 0.101 7.19 1.78 12.29
1/1/2022 3:15:00 PM 6.87 44.366 0.101 7.18 1.81 12.25
1/1/2022 3:30:00 PM 6.87 44.366 0.101 7.17 1.82 12.21
1/1/2022 3:45:00 PM 6.87 44.366 0.101 7.17 1.84 12.17
1/1/2022 4:00:00 PM 6.87 44.366 0.101 7.16 1.92 12.12
1/1/2022 4:15:00 PM 6.86 44.348 0.102 7.14 2.05 12.08
1/1/2022 4:30:00 PM 6.85 44.33 0.102 7.13 1.9 12.04
1/1/2022 4:45:00 PM 6.85 44.33 0.101 7.12 1.87 12
1/1/2022 5:00:00 PM 6.83 44.294 0.102 7.11 1.93 11.97
1/1/2022 5:15:00 PM 6.82 44.276 0.102 7.1 1.88 11.94
1/1/2022 5:30:00 PM 6.8 44.24 0.102 7.09 1.96 11.92
1/1/2022 5:45:00 PM 6.79 44.222 0.102 7.08 1.99 11.91
1/1/2022 6:00:00 PM 6.77 44.186 0.102 7.07 1.99 11.89
1/1/2022 6:15:00 PM 6.76 44.168 0.101 7.07 2.12 11.88
1/1/2022 6:30:00 PM 6.76 44.168 0.101 7.07 2.28 11.87
1/1/2022 6:45:00 PM 6.76 44.168 0.101 7.06 2.08 11.86
1/1/2022 7:00:00 PM 6.76 44.168 0.101 7.06 2.08 11.86
1/1/2022 7:15:00 PM 6.77 44.186 0.101 7.05 2.16 11.85
1/1/2022 7:30:00 PM 6.77 44.186 0.101 7.05 2.18 11.85
1/1/2022 7:45:00 PM 6.77 44.186 0.101 7.05 2.1 11.84
1/1/2022 8:00:00 PM 6.78 44.204 0.101 7.05 2.1 11.84
1/1/2022 8:15:00 PM 6.78 44.204 0.101 7.04 2.11 11.83
1/1/2022 8:30:00 PM 6.79 44.222 0.101 7.04 2.08 11.83
1/1/2022 8:45:00 PM 6.79 44.222 0.101 7.04 2.04 11.82
1/1/2022 9:00:00 PM 6.8 44.24 0.101 7.04 1.98 11.82
1/1/2022 9:15:00 PM 6.81 44.258 0.101 7.04 2 11.81
1/1/2022 9:30:00 PM 6.82 44.276 0.101 7.04 1.94 11.81
1/1/2022 9:45:00 PM 6.83 44.294 0.101 7.04 1.89 11.81
1/1/2022 10:00:00 PM 6.83 44.294 0.101 7.04 1.94 11.8
1/1/2022 10:15:00 PM 6.84 44.312 0.101 7.04 1.93 11.8
1/1/2022 10:30:00 PM 6.84 44.312 0.101 7.04 1.91 11.8
1/1/2022 10:45:00 PM 6.85 44.33 0.101 7.04 1.91 11.79
1/1/2022 11:00:00 PM 6.86 44.348 0.101 7.04 1.95 11.79
1/1/2022 11:15:00 PM 6.87 44.366 0.101 7.04 1.96 11.78
1/1/2022 11:30:00 PM 6.88 44.384 0.101 7.04 1.91 11.78
1/1/2022 11:45:00 PM 6.9 44.42 0.101 7.04 1.93 11.78
1/2/2022 12:00:00 AM 6.91 44.438 0.101 7.04 1.86 11.78
1/2/2022 12:15:00 AM 6.91 44.438 0.101 7.04 1.87 11.77
1/2/2022 12:30:00 AM 6.92 44.456 0.101 7.04 1.85 11.77
1/2/2022 12:45:00 AM 6.93 44.474 0.101 7.04 1.86 11.77
1/2/2022 1:00:00 AM 6.94 44.492 0.101 7.04 1.88 11.76
1/2/2022 1:15:00 AM 6.96 44.528 0.101 7.04 1.93 11.77
1/2/2022 1:30:00 AM 6.96 44.528 0.101 7.05 1.88 11.77
1/2/2022 1:45:00 AM 6.95 44.51 0.101 7.05 1.93 11.77
1/2/2022 2:00:00 AM 6.95 44.51 0.102 7.05 1.96 11.76
1/2/2022 2:15:00 AM 6.95 44.51 0.101 7.05 1.91 11.77
1/2/2022 2:30:00 AM 6.94 44.492 0.101 7.06 1.97 11.77
1/2/2022 2:45:00 AM 6.94 44.492 0.101 7.06 1.95 11.77
1/2/2022 3:00:00 AM 6.94 44.492 0.1 7.06 1.88 11.77
1/2/2022 3:15:00 AM 6.93 44.474 0.099 7.06 1.88 11.78
1/2/2022 3:30:00 AM 6.93 44.474 0.099 7.07 1.93 11.78
1/2/2022 3:45:00 AM 6.92 44.456 0.099 7.07 1.9 11.77
1/2/2022 4:00:00 AM 6.92 44.456 0.099 7.07 1.87 11.78
1/2/2022 4:15:00 AM 6.92 44.456 0.099 7.07 1.9 11.77
1/2/2022 4:30:00 AM 6.92 44.456 0.099 7.07 1.88 11.78
1/2/2022 4:45:00 AM 6.92 44.456 0.099 7.07 2 11.78
1/2/2022 5:00:00 AM 6.92 44.456 0.098 7.06 1.97 11.78
1/2/2022 5:15:00 AM 6.91 44.438 0.099 7.07 1.87 11.78
1/2/2022 5:30:00 AM 6.91 44.438 0.099 7.07 2.04 11.78
1/2/2022 5:45:00 AM 6.9 44.42 0.099 7.07 1.95 11.78
1/2/2022 6:00:00 AM 6.89 44.402 0.099 7.07 1.92 11.78
1/2/2022 6:15:00 AM 6.89 44.402 0.099 7.07 1.89 11.79
1/2/2022 6:30:00 AM 6.88 44.384 0.099 7.07 1.92 11.79
1/2/2022 6:45:00 AM 6.87 44.366 0.099 7.06 1.98 11.79
1/2/2022 7:00:00 AM 6.87 44.366 0.1 7.07 2.01 11.79
1/2/2022 7:15:00 AM 6.86 44.348 0.098 7.07 2.05 11.8
1/2/2022 7:30:00 AM 6.86 44.348 0.098 7.07 2.04 11.8
1/2/2022 7:45:00 AM 6.86 44.348 0.098 7.07 2.02 11.8
1/2/2022 8:00:00 AM 6.85 44.33 0.098 7.06 1.98 11.82
1/2/2022 8:15:00 AM 6.85 44.33 0.098 7.07 2.08 11.84
1/2/2022 8:30:00 AM 6.85 44.33 0.098 7.06 1.95 11.87
1/2/2022 8:45:00 AM 6.86 44.348 0.098 7.09 1.88 11.9
1/2/2022 9:00:00 AM 6.87 44.366 0.098 7.1 2 11.94
1/2/2022 9:15:00 AM 6.88 44.384 0.098 7.1 2.19 11.98
1/2/2022 9:30:00 AM 6.89 44.402 0.098 7.11 1.91 12.01
1/2/2022 9:45:00 AM 6.9 44.42 0.098 7.12 2 12.04
1/2/2022 10:00:00 AM 6.92 44.456 0.097 7.13 1.99 12.08
1/2/2022 10:15:00 AM 6.94 44.492 0.097 7.14 1.92 12.12
1/2/2022 10:30:00 AM 6.95 44.51 0.097 7.16 1.97 12.16
1/2/2022 10:45:00 AM 6.96 44.528 0.097 7.16 1.91 12.17
1/2/2022 11:00:00 AM 6.97 44.546 0.097 7.17 1.88 12.19
1/2/2022 11:15:00 AM 6.99 44.582 0.097 7.18 1.97 12.22
1/2/2022 11:30:00 AM 7 44.6 0.097 7.18 1.95 12.24
1/2/2022 11:45:00 AM 7.01 44.618 0.097 7.19 2 12.27
1/2/2022 12:00:00 PM 7.02 44.636 0.097 7.2 2.03 12.27
1/2/2022 12:15:00 PM 7.02 44.636 0.097 7.2 2.11 12.27
1/2/2022 12:30:00 PM 7.02 44.636 0.097 7.2 2.07 12.27
1/2/2022 12:45:00 PM 7.03 44.654 0.097 7.21 1.94 12.28
1/2/2022 1:00:00 PM 7.04 44.672 0.097 7.21 2.27 12.29
1/2/2022 1:15:00 PM 7.05 44.69 0.097 7.21 2.14 12.3
1/2/2022 1:30:00 PM 7.06 44.708 0.097 7.22 2.14 12.3
1/2/2022 1:45:00 PM 7.05 44.69 0.097 7.21 2.04 12.29
1/2/2022 2:00:00 PM 7.03 44.654 0.097 7.21 2.16 12.27
1/2/2022 2:15:00 PM 7.01 44.618 0.097 7.21 2.06 12.25
1/2/2022 2:30:00 PM 7 44.6 0.097 7.2 2.07 12.24
1/2/2022 2:45:00 PM 6.99 44.582 0.097 7.2 2.29 12.23
1/2/2022 3:00:00 PM 6.96 44.528 0.097 7.19 2.09 12.2
1/2/2022 3:15:00 PM 6.95 44.51 0.097 7.19 2.23 12.18
1/2/2022 3:30:00 PM 6.93 44.474 0.097 7.18 2.06 12.16
1/2/2022 3:45:00 PM 6.91 44.438 0.097 7.17 2.19 12.15
1/2/2022 4:00:00 PM 6.88 44.384 0.097 7.16 2.18 12.13
1/2/2022 4:15:00 PM 6.86 44.348 0.097 7.15 2.26 12.11
1/2/2022 4:30:00 PM 6.82 44.276 0.097 7.15 2.16 12.1
1/2/2022 4:45:00 PM 6.79 44.222 0.097 7.14 2.2 12.08
1/2/2022 5:00:00 PM 6.76 44.168 0.097 7.13 2.22 12.07
1/2/2022 5:15:00 PM 6.74 44.132 0.097 7.12 2.27 12.05
1/2/2022 5:30:00 PM 6.72 44.096 0.098 7.12 2.23 12.04
1/2/2022 5:45:00 PM 6.7 44.06 0.098 7.11 2.38 12.03
1/2/2022 6:00:00 PM 6.67 44.006 0.098 7.1 2.35 12.03
1/2/2022 6:15:00 PM 6.64 43.952 0.097 7.1 2.41 12.02
1/2/2022 6:30:00 PM 6.62 43.916 0.097 7.1 2.34 12.03
1/2/2022 6:45:00 PM 6.6 43.88 0.097 7.09 2.42 12.03
1/2/2022 7:00:00 PM 6.59 43.862 0.097 7.09 2.37 12.03
1/2/2022 7:15:00 PM 6.57 43.826 0.097 7.09 3.24 12.04
1/2/2022 7:30:00 PM 6.56 43.808 0.097 7.08 2.37 12.04
1/2/2022 7:45:00 PM 6.55 43.79 0.097 7.08 2.33 12.05
1/2/2022 8:00:00 PM 6.54 43.772 0.097 7.08 2.39 12.05
1/2/2022 8:15:00 PM 6.51 43.718 0.097 7.08 2.28 12.06
1/2/2022 8:30:00 PM 6.48 43.664 0.097 7.08 2.28 12.07
1/2/2022 8:45:00 PM 6.46 43.628 0.097 7.08 2.28 12.08
1/2/2022 9:00:00 PM 6.43 43.574 0.097 7.08 2.38 12.09
1/2/2022 9:15:00 PM 6.41 43.538 0.097 7.08 2.27 12.1
1/2/2022 9:30:00 PM 6.39 43.502 0.098 7.08 2.23 12.11
1/2/2022 9:45:00 PM 6.37 43.466 0.098 7.08 2.26 12.12
1/2/2022 10:00:00 PM 6.36 43.448 0.098 7.08 2.15 12.13
1/2/2022 10:15:00 PM 6.35 43.43 0.098 7.07 2.41 12.12
1/2/2022 10:30:00 PM 6.32 43.376 0.096 7.07 2.24 12.14
1/2/2022 10:45:00 PM 6.3 43.34 0.096 7.07 2.17 12.15
1/2/2022 11:00:00 PM 6.28 43.304 0.096 7.07 2.27 12.14
1/2/2022 11:15:00 PM 6.26 43.268 0.098 7.07 2.25 12.16
1/2/2022 11:30:00 PM 6.24 43.232 0.098 7.07 2.14 12.17
1/2/2022 11:45:00 PM 6.23 43.214 0.097 7.07 2.11 12.16
1/3/2022 12:00:00 AM 6.21 43.178 0.097 7.07 2.14 12.17
1/3/2022 12:15:00 AM 6.18 43.124 0.096 7.07 2.15 12.19
1/3/2022 12:30:00 AM 6.16 43.088 0.096 7.07 2.15 12.19
1/3/2022 12:45:00 AM 6.14 43.052 0.097 7.07 2.18 12.2
1/3/2022 1:00:00 AM 6.13 43.034 0.098 7.07 2.09 12.21
1/3/2022 1:15:00 AM 6.11 42.998 0.097 7.07 2.2 12.22
1/3/2022 1:30:00 AM 6.08 42.944 0.095 7.07 2.15 12.23
1/3/2022 1:45:00 AM 6.06 42.908 0.095 7.06 2.25 12.23
1/3/2022 2:00:00 AM 6.05 42.89 0.094 7.07 2.15 12.24
1/3/2022 2:15:00 AM 6.03 42.854 0.094 7.07 2.09 12.25
1/3/2022 2:30:00 AM 6.01 42.818 0.094 7.07 2.26 12.25
1/3/2022 2:45:00 AM 5.99 42.782 0.094 7.07 2.09 12.25
1/3/2022 3:00:00 AM 5.97 42.746 0.094 7.07 2.07 12.24
1/3/2022 3:15:00 AM 5.95 42.71 0.096 7.07 2.22 12.26
1/3/2022 3:30:00 AM 5.92 42.656 0.096 7.07 2.71 12.28
1/3/2022 3:45:00 AM 5.88 42.584 0.096 7.07 2.43 12.28
1/3/2022 4:00:00 AM 5.84 42.512 0.096 7.07 2.42 12.3
1/3/2022 4:15:00 AM 5.81 42.458 0.094 7.06 2.32 12.3
1/3/2022 4:30:00 AM 5.77 42.386 0.094 7.08 2.2 12.33
1/3/2022 4:45:00 AM 5.74 42.332 0.094 7.08 2.44 12.33
1/3/2022 5:00:00 AM 5.71 42.278 0.094 7.08 2.21 12.33
1/3/2022 5:15:00 AM 5.68 42.224 0.094 7.08 2.21 12.34
1/3/2022 5:30:00 AM 5.64 42.152 0.094 7.08 2.22 12.35
1/3/2022 5:45:00 AM 5.61 42.098 0.094 7.08 2.19 12.35
1/3/2022 6:00:00 AM 5.56 42.008 0.094 7.08 2.14 12.36
1/3/2022 6:15:00 AM 5.53 41.954 0.094 7.08 2.14 12.38
1/3/2022 6:30:00 AM 5.5 41.9 0.094 7.07 2.1 12.39
1/3/2022 6:45:00 AM 5.47 41.846 0.094 7.07 2.13 12.39
1/3/2022 7:00:00 AM 5.41 41.738 0.094 7.08 2.15 12.41
1/3/2022 7:15:00 AM 5.38 41.684 0.094 7.08 2.14 12.42
1/3/2022 7:30:00 AM 5.33 41.594 0.095 7.08 2.13 12.43
1/3/2022 7:45:00 AM 5.29 41.522 0.094 7.07 2.1 12.45
1/3/2022 8:00:00 AM 5.26 41.468 0.094 7.08 2.04 12.46
1/3/2022 8:15:00 AM 5.23 41.414 0.094 7.08 2.09 12.49
1/3/2022 8:30:00 AM 5.18 41.324 0.094 7.08 2.09 12.52
1/3/2022 8:45:00 AM 5.12 41.216 0.094 7.08 2 12.56
1/3/2022 9:00:00 AM 5.07 41.126 0.094 7.09 2.06 12.62
1/3/2022 9:15:00 AM 5.01 41.018 0.094 7.1 2.06 12.66
1/3/2022 9:30:00 AM 4.96 40.928 0.094 7.1 1.98 12.71
1/3/2022 9:45:00 AM 4.92 40.856 0.094 7.11 2.07 12.77
1/3/2022 10:00:00 AM 4.9 40.82 0.094 7.12 2.1 12.83
1/3/2022 10:15:00 AM 4.86 40.748 0.094 7.14 2.11 12.88
1/3/2022 10:30:00 AM 4.84 40.712 0.094 7.14 1.98 12.93
1/3/2022 10:45:00 AM 4.84 40.712 0.094 7.15 2.01 12.97
1/3/2022 11:00:00 AM 4.85 40.73 0.093 7.16 2.04 13
1/3/2022 11:15:00 AM 4.84 40.712 0.093 7.17 2.14 13.04
1/3/2022 11:30:00 AM 4.85 40.73 0.093 7.18 2 13.06
1/3/2022 11:45:00 AM 4.84 40.712 0.093 7.19 2 13.08
1/3/2022 12:00:00 PM 4.85 40.73 0.093 7.2 2.02 13.1
1/3/2022 12:15:00 PM 4.86 40.748 0.093 7.2 2 13.11
1/3/2022 12:30:00 PM 4.89 40.802 0.093 7.2 1.98 13.12
1/3/2022 12:45:00 PM 4.9 40.82 0.093 7.21 2.04 13.12
1/3/2022 1:00:00 PM 4.9 40.82 0.093 7.21 2.04 13.13
1/3/2022 1:15:00 PM 4.88 40.784 0.093 7.21 2 13.13
1/3/2022 1:30:00 PM 4.88 40.784 0.093 7.21 1.96 13.14
1/3/2022 1:45:00 PM 4.86 40.748 0.093 7.2 2 13.16
1/3/2022 2:00:00 PM 4.83 40.694 0.093 7.2 2.01 13.16
1/3/2022 2:15:00 PM 4.78 40.604 0.093 7.2 2.03 13.17
1/3/2022 2:30:00 PM 4.71 40.478 0.093 7.2 1.97 13.18
1/3/2022 2:45:00 PM 4.59 40.262 0.093 7.19 1.98 13.17
1/3/2022 3:00:00 PM 4.49 40.082 0.093 7.18 1.96 13.17
1/3/2022 3:15:00 PM 4.4 39.92 0.093 7.17 2.03 13.16
1/3/2022 3:30:00 PM 4.34 39.812 0.093 7.16 2.01 13.15
1/3/2022 3:45:00 PM 4.27 39.686 0.093 7.16 2 13.14
1/3/2022 4:00:00 PM 4.21 39.578 0.093 7.15 2 13.11
1/3/2022 4:15:00 PM 4.16 39.488 0.093 7.14 1.97 13.08
1/3/2022 4:30:00 PM 4.13 39.434 0.093 7.13 1.93 13.06
1/3/2022 4:45:00 PM 4.09 39.362 0.093 7.12 1.94 13.04
1/3/2022 5:00:00 PM 4.06 39.308 0.092 7.11 1.93 13.01
1/3/2022 5:15:00 PM 4.06 39.308 0.094 7.09 2 12.99
1/3/2022 5:30:00 PM 4.04 39.272 0.093 7.09 1.97 12.97
1/3/2022 5:45:00 PM 4.02 39.236 0.093 7.08 1.95 12.96
1/3/2022 6:00:00 PM 4 39.2 0.093 7.08 2 12.96
1/3/2022 6:15:00 PM 3.98 39.164 0.093 7.08 2.09 12.95
1/3/2022 6:30:00 PM 3.95 39.11 0.093 7.07 1.99 12.96
1/3/2022 6:45:00 PM 3.9 39.02 0.093 7.07 2.02 12.96
1/3/2022 7:00:00 PM 3.85 38.93 0.093 7.07 2 12.99
1/3/2022 7:15:00 PM 3.8 38.84 0.093 7.06 1.98 13
1/3/2022 7:30:00 PM 3.74 38.732 0.093 7.06 1.94 13.02
1/3/2022 7:45:00 PM 3.68 38.624 0.092 7.06 1.88 13.03
1/3/2022 8:00:00 PM 3.64 38.552 0.092 7.06 1.94 13.05
1/3/2022 8:15:00 PM 3.62 38.516 0.092 7.06 1.92 13.05
1/3/2022 8:30:00 PM 3.59 38.462 0.092 7.06 1.89 13.08
1/3/2022 8:45:00 PM 3.58 38.444 0.092 7.06 1.91 13.08
1/3/2022 9:00:00 PM 3.56 38.408 0.092 7.06 1.95 13.09
1/3/2022 9:15:00 PM 3.53 38.354 0.093 7.06 1.92 13.1
1/3/2022 9:30:00 PM 3.5 38.3 0.092 7.06 1.85 13.11
1/3/2022 9:45:00 PM 3.47 38.246 0.092 7.05 1.9 13.13
1/3/2022 10:00:00 PM 3.42 38.156 0.092 7.05 1.9 13.15
1/3/2022 10:15:00 PM 3.36 38.048 0.092 7.05 1.87 13.18
1/3/2022 10:30:00 PM 3.31 37.958 0.092 7.05 1.89 13.21
1/3/2022 10:45:00 PM 3.26 37.868 0.092 7.05 1.85 13.22
1/3/2022 11:00:00 PM 3.22 37.796 0.092 7.05 1.84 13.24
1/3/2022 11:15:00 PM 3.19 37.742 0.092 7.05 1.89 13.25
1/3/2022 11:30:00 PM 3.17 37.706 0.092 7.05 1.88 13.25
1/3/2022 11:45:00 PM 3.17 37.706 0.092 7.05 1.9 13.25
1/4/2022 12:00:00 AM 3.17 37.706 0.092 7.05 1.93 13.25
1/4/2022 12:15:00 AM 3.17 37.706 0.092 7.05 1.91 13.25
1/4/2022 12:30:00 AM 3.17 37.706 0.092 7.05 1.9 13.25
1/4/2022 12:45:00 AM 3.17 37.706 0.092 7.05 1.93 13.25
1/4/2022 1:00:00 AM 3.16 37.688 0.092 7.05 1.93 13.25
1/4/2022 1:15:00 AM 3.15 37.67 0.092 7.05 1.91 13.25
1/4/2022 1:30:00 AM 3.14 37.652 0.092 7.05 1.87 13.25
1/4/2022 1:45:00 AM 3.13 37.634 0.092 7.05 1.86 13.26
1/4/2022 2:00:00 AM 3.11 37.598 0.092 7.05 1.96 13.26
1/4/2022 2:15:00 AM 3.1 37.58 0.092 7.05 1.92 13.28
1/4/2022 2:30:00 AM 3.08 37.544 0.092 7.05 1.87 13.28
1/4/2022 2:45:00 AM 3.07 37.526 0.092 7.05 1.85 13.29
1/4/2022 3:00:00 AM 3.06 37.508 0.092 7.05 1.92 13.29
1/4/2022 3:15:00 AM 3.04 37.472 0.092 7.05 1.89 13.3
1/4/2022 3:30:00 AM 3.02 37.436 0.092 7.05 1.9 13.3
1/4/2022 3:45:00 AM 3.01 37.418 0.092 7.05 1.86 13.31
1/4/2022 4:00:00 AM 3.01 37.418 0.092 7.06 1.95 13.3
1/4/2022 4:15:00 AM 3.03 37.454 0.092 7.05 1.97 13.3
1/4/2022 4:30:00 AM 3.04 37.472 0.092 7.05 1.85 13.3
1/4/2022 4:45:00 AM 3.04 37.472 0.092 7.05 1.95 13.3
1/4/2022 5:00:00 AM 3.04 37.472 0.092 7.05 1.9 13.29
1/4/2022 5:15:00 AM 3.05 37.49 0.092 7.05 1.83 13.28
1/4/2022 5:30:00 AM 3.04 37.472 0.093 7.05 1.92 13.28
1/4/2022 5:45:00 AM 3.04 37.472 0.093 7.05 1.86 13.28
1/4/2022 6:00:00 AM 3.03 37.454 0.093 7.05 1.86 13.29
1/4/2022 6:15:00 AM 3.02 37.436 0.093 7.05 1.83 13.3
1/4/2022 6:30:00 AM 3 37.4 0.093 7.05 1.9 13.3
1/4/2022 6:45:00 AM 2.98 37.364 0.093 7.05 1.85 13.3
1/4/2022 7:00:00 AM 2.96 37.328 0.093 7.05 1.87 13.31
1/4/2022 7:15:00 AM 2.95 37.31 0.093 7.05 1.86 13.31
1/4/2022 7:30:00 AM 2.93 37.274 0.093 7.05 1.84 13.33
1/4/2022 7:45:00 AM 2.91 37.238 0.093 7.05 1.81 13.35
1/4/2022 8:00:00 AM 2.9 37.22 0.093 7.05 1.88 13.37
1/4/2022 8:15:00 AM 2.9 37.22 0.093 7.06 1.81 13.39
1/4/2022 8:30:00 AM 2.91 37.238 0.093 7.07 1.79 13.41
1/4/2022 8:45:00 AM 2.92 37.256 0.093 7.07 1.79 13.44
1/4/2022 9:00:00 AM 2.94 37.292 0.093 7.08 1.83 13.46
1/4/2022 9:15:00 AM 2.96 37.328 0.093 7.08 1.83 13.49
1/4/2022 9:30:00 AM 2.97 37.346 0.093 7.09 1.85 13.52
1/4/2022 9:45:00 AM 2.98 37.364 0.093 7.1 1.82 13.54
1/4/2022 10:00:00 AM 2.99 37.382 0.093 7.11 1.79 13.58
1/4/2022 10:15:00 AM 3 37.4 0.093 7.11 1.81 13.61
1/4/2022 10:30:00 AM 3 37.4 0.092 7.12 1.83 13.64
1/4/2022 10:45:00 AM 3.03 37.454 0.092 7.12 1.79 13.67
1/4/2022 11:00:00 AM 3.06 37.508 0.092 7.13 1.78 13.68
1/4/2022 11:15:00 AM 3.11 37.598 0.092 7.13 1.77 13.7
1/4/2022 11:30:00 AM 3.16 37.688 0.092 7.14 1.86 13.72
1/4/2022 11:45:00 AM 3.23 37.814 0.092 7.14 1.77 13.72
1/4/2022 12:00:00 PM 3.29 37.922 0.092 7.14 1.77 13.73
1/4/2022 12:15:00 PM 3.35 38.03 0.092 7.15 1.77 13.73
1/4/2022 12:30:00 PM 3.42 38.156 0.092 7.15 1.69 13.72
1/4/2022 12:45:00 PM 3.47 38.246 0.092 7.15 1.74 13.72
1/4/2022 1:00:00 PM 3.52 38.336 0.091 7.15 1.75 13.74
1/4/2022 1:15:00 PM 3.53 38.354 0.091 7.15 1.73 13.73
1/4/2022 1:30:00 PM 3.52 38.336 0.091 7.15 1.72 13.73
1/4/2022 1:45:00 PM 3.47 38.246 0.091 7.15 1.69 13.72
1/4/2022 2:00:00 PM 3.46 38.228 0.091 7.15 1.71 13.71
1/4/2022 2:15:00 PM 3.4 38.12 0.091 7.15 1.72 13.71
1/4/2022 2:30:00 PM 3.32 37.976 0.091 7.14 1.68 13.71
1/4/2022 2:45:00 PM 3.25 37.85 0.091 7.14 1.73 13.69
1/4/2022 3:00:00 PM 3.19 37.742 0.091 7.13 1.7 13.67
1/4/2022 3:15:00 PM 3.16 37.688 0.091 7.13 1.67 13.67
1/4/2022 3:30:00 PM 3.13 37.634 0.091 7.13 1.67 13.66
1/4/2022 3:45:00 PM 3.09 37.562 0.091 7.12 1.69 13.65
1/4/2022 4:00:00 PM 3.05 37.49 0.092 7.11 1.65 13.64
1/4/2022 4:15:00 PM 3.01 37.418 0.092 7.11 1.68 13.61
1/4/2022 4:30:00 PM 2.98 37.364 0.092 7.1 1.67 13.59
1/4/2022 4:45:00 PM 2.94 37.292 0.092 7.1 1.69 13.56
1/4/2022 5:00:00 PM 2.9 37.22 0.092 7.09 1.66 13.54
1/4/2022 5:15:00 PM 2.86 37.148 0.092 7.08 1.69 13.52
1/4/2022 5:30:00 PM 2.82 37.076 0.092 7.07 1.69 13.52
1/4/2022 5:45:00 PM 2.79 37.022 0.091 7.07 1.67 13.5
1/4/2022 6:00:00 PM 2.75 36.95 0.091 7.06 1.93 13.49
1/4/2022 6:15:00 PM 2.71 36.878 0.091 7.05 1.73 13.48
1/4/2022 6:30:00 PM 2.68 36.824 0.091 7.05 1.68 13.48
1/4/2022 6:45:00 PM 2.64 36.752 0.091 7.05 1.66 13.49
1/4/2022 7:00:00 PM 2.61 36.698 0.091 7.04 1.7 13.48
1/4/2022 7:15:00 PM 2.59 36.662 0.091 7.04 1.73 13.48
1/4/2022 7:30:00 PM 2.57 36.626 0.091 7.03 1.65 13.48
1/4/2022 7:45:00 PM 2.55 36.59 0.091 7.04 1.68 13.48
1/4/2022 8:00:00 PM 2.53 36.554 0.091 7.04 1.67 13.48
1/4/2022 8:15:00 PM 2.51 36.518 0.092 7.04 1.69 13.49
1/4/2022 8:30:00 PM 2.49 36.482 0.092 7.04 1.63 13.49
1/4/2022 8:45:00 PM 2.47 36.446 0.092 7.04 1.69 13.49
1/4/2022 9:00:00 PM 2.45 36.41 0.092 7.04 1.63 13.5
1/4/2022 9:15:00 PM 2.44 36.392 0.092 7.04 1.67 13.51
1/4/2022 9:30:00 PM 2.43 36.374 0.092 7.04 1.64 13.5
1/4/2022 9:45:00 PM 2.43 36.374 0.092 7.04 1.66 13.5
1/4/2022 10:00:00 PM 2.43 36.374 0.092 7.04 1.72 13.51
1/4/2022 10:15:00 PM 2.42 36.356 0.092 7.04 1.67 13.5
1/4/2022 10:30:00 PM 2.41 36.338 0.092 7.04 1.66 13.5
1/4/2022 10:45:00 PM 2.41 36.338 0.092 7.04 1.63 13.5
1/4/2022 11:00:00 PM 2.4 36.32 0.092 7.04 1.65 13.51
1/4/2022 11:15:00 PM 2.4 36.32 0.092 7.04 1.63 13.5
1/4/2022 11:30:00 PM 2.4 36.32 0.092 7.04 1.7 13.5
1/4/2022 11:45:00 PM 2.4 36.32 0.092 7.04 1.67 13.49
1/5/2022 12:00:00 AM 2.4 36.32 0.092 7.04 1.66 13.49
1/5/2022 12:15:00 AM 2.4 36.32 0.092 7.04 1.69 13.49
1/5/2022 12:30:00 AM 2.41 36.338 0.092 7.04 1.7 13.48
1/5/2022 12:45:00 AM 2.41 36.338 0.092 7.04 1.68 13.49
1/5/2022 1:00:00 AM 2.41 36.338 0.092 7.05 1.7 13.48
1/5/2022 1:15:00 AM 2.42 36.356 0.092 7.04 1.69 13.48
1/5/2022 1:30:00 AM 2.43 36.374 0.092 7.04 1.66 13.47
1/5/2022 1:45:00 AM 2.42 36.356 0.092 7.04 1.69 13.48
1/5/2022 2:00:00 AM 2.41 36.338 0.092 7.04 1.64 13.48
1/5/2022 2:15:00 AM 2.41 36.338 0.092 7.04 1.71 13.49
1/5/2022 2:30:00 AM 2.4 36.32 0.092 7.04 1.7 13.49
1/5/2022 2:45:00 AM 2.4 36.32 0.092 7.04 1.68 13.49
1/5/2022 3:00:00 AM 2.39 36.302 0.092 7.04 1.71 13.49
1/5/2022 3:15:00 AM 2.39 36.302 0.092 7.04 1.72 13.49
1/5/2022 3:30:00 AM 2.38 36.284 0.092 7.04 1.68 13.48
1/5/2022 3:45:00 AM 2.37 36.266 0.092 7.04 1.68 13.49
1/5/2022 4:00:00 AM 2.37 36.266 0.092 7.04 1.7 13.48
1/5/2022 4:15:00 AM 2.38 36.284 0.092 7.04 1.69 13.49
1/5/2022 4:30:00 AM 2.38 36.284 0.092 7.04 1.65 13.48
1/5/2022 4:45:00 AM 2.39 36.302 0.092 7.04 1.64 13.47
1/5/2022 5:00:00 AM 2.39 36.302 0.092 7.04 1.68 13.48
1/5/2022 5:15:00 AM 2.39 36.302 0.092 7.04 1.68 13.47
1/5/2022 5:30:00 AM 2.39 36.302 0.092 7.04 1.66 13.47
1/5/2022 5:45:00 AM 2.39 36.302 0.092 7.04 1.71 13.48
1/5/2022 6:00:00 AM 2.38 36.284 0.092 7.04 1.73 13.47
1/5/2022 6:15:00 AM 2.38 36.284 0.092 7.04 1.68 13.47
1/5/2022 6:30:00 AM 2.38 36.284 0.092 7.04 1.66 13.48
1/5/2022 6:45:00 AM 2.37 36.266 0.092 7.04 1.64 13.47
1/5/2022 7:00:00 AM 2.36 36.248 0.092 7.04 1.69 13.47
1/5/2022 7:15:00 AM 2.35 36.23 0.092 7.04 1.64 13.47
1/5/2022 7:30:00 AM 2.34 36.212 0.092 7.04 1.61 13.47
1/5/2022 7:45:00 AM 2.33 36.194 0.092 7.04 1.67 13.49
1/5/2022 8:00:00 AM 2.32 36.176 0.092 7.04 1.66 13.49
1/5/2022 8:15:00 AM 2.32 36.176 0.092 7.04 1.63 13.53
1/5/2022 8:30:00 AM 2.33 36.194 0.092 7.05 1.61 13.57
1/5/2022 8:45:00 AM 2.34 36.212 0.092 7.06 1.63 13.6
1/5/2022 9:00:00 AM 2.35 36.23 0.092 7.07 1.64 13.62
1/5/2022 9:15:00 AM 2.36 36.248 0.092 7.08 1.63 13.66
1/5/2022 9:30:00 AM 2.37 36.266 0.092 7.08 1.58 13.69
1/5/2022 9:45:00 AM 2.38 36.284 0.092 7.09 1.58 13.7
1/5/2022 10:00:00 AM 2.4 36.32 0.092 7.1 1.6 13.74
1/5/2022 10:15:00 AM 2.43 36.374 0.092 7.11 1.57 13.76
1/5/2022 10:30:00 AM 2.47 36.446 0.092 7.11 1.56 13.78
1/5/2022 10:45:00 AM 2.51 36.518 0.092 7.12 1.54 13.79
1/5/2022 11:00:00 AM 2.57 36.626 0.092 7.13 1.56 13.8
1/5/2022 11:15:00 AM 2.61 36.698 0.092 7.13 1.55 13.8
1/5/2022 11:30:00 AM 2.65 36.77 0.091 7.13 1.57 13.8
1/5/2022 11:45:00 AM 2.69 36.842 0.091 7.14 1.59 13.79
1/5/2022 12:00:00 PM 2.73 36.914 0.091 7.14 1.57 13.8
1/5/2022 12:15:00 PM 2.77 36.986 0.091 7.14 1.57 13.79
1/5/2022 12:30:00 PM 2.81 37.058 0.091 7.15 1.55 13.78
1/5/2022 12:45:00 PM 2.83 37.094 0.091 7.15 1.58 13.78
1/5/2022 1:00:00 PM 2.88 37.184 0.091 7.15 1.59 13.77
1/5/2022 1:15:00 PM 2.9 37.22 0.091 7.15 1.55 13.76
1/5/2022 1:30:00 PM 2.92 37.256 0.091 7.15 1.62 13.74
1/5/2022 1:45:00 PM 2.93 37.274 0.091 7.15 1.56 13.72
1/5/2022 2:00:00 PM 2.99 37.382 0.091 7.15 1.54 13.72
1/5/2022 2:15:00 PM 2.96 37.328 0.091 7.15 1.56 13.7
1/5/2022 2:30:00 PM 2.95 37.31 0.091 7.15 1.56 13.68
1/5/2022 2:45:00 PM 2.93 37.274 0.091 7.14 1.61 13.67
1/5/2022 3:00:00 PM 2.9 37.22 0.091 7.14 1.56 13.66
1/5/2022 3:15:00 PM 2.88 37.184 0.091 7.14 1.59 13.65
1/5/2022 3:30:00 PM 2.85 37.13 0.091 7.13 1.59 13.63
1/5/2022 3:45:00 PM 2.81 37.058 0.091 7.13 1.61 13.6
1/5/2022 4:00:00 PM 2.77 36.986 0.091 7.12 1.63 13.58
1/5/2022 4:15:00 PM 2.73 36.914 0.091 7.12 1.58 13.55
1/5/2022 4:30:00 PM 2.68 36.824 0.091 7.11 1.57 13.53
1/5/2022 4:45:00 PM 2.64 36.752 0.091 7.1 1.56 13.51
1/5/2022 5:00:00 PM 2.6 36.68 0.091 7.09 1.57 13.49
1/5/2022 5:15:00 PM 2.56 36.608 0.091 7.08 1.66 13.46
1/5/2022 5:30:00 PM 2.53 36.554 0.091 7.07 1.58 13.44
1/5/2022 5:45:00 PM 2.5 36.5 0.091 7.07 1.61 13.43
1/5/2022 6:00:00 PM 2.46 36.428 0.091 7.06 1.61 13.42
1/5/2022 6:15:00 PM 2.44 36.392 0.091 7.06 1.62 13.41
1/5/2022 6:30:00 PM 2.42 36.356 0.091 7.05 1.62 13.4
1/5/2022 6:45:00 PM 2.4 36.32 0.091 7.05 1.6 13.41
1/5/2022 7:00:00 PM 2.4 36.32 0.091 7.04 1.67 13.4
1/5/2022 7:15:00 PM 2.4 36.32 0.091 7.04 1.6 13.4
1/5/2022 7:30:00 PM 2.4 36.32 0.091 7.04 1.68 13.4
1/5/2022 7:45:00 PM 2.38 36.284 0.091 7.04 1.66 13.38
1/5/2022 8:00:00 PM 2.38 36.284 0.091 7.04 1.62 13.39
1/5/2022 8:15:00 PM 2.38 36.284 0.091 7.04 1.62 13.38
1/5/2022 8:30:00 PM 2.39 36.302 0.091 7.03 1.65 13.39
1/5/2022 8:45:00 PM 2.4 36.32 0.091 7.03 1.65 13.38
1/5/2022 9:00:00 PM 2.4 36.32 0.091 7.04 1.8 13.39
1/5/2022 9:15:00 PM 2.41 36.338 0.091 7.03 1.58 13.38
1/5/2022 9:30:00 PM 2.42 36.356 0.091 7.03 1.76 13.39
1/5/2022 9:45:00 PM 2.43 36.374 0.091 7.03 1.68 13.37
1/5/2022 10:00:00 PM 2.44 36.392 0.091 7.03 1.65 13.38
1/5/2022 10:15:00 PM 2.42 36.356 0.091 7.03 1.64 13.37
1/5/2022 10:30:00 PM 2.42 36.356 0.091 7.03 1.61 13.37
1/5/2022 10:45:00 PM 2.4 36.32 0.091 7.03 1.63 13.39
1/5/2022 11:00:00 PM 2.39 36.302 0.091 7.03 1.63 13.38
1/5/2022 11:15:00 PM 2.37 36.266 0.091 7.03 1.64 13.39
1/5/2022 11:30:00 PM 2.35 36.23 0.091 7.03 1.61 13.39
1/5/2022 11:45:00 PM 2.34 36.212 0.091 7.03 1.62 13.39
1/6/2022 12:00:00 AM 2.33 36.194 0.091 7.03 1.68 13.39
1/6/2022 12:15:00 AM 2.32 36.176 0.091 7.03 1.62 13.39
1/6/2022 12:30:00 AM 2.32 36.176 0.091 7.03 1.6 13.39
1/6/2022 12:45:00 AM 2.32 36.176 0.091 7.03 1.63 13.39
1/6/2022 1:00:00 AM 2.31 36.158 0.091 7.03 1.7 13.4
1/6/2022 1:15:00 AM 2.29 36.122 0.091 7.03 1.61 13.4
1/6/2022 1:30:00 AM 2.27 36.086 0.091 7.03 1.66 13.41
1/6/2022 1:45:00 AM 2.27 36.086 0.091 7.03 1.64 13.4
1/6/2022 2:00:00 AM 2.27 36.086 0.091 7.03 1.65 13.41
1/6/2022 2:15:00 AM 2.27 36.086 0.091 7.03 1.85 13.41
1/6/2022 2:30:00 AM 2.26 36.068 0.091 7.03 1.7 13.41
1/6/2022 2:45:00 AM 2.27 36.086 0.091 7.03 1.72 13.41
1/6/2022 3:00:00 AM 2.27 36.086 0.091 7.03 1.66 13.41
1/6/2022 3:15:00 AM 2.29 36.122 0.091 7.03 1.65 13.41
1/6/2022 3:30:00 AM 2.3 36.14 0.091 7.03 1.64 13.41
1/6/2022 3:45:00 AM 2.32 36.176 0.091 7.03 1.59 13.41
1/6/2022 4:00:00 AM 2.31 36.158 0.091 7.03 1.6 13.42
1/6/2022 4:15:00 AM 2.31 36.158 0.091 7.03 1.57 13.41
1/6/2022 4:30:00 AM 2.29 36.122 0.091 7.03 1.61 13.43
1/6/2022 4:45:00 AM 2.27 36.086 0.091 7.03 1.57 13.43
1/6/2022 5:00:00 AM 2.27 36.086 0.091 7.03 1.55 13.44
1/6/2022 5:15:00 AM 2.23 36.014 0.091 7.03 1.58 13.44
1/6/2022 5:30:00 AM 2.22 35.996 0.091 7.03 1.57 13.45
1/6/2022 5:45:00 AM 2.22 35.996 0.091 7.03 1.57 13.46
1/6/2022 6:00:00 AM 2.21 35.978 0.091 7.03 1.58 13.46
1/6/2022 6:15:00 AM 2.2 35.96 0.091 7.03 1.55 13.47
1/6/2022 6:30:00 AM 2.17 35.906 0.091 7.03 1.55 13.47
1/6/2022 6:45:00 AM 2.16 35.888 0.091 7.03 1.55 13.49
1/6/2022 7:00:00 AM 2.14 35.852 0.091 7.03 1.55 13.49
1/6/2022 7:15:00 AM 2.13 35.834 0.091 7.03 1.54 13.49
1/6/2022 7:30:00 AM 2.13 35.834 0.091 7.03 1.54 13.49
1/6/2022 7:45:00 AM 2.12 35.816 0.091 7.03 1.48 13.5
1/6/2022 8:00:00 AM 2.13 35.834 0.091 7.03 1.54 13.52
1/6/2022 8:15:00 AM 2.15 35.87 0.091 7.04 1.51 13.54
1/6/2022 8:30:00 AM 2.18 35.924 0.091 7.04 1.57 13.55
1/6/2022 8:45:00 AM 2.23 36.014 0.091 7.05 1.51 13.57
1/6/2022 9:00:00 AM 2.25 36.05 0.091 7.05 1.48 13.59
1/6/2022 9:15:00 AM 2.26 36.068 0.091 7.06 1.51 13.64
1/6/2022 9:30:00 AM 2.28 36.104 0.091 7.07 1.55 13.66
1/6/2022 9:45:00 AM 2.31 36.158 0.091 7.08 1.68 13.69
1/6/2022 10:00:00 AM 2.34 36.212 0.091 7.09 1.54 13.71
1/6/2022 10:15:00 AM 2.38 36.284 0.09 7.09 1.48 13.74
1/6/2022 10:30:00 AM 2.41 36.338 0.09 7.1 1.56 13.75
1/6/2022 10:45:00 AM 2.48 36.464 0.09 7.11 1.49 13.77
1/6/2022 11:00:00 AM 2.54 36.572 0.09 7.12 1.54 13.79
1/6/2022 11:15:00 AM 2.58 36.644 0.09 7.13 1.53 13.79
1/6/2022 11:30:00 AM 2.66 36.788 0.09 7.13 1.5 13.79
1/6/2022 11:45:00 AM 2.74 36.932 0.09 7.13 1.54 13.79
1/6/2022 12:00:00 PM 2.86 37.148 0.09 7.14 1.5 13.79
1/6/2022 12:15:00 PM 2.94 37.292 0.09 7.14 1.52 13.77
1/6/2022 12:30:00 PM 3 37.4 0.09 7.14 1.58 13.76
1/6/2022 12:45:00 PM 3.03 37.454 0.09 7.14 1.59 13.75
1/6/2022 1:00:00 PM 3.03 37.454 0.09 7.14 1.62 13.73
1/6/2022 1:15:00 PM 3.07 37.526 0.09 7.15 1.62 13.72
1/6/2022 1:30:00 PM 3.06 37.508 0.09 7.15 1.58 13.71
1/6/2022 1:45:00 PM 3.06 37.508 0.09 7.15 1.55 13.72
1/6/2022 2:00:00 PM 3.04 37.472 0.09 7.15 1.54 13.71
1/6/2022 2:15:00 PM 3 37.4 0.09 7.15 1.53 13.69
1/6/2022 2:30:00 PM 3 37.4 0.09 7.14 1.52 13.68
1/6/2022 2:45:00 PM 3 37.4 0.089 7.14 1.58 13.68
1/6/2022 3:00:00 PM 2.97 37.346 0.089 7.14 1.54 13.67
1/6/2022 3:15:00 PM 2.95 37.31 0.089 7.14 1.57 13.67
1/6/2022 3:30:00 PM 2.93 37.274 0.089 7.14 1.53 13.66
1/6/2022 3:45:00 PM 2.89 37.202 0.09 7.13 1.51 13.63
1/6/2022 4:00:00 PM 2.86 37.148 0.09 7.13 1.55 13.61
1/6/2022 4:15:00 PM 2.83 37.094 0.09 7.12 1.56 13.59
1/6/2022 4:30:00 PM 2.79 37.022 0.09 7.11 1.52 13.56
1/6/2022 4:45:00 PM 2.75 36.95 0.09 7.1 1.58 13.53
1/6/2022 5:00:00 PM 2.72 36.896 0.09 7.1 1.53 13.51
1/6/2022 5:15:00 PM 2.69 36.842 0.09 7.09 1.56 13.49
1/6/2022 5:30:00 PM 2.66 36.788 0.09 7.08 1.55 13.47
1/6/2022 5:45:00 PM 2.65 36.77 0.09 7.07 1.65 13.45
1/6/2022 6:00:00 PM 2.63 36.734 0.09 7.06 1.56 13.43
1/6/2022 6:15:00 PM 2.61 36.698 0.09 7.06 1.54 13.42
1/6/2022 6:30:00 PM 2.6 36.68 0.09 7.05 1.53 13.41
1/6/2022 6:45:00 PM 2.57 36.626 0.09 7.05 1.58 13.41
1/6/2022 7:00:00 PM 2.55 36.59 0.09 7.05 1.58 13.42
1/6/2022 7:15:00 PM 2.54 36.572 0.09 7.04 1.52 13.41
1/6/2022 7:30:00 PM 2.53 36.554 0.09 7.04 1.53 13.41
1/6/2022 7:45:00 PM 2.52 36.536 0.09 7.04 1.52 13.41
1/6/2022 8:00:00 PM 2.5 36.5 0.09 7.04 1.51 13.41
1/6/2022 8:15:00 PM 2.49 36.482 0.09 7.04 1.51 13.41
1/6/2022 8:30:00 PM 2.47 36.446 0.09 7.04 1.54 13.41
1/6/2022 8:45:00 PM 2.44 36.392 0.09 7.03 1.55 13.41
1/6/2022 9:00:00 PM 2.4 36.32 0.09 7.03 1.5 13.42
1/6/2022 9:15:00 PM 2.37 36.266 0.09 7.03 1.53 13.43
1/6/2022 9:30:00 PM 2.36 36.248 0.09 7.03 1.52 13.43
1/6/2022 9:45:00 PM 2.35 36.23 0.09 7.03 1.52 13.43
1/6/2022 10:00:00 PM 2.33 36.194 0.09 7.03 1.52 13.44
1/6/2022 10:15:00 PM 2.3 36.14 0.09 7.03 1.52 13.45
1/6/2022 10:30:00 PM 2.27 36.086 0.09 7.03 1.51 13.45
1/6/2022 10:45:00 PM 2.24 36.032 0.09 7.03 1.54 13.46
1/6/2022 11:00:00 PM 2.21 35.978 0.09 7.03 1.52 13.47
1/6/2022 11:15:00 PM 2.19 35.942 0.09 7.03 1.52 13.47
1/6/2022 11:30:00 PM 2.18 35.924 0.09 7.03 1.53 13.48
1/6/2022 11:45:00 PM 2.19 35.942 0.09 7.03 1.52 13.47
1/7/2022 12:00:00 AM 2.17 35.906 0.09 7.03 1.59 13.47
1/7/2022 12:15:00 AM 2.16 35.888 0.09 7.02 1.54 13.48
1/7/2022 12:30:00 AM 2.13 35.834 0.09 7.02 1.49 13.47
1/7/2022 12:45:00 AM 2.1 35.78 0.089 7.02 1.55 13.47
1/7/2022 1:00:00 AM 2.07 35.726 0.089 7.02 1.52 13.48
1/7/2022 1:15:00 AM 2.05 35.69 0.089 7.03 1.55 13.48
1/7/2022 1:30:00 AM 2.04 35.672 0.089 7.02 1.52 13.48
1/7/2022 1:45:00 AM 2.04 35.672 0.089 7.02 1.53 13.48
1/7/2022 2:00:00 AM 2.04 35.672 0.089 7.03 1.51 13.48
1/7/2022 2:15:00 AM 2.02 35.636 0.089 7.03 1.52 13.48
1/7/2022 2:30:00 AM 2.03 35.654 0.089 7.03 1.44 13.49
1/7/2022 2:45:00 AM 2.04 35.672 0.089 7.02 1.52 13.49
1/7/2022 3:00:00 AM 2.04 35.672 0.089 7.02 1.5 13.49
1/7/2022 3:15:00 AM 2.05 35.69 0.089 7.02 1.48 13.49
1/7/2022 3:30:00 AM 2.07 35.726 0.089 7.02 1.49 13.49
1/7/2022 3:45:00 AM 2.09 35.762 0.089 7.03 1.51 13.48
1/7/2022 4:00:00 AM 2.1 35.78 0.089 7.03 1.54 13.47
1/7/2022 4:15:00 AM 2.12 35.816 0.089 7.03 1.53 13.46
1/7/2022 4:30:00 AM 2.14 35.852 0.089 7.03 1.51 13.48
1/7/2022 4:45:00 AM 2.15 35.87 0.089 7.03 1.5 13.47
1/7/2022 5:00:00 AM 2.17 35.906 0.089 7.03 1.55 13.46
1/7/2022 5:15:00 AM 2.18 35.924 0.089 7.03 1.51 13.46
1/7/2022 5:30:00 AM 2.19 35.942 0.09 7.03 1.56 13.45
1/7/2022 5:45:00 AM 2.19 35.942 0.089 7.02 1.56 13.46
1/7/2022 6:00:00 AM 2.21 35.978 0.089 7.02 1.51 13.45
1/7/2022 6:15:00 AM 2.22 35.996 0.089 7.02 1.53 13.45
1/7/2022 6:30:00 AM 2.23 36.014 0.089 7.02 1.51 13.44
1/7/2022 6:45:00 AM 2.24 36.032 0.089 7.02 1.55 13.44
1/7/2022 7:00:00 AM 2.25 36.05 0.089 7.02 1.53 13.45
1/7/2022 7:15:00 AM 2.26 36.068 0.089 7.03 1.5 13.45
1/7/2022 7:30:00 AM 2.25 36.05 0.089 7.03 1.48 13.45
1/7/2022 7:45:00 AM 2.26 36.068 0.089 7.03 1.53 13.46
1/7/2022 8:00:00 AM 2.26 36.068 0.089 7.03 1.48 13.47
1/7/2022 8:15:00 AM 2.26 36.068 0.089 7.03 1.52 13.49
1/7/2022 8:30:00 AM 2.26 36.068 0.089 7.04 1.46 13.52
1/7/2022 8:45:00 AM 2.27 36.086 0.089 7.05 1.48 13.55
1/7/2022 9:00:00 AM 2.28 36.104 0.089 7.05 1.5 13.6
1/7/2022 9:15:00 AM 2.31 36.158 0.089 7.06 1.49 13.62
1/7/2022 9:30:00 AM 2.34 36.212 0.089 7.07 1.48 13.67
1/7/2022 9:45:00 AM 2.37 36.266 0.089 7.08 1.52 13.69
1/7/2022 10:00:00 AM 2.39 36.302 0.088 7.09 1.51 13.73
1/7/2022 10:15:00 AM 2.4 36.32 0.088 7.1 1.5 13.76
1/7/2022 10:30:00 AM 2.43 36.374 0.088 7.1 1.47 13.78
1/7/2022 10:45:00 AM 2.48 36.464 0.088 7.11 1.41 13.8
1/7/2022 11:00:00 AM 2.5 36.5 0.088 7.12 1.46 13.83
1/7/2022 11:15:00 AM 2.51 36.518 0.088 7.12 1.47 13.82
1/7/2022 11:30:00 AM 2.58 36.644 0.088 7.13 1.4 13.84
1/7/2022 11:45:00 AM 2.62 36.716 0.088 7.13 1.46 13.84
1/7/2022 12:00:00 PM 2.62 36.716 0.088 7.13 1.46 13.83
1/7/2022 12:15:00 PM 2.64 36.752 0.088 7.13 1.51 13.83
1/7/2022 12:30:00 PM 2.61 36.698 0.088 7.13 1.46 13.82
1/7/2022 12:45:00 PM 2.59 36.662 0.088 7.13 1.43 13.82
1/7/2022 1:00:00 PM 2.57 36.626 0.088 7.13 1.52 13.81
1/7/2022 1:15:00 PM 2.56 36.608 0.088 7.13 1.47 13.8
1/7/2022 1:30:00 PM 2.54 36.572 0.088 7.13 1.44 13.8
1/7/2022 1:45:00 PM 2.54 36.572 0.088 7.13 1.43 13.8
1/7/2022 2:00:00 PM 2.55 36.59 0.088 7.13 1.43 13.81
1/7/2022 2:15:00 PM 2.55 36.59 0.088 7.13 1.45 13.81
1/7/2022 2:30:00 PM 2.56 36.608 0.088 7.13 1.51 13.8
1/7/2022 2:45:00 PM 2.52 36.536 0.088 7.13 1.43 13.8
1/7/2022 3:00:00 PM 2.49 36.482 0.088 7.13 1.45 13.8
1/7/2022 3:15:00 PM 2.47 36.446 0.088 7.13 1.44 13.81
1/7/2022 3:30:00 PM 2.43 36.374 0.088 7.13 1.46 13.8
1/7/2022 3:45:00 PM 2.42 36.356 0.088 7.13 1.41 13.81
1/7/2022 4:00:00 PM 2.37 36.266 0.088 7.12 1.42 13.79
1/7/2022 4:15:00 PM 2.32 36.176 0.088 7.12 1.49 13.78
1/7/2022 4:30:00 PM 2.29 36.122 0.088 7.11 1.45 13.77
1/7/2022 4:45:00 PM 2.24 36.032 0.088 7.1 1.43 13.76
1/7/2022 5:00:00 PM 2.2 35.96 0.088 7.1 1.43 13.74
1/7/2022 5:15:00 PM 2.16 35.888 0.089 7.09 1.43 13.72
1/7/2022 5:30:00 PM 2.11 35.798 0.089 7.08 1.41 13.7
1/7/2022 5:45:00 PM 2.07 35.726 0.089 7.07 1.44 13.68
1/7/2022 6:00:00 PM 2.04 35.672 0.089 7.06 1.49 13.68
1/7/2022 6:15:00 PM 2.01 35.618 0.089 7.06 1.48 13.68
1/7/2022 6:30:00 PM 1.98 35.564 0.089 7.05 1.45 13.67
1/7/2022 6:45:00 PM 1.94 35.492 0.089 7.05 1.42 13.67
1/7/2022 7:00:00 PM 1.92 35.456 0.089 7.04 1.46 13.67
1/7/2022 7:15:00 PM 1.9 35.42 0.09 7.04 1.43 13.67
1/7/2022 7:30:00 PM 1.85 35.33 0.09 7.03 1.44 13.68
1/7/2022 7:45:00 PM 1.83 35.294 0.09 7.03 1.46 13.69
1/7/2022 8:00:00 PM 1.82 35.276 0.09 7.03 1.45 13.69
1/7/2022 8:15:00 PM 1.79 35.222 0.09 7.03 1.42 13.7
1/7/2022 8:30:00 PM 1.77 35.186 0.09 7.03 1.43 13.72
1/7/2022 8:45:00 PM 1.73 35.114 0.09 7.03 1.45 13.73
1/7/2022 9:00:00 PM 1.71 35.078 0.09 7.03 1.43 13.74
1/7/2022 9:15:00 PM 1.69 35.042 0.09 7.03 1.4 13.75
1/7/2022 9:30:00 PM 1.67 35.006 0.091 7.02 1.45 13.76
1/7/2022 9:45:00 PM 1.66 34.988 0.091 7.03 1.44 13.77
1/7/2022 10:00:00 PM 1.65 34.97 0.091 7.03 1.44 13.78
1/7/2022 10:15:00 PM 1.63 34.934 0.09 7.02 1.42 13.79
1/7/2022 10:30:00 PM 1.6 34.88 0.09 7.02 1.42 13.79
1/7/2022 10:45:00 PM 1.57 34.826 0.09 7.02 1.39 13.81
1/7/2022 11:00:00 PM 1.55 34.79 0.091 7.02 1.45 13.81
1/7/2022 11:15:00 PM 1.53 34.754 0.091 7.02 1.47 13.82
1/7/2022 11:30:00 PM 1.52 34.736 0.091 7.02 1.46 13.83
1/7/2022 11:45:00 PM 1.5 34.7 0.091 7.02 1.44 13.83
1/8/2022 12:00:00 AM 1.48 34.664 0.091 7.02 1.41 13.84
1/8/2022 12:15:00 AM 1.47 34.646 0.091 7.02 1.4 13.85
1/8/2022 12:30:00 AM 1.45 34.61 0.091 7.02 1.39 13.85
1/8/2022 12:45:00 AM 1.44 34.592 0.091 7.02 1.43 13.86
1/8/2022 1:00:00 AM 1.43 34.574 0.091 7.02 1.36 13.87
1/8/2022 1:15:00 AM 1.41 34.538 0.091 7.02 1.39 13.87
1/8/2022 1:30:00 AM 1.39 34.502 0.091 7.02 1.42 13.88
1/8/2022 1:45:00 AM 1.38 34.484 0.091 7.02 1.4 13.89
1/8/2022 2:00:00 AM 1.35 34.43 0.091 7.02 1.38 13.89
1/8/2022 2:15:00 AM 1.33 34.394 0.091 7.02 1.41 13.9
1/8/2022 2:30:00 AM 1.32 34.376 0.091 7.02 1.4 13.91
1/8/2022 2:45:00 AM 1.3 34.34 0.091 7.02 1.39 13.92
1/8/2022 3:00:00 AM 1.27 34.286 0.091 7.02 1.43 13.93
1/8/2022 3:15:00 AM 1.26 34.268 0.091 7.02 1.47 13.93
1/8/2022 3:30:00 AM 1.25 34.25 0.091 7.02 1.4 13.94
1/8/2022 3:45:00 AM 1.24 34.232 0.091 7.01 1.46 13.95
1/8/2022 4:00:00 AM 1.24 34.232 0.091 7.01 1.37 13.95
1/8/2022 4:15:00 AM 1.24 34.232 0.091 7.01 1.39 13.96
1/8/2022 4:30:00 AM 1.22 34.196 0.091 7.01 1.55 13.97
1/8/2022 4:45:00 AM 1.2 34.16 0.092 7.01 1.43 13.97
1/8/2022 5:00:00 AM 1.18 34.124 0.092 7.01 1.37 13.98
1/8/2022 5:15:00 AM 1.16 34.088 0.092 7.01 1.34 13.99
1/8/2022 5:30:00 AM 1.14 34.052 0.092 7.01 1.39 14
1/8/2022 5:45:00 AM 1.13 34.034 0.092 7.02 1.39 14
1/8/2022 6:00:00 AM 1.12 34.016 0.092 7.01 1.38 14.02
1/8/2022 6:15:00 AM 1.1 33.98 0.092 7.01 1.41 14.02
1/8/2022 6:30:00 AM 1.08 33.944 0.092 7.01 1.38 14.03
1/8/2022 6:45:00 AM 1.07 33.926 0.091 7.01 1.38 14.04
1/8/2022 7:00:00 AM 1.05 33.89 0.091 7.01 1.36 14.05
1/8/2022 7:15:00 AM 1.04 33.872 0.091 7.01 1.44 14.05
1/8/2022 7:30:00 AM 1.02 33.836 0.091 7.01 1.37 14.06
1/8/2022 7:45:00 AM 1.01 33.818 0.091 7.01 1.39 14.08
1/8/2022 8:00:00 AM 1 33.8 0.091 7.01 1.37 14.1
1/8/2022 8:15:00 AM 0.99 33.782 0.091 7.02 1.39 14.13
1/8/2022 8:30:00 AM 0.99 33.782 0.091 7.02 1.39 14.15
1/8/2022 8:45:00 AM 0.98 33.764 0.091 7.03 1.39 14.18
1/8/2022 9:00:00 AM 0.99 33.782 0.091 7.03 1.44 14.2
1/8/2022 9:15:00 AM 1 33.8 0.091 7.04 1.39 14.22
1/8/2022 9:30:00 AM 1 33.8 0.091 7.04 1.38 14.25
1/8/2022 9:45:00 AM 1.01 33.818 0.091 7.05 1.42 14.27
1/8/2022 10:00:00 AM 1.04 33.872 0.091 7.05 1.43 14.3
1/8/2022 10:15:00 AM 1.06 33.908 0.091 7.05 1.38 14.32
1/8/2022 10:30:00 AM 1.09 33.962 0.091 7.06 1.43 14.34
1/8/2022 10:45:00 AM 1.13 34.034 0.091 7.06 1.39 14.35
1/8/2022 11:00:00 AM 1.19 34.142 0.091 7.07 1.38 14.36
1/8/2022 11:15:00 AM 1.25 34.25 0.091 7.07 1.38 14.37
1/8/2022 11:30:00 AM 1.33 34.394 0.091 7.07 1.38 14.38
1/8/2022 11:45:00 AM 1.43 34.574 0.091 7.08 1.34 14.37
1/8/2022 12:00:00 PM 1.54 34.772 0.091 7.08 1.35 14.36
1/8/2022 12:15:00 PM 1.67 35.006 0.091 7.08 1.39 14.33
1/8/2022 12:30:00 PM 1.79 35.222 0.09 7.09 1.36 14.32
1/8/2022 12:45:00 PM 1.9 35.42 0.09 7.09 1.36 14.3
1/8/2022 1:00:00 PM 1.99 35.582 0.09 7.09 1.31 14.28
1/8/2022 1:15:00 PM 2.06 35.708 0.09 7.1 1.31 14.26
1/8/2022 1:30:00 PM 2.1 35.78 0.09 7.1 1.36 14.24
1/8/2022 1:45:00 PM 2.11 35.798 0.09 7.09 1.32 14.22
1/8/2022 2:00:00 PM 2.07 35.726 0.091 7.09 1.35 14.2
1/8/2022 2:15:00 PM 2.02 35.636 0.091 7.09 1.35 14.19
1/8/2022 2:30:00 PM 1.94 35.492 0.091 7.09 1.36 14.18
1/8/2022 2:45:00 PM 1.85 35.33 0.091 7.08 1.45 14.16
1/8/2022 3:00:00 PM 1.79 35.222 0.091 7.08 1.35 14.15
1/8/2022 3:15:00 PM 1.74 35.132 0.091 7.07 1.29 14.13
1/8/2022 3:30:00 PM 1.7 35.06 0.091 7.07 1.35 14.13
1/8/2022 3:45:00 PM 1.67 35.006 0.091 7.07 1.3 14.12
1/8/2022 4:00:00 PM 1.62 34.916 0.091 7.06 1.39 14.1
1/8/2022 4:15:00 PM 1.59 34.862 0.091 7.06 1.34 14.09
1/8/2022 4:30:00 PM 1.55 34.79 0.091 7.05 1.47 14.08
1/8/2022 4:45:00 PM 1.51 34.718 0.091 7.05 1.35 14.07
1/8/2022 5:00:00 PM 1.46 34.628 0.091 7.05 1.38 14.07
1/8/2022 5:15:00 PM 1.42 34.556 0.091 7.04 1.41 14.05
1/8/2022 5:30:00 PM 1.38 34.484 0.091 7.04 1.35 14.04
1/8/2022 5:45:00 PM 1.34 34.412 0.091 7.03 1.32 14.04
1/8/2022 6:00:00 PM 1.3 34.34 0.091 7.03 1.35 14.04
1/8/2022 6:15:00 PM 1.27 34.286 0.091 7.02 1.39 14.04
1/8/2022 6:30:00 PM 1.22 34.196 0.091 7.01 1.35 14.04
1/8/2022 6:45:00 PM 1.19 34.142 0.091 7.01 1.37 14.04
1/8/2022 7:00:00 PM 1.15 34.07 0.091 7.01 1.37 14.04
1/8/2022 7:15:00 PM 1.13 34.034 0.091 7 1.41 14.04
1/8/2022 7:30:00 PM 1.1 33.98 0.091 7 1.4 14.04
1/8/2022 7:45:00 PM 1.09 33.962 0.091 7 1.36 14.04
1/8/2022 8:00:00 PM 1.08 33.944 0.091 7 1.37 14.04
1/8/2022 8:15:00 PM 1.07 33.926 0.091 7 1.38 14.04
1/8/2022 8:30:00 PM 1.05 33.89 0.091 7 1.4 14.06
1/8/2022 8:45:00 PM 1.03 33.854 0.092 7 1.35 14.05
1/8/2022 9:00:00 PM 1.01 33.818 0.092 7 1.37 14.06
1/8/2022 9:15:00 PM 1 33.8 0.092 7.01 1.37 14.06
1/8/2022 9:30:00 PM 0.99 33.782 0.092 7 1.33 14.07
1/8/2022 9:45:00 PM 0.97 33.746 0.092 7 1.4 14.07
1/8/2022 10:00:00 PM 0.97 33.746 0.092 7 1.37 14.07
1/8/2022 10:15:00 PM 0.98 33.764 0.092 7 1.38 14.07
1/8/2022 10:30:00 PM 0.99 33.782 0.092 7 1.36 14.08
1/8/2022 10:45:00 PM 1 33.8 0.092 7.01 1.37 14.07
1/8/2022 11:00:00 PM 1.01 33.818 0.092 7.01 1.39 14.08
1/8/2022 11:15:00 PM 1.02 33.836 0.092 7.01 1.39 14.07
1/8/2022 11:30:00 PM 1.03 33.854 0.092 7.01 1.44 14.07
1/8/2022 11:45:00 PM 1.05 33.89 0.092 7.01 1.35 14.07
1/9/2022 12:00:00 AM 1.07 33.926 0.092 7.01 1.38 14.06
1/9/2022 12:15:00 AM 1.08 33.944 0.092 7.01 1.35 14.06
1/9/2022 12:30:00 AM 1.1 33.98 0.092 7.01 1.38 14.05
1/9/2022 12:45:00 AM 1.12 34.016 0.092 7.01 1.39 14.05
1/9/2022 1:00:00 AM 1.14 34.052 0.092 7.02 1.35 14.04
1/9/2022 1:15:00 AM 1.17 34.106 0.092 7.02 1.41 14.03
1/9/2022 1:30:00 AM 1.19 34.142 0.092 7.02 1.34 14.02
1/9/2022 1:45:00 AM 1.21 34.178 0.092 7.02 1.37 14.02
1/9/2022 2:00:00 AM 1.24 34.232 0.092 7.02 1.37 14.01
1/9/2022 2:15:00 AM 1.26 34.268 0.092 7.02 1.36 14
1/9/2022 2:30:00 AM 1.28 34.304 0.092 7.02 1.39 13.99
1/9/2022 2:45:00 AM 1.3 34.34 0.092 7.02 1.6 13.98
1/9/2022 3:00:00 AM 1.32 34.376 0.092 7.02 1.39 13.97
1/9/2022 3:15:00 AM 1.33 34.394 0.092 7.02 1.4 13.96
1/9/2022 3:30:00 AM 1.34 34.412 0.092 7.02 1.38 13.96
1/9/2022 3:45:00 AM 1.36 34.448 0.092 7.02 1.32 13.96
1/9/2022 4:00:00 AM 1.37 34.466 0.092 7.02 1.36 13.95
1/9/2022 4:15:00 AM 1.38 34.484 0.092 7.02 1.42 13.94
1/9/2022 4:30:00 AM 1.38 34.484 0.092 7.02 1.39 13.94
1/9/2022 4:45:00 AM 1.38 34.484 0.092 7.02 1.43 13.94
1/9/2022 5:00:00 AM 1.38 34.484 0.092 7.02 1.38 13.94
1/9/2022 5:15:00 AM 1.39 34.502 0.092 7.02 1.41 13.93
1/9/2022 5:30:00 AM 1.39 34.502 0.092 7.02 1.39 13.93
1/9/2022 5:45:00 AM 1.39 34.502 0.092 7.02 1.38 13.92
1/9/2022 6:00:00 AM 1.39 34.502 0.092 7.02 1.41 13.91
1/9/2022 6:15:00 AM 1.39 34.502 0.092 7.02 1.39 13.92
1/9/2022 6:30:00 AM 1.39 34.502 0.092 7.02 1.37 13.92
1/9/2022 6:45:00 AM 1.39 34.502 0.092 7.01 1.39 13.91
1/9/2022 7:00:00 AM 1.38 34.484 0.092 7.02 1.38 13.92
1/9/2022 7:15:00 AM 1.31 34.358 0.092 7.01 1.33 13.91
1/9/2022 7:30:00 AM 1.19 34.142 0.092 7.01 1.4 13.92
1/9/2022 7:45:00 AM 1.14 34.052 0.092 7.01 1.36 13.93
1/9/2022 8:00:00 AM 1.18 34.124 0.092 7.01 1.46 13.94
1/9/2022 8:15:00 AM 1.21 34.178 0.092 7.02 1.38 13.95
1/9/2022 8:30:00 AM 1.23 34.214 0.092 7.02 1.35 13.96
1/9/2022 8:45:00 AM 1.26 34.268 0.092 7.02 1.37 13.97
1/9/2022 9:00:00 AM 1.28 34.304 0.092 7.02 1.34 13.98
1/9/2022 9:15:00 AM 1.28 34.304 0.093 7.02 1.33 14
1/9/2022 9:30:00 AM 1.29 34.322 0.093 7.03 1.34 14.01
1/9/2022 9:45:00 AM 1.3 34.34 0.093 7.04 1.35 14.05
1/9/2022 10:00:00 AM 1.32 34.376 0.093 7.04 1.35 14.05
1/9/2022 10:15:00 AM 1.34 34.412 0.093 7.04 1.3 14.06
1/9/2022 10:30:00 AM 1.38 34.484 0.093 7.04 1.33 14.07
1/9/2022 10:45:00 AM 1.41 34.538 0.093 7.05 1.34 14.08
1/9/2022 11:00:00 AM 1.45 34.61 0.093 7.06 1.35 14.08
1/9/2022 11:15:00 AM 1.49 34.682 0.093 7.06 1.64 14.08
1/9/2022 11:30:00 AM 1.52 34.736 0.093 7.07 1.4 14.09
1/9/2022 11:45:00 AM 1.55 34.79 0.093 7.07 1.39 14.08
1/9/2022 12:00:00 PM 1.58 34.844 0.093 7.07 1.32 14.09
1/9/2022 12:15:00 PM 1.6 34.88 0.093 7.07 1.37 14.09
1/9/2022 12:30:00 PM 1.62 34.916 0.094 7.08 1.35 14.09
1/9/2022 12:45:00 PM 1.63 34.934 0.094 7.08 1.31 14.09
1/9/2022 1:00:00 PM 1.64 34.952 0.094 7.08 1.31 14.08
1/9/2022 1:15:00 PM 1.65 34.97 0.094 7.08 1.31 14.08
1/9/2022 1:30:00 PM 1.65 34.97 0.094 7.08 1.34 14.06
1/9/2022 1:45:00 PM 1.65 34.97 0.094 7.08 1.33 14.06
1/9/2022 2:00:00 PM 1.65 34.97 0.094 7.08 1.35 14.06
1/9/2022 2:15:00 PM 1.64 34.952 0.094 7.08 1.26 14.04
1/9/2022 2:30:00 PM 1.62 34.916 0.094 7.07 1.32 14.02
1/9/2022 2:45:00 PM 1.61 34.898 0.094 7.07 1.31 14.01
1/9/2022 3:00:00 PM 1.6 34.88 0.094 7.07 1.32 14
1/9/2022 3:15:00 PM 1.59 34.862 0.094 7.06 1.29 13.99
1/9/2022 3:30:00 PM 1.58 34.844 0.094 7.06 1.28 13.98
1/9/2022 3:45:00 PM 1.57 34.826 0.094 7.06 1.34 13.96
1/9/2022 4:00:00 PM 1.56 34.808 0.094 7.05 1.34 13.95
1/9/2022 4:15:00 PM 1.55 34.79 0.094 7.05 1.32 13.94
1/9/2022 4:30:00 PM 1.54 34.772 0.094 7.05 1.29 13.93
1/9/2022 4:45:00 PM 1.53 34.754 0.094 7.04 1.35 13.92
1/9/2022 5:00:00 PM 1.52 34.736 0.094 7.04 1.32 13.9
1/9/2022 5:15:00 PM 1.51 34.718 0.094 7.03 1.33 13.89
1/9/2022 5:30:00 PM 1.5 34.7 0.094 7.03 1.34 13.89
1/9/2022 5:45:00 PM 1.49 34.682 0.094 7.03 1.31 13.88
1/9/2022 6:00:00 PM 1.48 34.664 0.094 7.03 1.38 13.87
1/9/2022 6:15:00 PM 1.48 34.664 0.094 7.02 1.38 13.87
1/9/2022 6:30:00 PM 1.47 34.646 0.094 7.02 1.37 13.86
1/9/2022 6:45:00 PM 1.46 34.628 0.094 7.02 1.32 13.86
1/9/2022 7:00:00 PM 1.45 34.61 0.094 7.02 1.31 13.86
1/9/2022 7:15:00 PM 1.44 34.592 0.094 7.02 1.35 13.86
1/9/2022 7:30:00 PM 1.43 34.574 0.094 7.02 1.33 13.86
1/9/2022 7:45:00 PM 1.41 34.538 0.094 7.02 1.38 13.87
1/9/2022 8:00:00 PM 1.41 34.538 0.094 7.01 1.36 13.87
1/9/2022 8:15:00 PM 1.4 34.52 0.094 7.01 1.37 13.87
1/9/2022 8:30:00 PM 1.39 34.502 0.094 7.01 1.3 13.88
1/9/2022 8:45:00 PM 1.38 34.484 0.094 7.01 1.36 13.88
1/9/2022 9:00:00 PM 1.37 34.466 0.094 7.01 1.35 13.88
1/9/2022 9:15:00 PM 1.36 34.448 0.094 7.01 1.35 13.89
1/9/2022 9:30:00 PM 1.36 34.448 0.093 7.01 1.31 13.89
1/9/2022 9:45:00 PM 1.35 34.43 0.093 7.01 1.35 13.9
1/9/2022 10:00:00 PM 1.36 34.448 0.093 7.01 1.34 13.9
1/9/2022 10:15:00 PM 1.36 34.448 0.093 7.01 1.33 13.9
1/9/2022 10:30:00 PM 1.35 34.43 0.093 7.01 1.31 13.9
1/9/2022 10:45:00 PM 1.35 34.43 0.093 7.02 1.33 13.9
1/9/2022 11:00:00 PM 1.32 34.376 0.093 7.02 1.36 13.91
1/9/2022 11:15:00 PM 1.28 34.304 0.093 7.01 1.33 13.92
1/9/2022 11:30:00 PM 1.25 34.25 0.093 7.01 1.38 13.92
1/9/2022 11:45:00 PM 1.22 34.196 0.093 7.02 1.36 13.93
1/10/2022 12:00:00 AM 1.19 34.142 0.093 7.02 1.34 13.94
1/10/2022 12:15:00 AM 1.17 34.106 0.093 7.02 1.3 13.95
1/10/2022 12:30:00 AM 1.13 34.034 0.093 7.02 1.35 13.96
1/10/2022 12:45:00 AM 1.1 33.98 0.093 7.02 1.38 13.96
1/10/2022 1:00:00 AM 1.08 33.944 0.093 7.02 1.68 13.97
1/10/2022 1:15:00 AM 1.05 33.89 0.093 7.02 1.35 13.99
1/10/2022 1:30:00 AM 1.02 33.836 0.093 7.02 1.35 14
1/10/2022 1:45:00 AM 1 33.8 0.093 7.02 1.34 14
1/10/2022 2:00:00 AM 0.99 33.782 0.093 7.02 1.34 14.01
1/10/2022 2:15:00 AM 0.98 33.764 0.093 7.01 1.37 14.02
1/10/2022 2:30:00 AM 0.98 33.764 0.093 7.01 1.38 14.02
1/10/2022 2:45:00 AM 0.97 33.746 0.093 7.02 1.34 14.02
1/10/2022 3:00:00 AM 0.95 33.71 0.093 7.02 1.37 14.02
1/10/2022 3:15:00 AM 0.92 33.656 0.093 7.02 1.31 14.03
1/10/2022 3:30:00 AM 0.89 33.602 0.093 7.02 1.35 14.04
1/10/2022 3:45:00 AM 0.87 33.566 0.093 7.02 1.37 14.04
1/10/2022 4:00:00 AM 0.86 33.548 0.093 7.02 1.35 14.05
1/10/2022 4:15:00 AM 0.85 33.53 0.093 7.02 1.34 14.06
1/10/2022 4:30:00 AM 0.85 33.53 0.093 7.02 1.34 14.05
1/10/2022 4:45:00 AM 0.83 33.494 0.093 7.02 1.46 14.06
1/10/2022 5:00:00 AM 0.81 33.458 0.093 7.02 1.35 14.06
1/10/2022 5:15:00 AM 0.78 33.404 0.093 7.02 1.36 14.07
1/10/2022 5:30:00 AM 0.76 33.368 0.093 7.02 1.36 14.08
1/10/2022 5:45:00 AM 0.73 33.314 0.093 7.02 1.34 14.08
1/10/2022 6:00:00 AM 0.71 33.278 0.093 7.02 1.34 14.08
1/10/2022 6:15:00 AM 0.69 33.242 0.093 7.02 1.36 14.09
1/10/2022 6:30:00 AM 0.68 33.224 0.093 7.02 1.42 14.1
1/10/2022 6:45:00 AM 0.67 33.206 0.093 7.02 1.37 14.1
1/10/2022 7:00:00 AM 0.65 33.17 0.093 7.02 1.34 14.11
1/10/2022 7:15:00 AM 0.63 33.134 0.093 7.02 1.35 14.12
1/10/2022 7:30:00 AM 0.62 33.116 0.093 7.02 1.37 14.12
1/10/2022 7:45:00 AM 0.63 33.134 0.093 7.02 1.36 14.13
1/10/2022 8:00:00 AM 0.64 33.152 0.093 7.03 1.39 14.14
1/10/2022 8:15:00 AM 0.65 33.17 0.093 7.03 1.38 14.16
1/10/2022 8:30:00 AM 0.68 33.224 0.093 7.04 1.39 14.18
1/10/2022 8:45:00 AM 0.69 33.242 0.093 7.04 1.34 14.2
1/10/2022 9:00:00 AM 0.71 33.278 0.093 7.05 1.34 14.22
1/10/2022 9:15:00 AM 0.72 33.296 0.093 7.05 1.41 14.24
1/10/2022 9:30:00 AM 0.75 33.35 0.093 7.06 1.41 14.26
1/10/2022 9:45:00 AM 0.8 33.44 0.093 7.07 1.37 14.28
1/10/2022 10:00:00 AM 0.88 33.584 0.093 7.07 1.37 14.29
1/10/2022 10:15:00 AM 0.94 33.692 0.093 7.08 1.36 14.31
1/10/2022 10:30:00 AM 1 33.8 0.093 7.09 1.36 14.32
1/10/2022 10:45:00 AM 1.08 33.944 0.093 7.09 1.34 14.33
1/10/2022 11:00:00 AM 1.13 34.034 0.093 7.09 1.37 14.33
1/10/2022 11:15:00 AM 1.19 34.142 0.093 7.11 1.34 14.33
1/10/2022 11:30:00 AM 1.27 34.286 0.093 7.11 1.35 14.32
1/10/2022 11:45:00 AM 1.33 34.394 0.092 7.12 1.35 14.32
1/10/2022 12:00:00 PM 1.4 34.52 0.092 7.12 1.37 14.3
1/10/2022 12:15:00 PM 1.52 34.736 0.092 7.13 1.33 14.29
1/10/2022 12:30:00 PM 1.61 34.898 0.092 7.13 1.3 14.26
1/10/2022 12:45:00 PM 1.65 34.97 0.092 7.13 1.31 14.25
1/10/2022 1:00:00 PM 1.7 35.06 0.092 7.13 1.32 14.23
1/10/2022 1:15:00 PM 1.73 35.114 0.092 7.12 1.35 14.21
1/10/2022 1:30:00 PM 1.81 35.258 0.092 7.13 1.3 14.2
1/10/2022 1:45:00 PM 1.73 35.114 0.092 7.12 1.29 14.18
1/10/2022 2:00:00 PM 1.65 34.97 0.092 7.12 1.37 14.17
1/10/2022 2:15:00 PM 1.63 34.934 0.092 7.12 1.32 14.16
1/10/2022 2:30:00 PM 1.72 35.096 0.092 7.12 1.31 14.16
1/10/2022 2:45:00 PM 1.7 35.06 0.092 7.11 1.29 14.16
1/10/2022 3:00:00 PM 1.67 35.006 0.092 7.11 1.32 14.16
1/10/2022 3:15:00 PM 1.63 34.934 0.092 7.11 1.32 14.14
1/10/2022 3:30:00 PM 1.57 34.826 0.092 7.12 1.29 14.14
1/10/2022 3:45:00 PM 1.52 34.736 0.092 7.12 1.32 14.14
1/10/2022 4:00:00 PM 1.46 34.628 0.092 7.11 1.3 14.13
1/10/2022 4:15:00 PM 1.43 34.574 0.092 7.11 1.29 14.11
1/10/2022 4:30:00 PM 1.39 34.502 0.092 7.11 1.26 14.09
1/10/2022 4:45:00 PM 1.35 34.43 0.092 7.1 1.33 14.07
1/10/2022 5:00:00 PM 1.31 34.358 0.093 7.09 1.33 14.05
1/10/2022 5:15:00 PM 1.29 34.322 0.093 7.09 1.32 14.02
1/10/2022 5:30:00 PM 1.23 34.214 0.093 7.08 1.37 14.01
1/10/2022 5:45:00 PM 1.16 34.088 0.093 7.07 1.32 14.01
1/10/2022 6:00:00 PM 1.09 33.962 0.093 7.07 1.38 14
1/10/2022 6:15:00 PM 1.05 33.89 0.093 7.06 1.32 14
1/10/2022 6:30:00 PM 0.99 33.782 0.093 7.06 1.3 14.01
1/10/2022 6:45:00 PM 0.95 33.71 0.093 7.05 1.37 14.01
1/10/2022 7:00:00 PM 0.93 33.674 0.093 7.05 1.33 14
1/10/2022 7:15:00 PM 0.91 33.638 0.093 7.04 1.33 14
1/10/2022 7:30:00 PM 0.87 33.566 0.093 7.04 1.34 14
1/10/2022 7:45:00 PM 0.84 33.512 0.093 7.04 1.35 14.01
1/10/2022 8:00:00 PM 0.83 33.494 0.093 7.04 1.31 14.01
1/10/2022 8:15:00 PM 0.83 33.494 0.093 7.04 1.35 14.01
1/10/2022 8:30:00 PM 0.82 33.476 0.093 7.04 1.32 14.01
1/10/2022 8:45:00 PM 0.81 33.458 0.093 7.03 1.33 14.01
1/10/2022 9:00:00 PM 0.81 33.458 0.093 7.03 1.3 14.02
1/10/2022 9:15:00 PM 0.81 33.458 0.093 7.03 1.3 14.03
1/10/2022 9:30:00 PM 0.8 33.44 0.093 7.03 1.31 14.03
1/10/2022 9:45:00 PM 0.8 33.44 0.093 7.03 1.32 14.03
1/10/2022 10:00:00 PM 0.74 33.332 0.093 7.03 1.31 14.04
1/10/2022 10:15:00 PM 0.66 33.188 0.093 7.03 1.35 14.05
1/10/2022 10:30:00 PM 0.67 33.206 0.093 7.03 1.33 14.06
1/10/2022 10:45:00 PM 0.64 33.152 0.093 7.03 1.26 14.07
1/10/2022 11:00:00 PM 0.61 33.098 0.093 7.02 1.32 14.09
1/10/2022 11:15:00 PM 0.59 33.062 0.093 7.02 1.3 14.1
1/10/2022 11:30:00 PM 0.57 33.026 0.093 7.03 1.27 14.11
1/10/2022 11:45:00 PM 0.55 32.99 0.093 7.02 1.27 14.12
1/11/2022 12:00:00 AM 0.54 32.972 0.093 7.02 1.29 14.14
1/11/2022 12:15:00 AM 0.52 32.936 0.093 7.02 1.27 14.14
1/11/2022 12:30:00 AM 0.49 32.882 0.093 7.02 1.27 14.15
1/11/2022 12:45:00 AM 0.45 32.81 0.093 7.03 1.27 14.17
1/11/2022 1:00:00 AM 0.43 32.774 0.093 7.02 1.3 14.18
1/11/2022 1:15:00 AM 0.41 32.738 0.093 7.03 1.27 14.19
1/11/2022 1:30:00 AM 0.39 32.702 0.093 7.03 1.28 14.19
1/11/2022 1:45:00 AM 0.38 32.684 0.093 7.03 1.27 14.2
1/11/2022 2:00:00 AM 0.36 32.648 0.093 7.03 1.41 14.2
1/11/2022 2:15:00 AM 0.35 32.63 0.093 7.03 1.33 14.21
1/11/2022 2:30:00 AM 0.34 32.612 0.093 7.03 1.35 14.22
1/11/2022 2:45:00 AM 0.32 32.576 0.094 7.03 1.24 14.23
1/11/2022 3:00:00 AM 0.32 32.576 0.094 7.03 1.28 14.23
1/11/2022 3:15:00 AM 0.32 32.576 0.094 7.03 1.27 14.23
1/11/2022 3:30:00 AM 0.31 32.558 0.094 7.03 1.28 14.24
1/11/2022 3:45:00 AM 0.32 32.576 0.094 7.03 1.3 14.25
1/11/2022 4:00:00 AM 0.33 32.594 0.094 7.03 1.31 14.24
1/11/2022 4:15:00 AM 0.35 32.63 0.094 7.03 1.3 14.24
1/11/2022 4:30:00 AM 0.35 32.63 0.094 7.03 1.3 14.24
1/11/2022 4:45:00 AM 0.34 32.612 0.094 7.03 1.3 14.24
1/11/2022 5:00:00 AM 0.32 32.576 0.094 7.03 1.31 14.24
1/11/2022 5:15:00 AM 0.3 32.54 0.094 7.03 1.29 14.25
1/11/2022 5:30:00 AM 0.28 32.504 0.094 7.03 1.29 14.25
1/11/2022 5:45:00 AM 0.26 32.468 0.094 7.03 1.29 14.26
1/11/2022 6:00:00 AM 0.25 32.45 0.094 7.03 1.28 14.26
1/11/2022 6:15:00 AM 0.24 32.432 0.094 7.02 1.32 14.27
1/11/2022 6:30:00 AM 0.22 32.396 0.094 7.02 1.32 14.29
1/11/2022 6:45:00 AM 0.2 32.36 0.094 7.03 1.28 14.29
1/11/2022 7:00:00 AM 0.18 32.324 0.094 7.02 1.29 14.3
1/11/2022 7:15:00 AM 0.16 32.288 0.094 7.02 1.33 14.31
1/11/2022 7:30:00 AM 0.14 32.252 0.094 7.02 1.3 14.32
1/11/2022 7:45:00 AM 0.12 32.216 0.094 7.03 1.31 14.33
1/11/2022 8:00:00 AM 0.11 32.198 0.094 7.03 1.3 14.36
1/11/2022 8:15:00 AM 0.1 32.18 0.094 7.03 1.3 14.38
1/11/2022 8:30:00 AM 0.1 32.18 0.094 7.03 1.28 14.41
1/11/2022 8:45:00 AM 0.09 32.162 0.094 7.04 1.31 14.44
1/11/2022 9:00:00 AM 0.11 32.198 0.094 7.04 1.28 14.46
1/11/2022 9:15:00 AM 0.13 32.234 0.093 7.05 1.32 14.48
1/11/2022 9:30:00 AM 0.15 32.27 0.093 7.05 1.31 14.5
1/11/2022 9:45:00 AM 0.17 32.306 0.093 7.06 1.33 14.52
1/11/2022 10:00:00 AM 0.19 32.342 0.093 7.06 1.35 14.53
1/11/2022 10:15:00 AM 0.23 32.414 0.093 7.06 1.31 14.56
1/11/2022 10:30:00 AM 0.28 32.504 0.093 7.07 1.3 14.57
1/11/2022 10:45:00 AM 0.33 32.594 0.093 7.07 1.32 14.58
1/11/2022 11:00:00 AM 0.38 32.684 0.093 7.08 1.34 14.59
1/11/2022 11:15:00 AM 0.44 32.792 0.093 7.08 1.31 14.6
1/11/2022 11:30:00 AM 0.54 32.972 0.093 7.09 1.27 14.6
1/11/2022 11:45:00 AM 0.61 33.098 0.093 7.09 1.28 14.59
1/11/2022 12:00:00 PM 0.65 33.17 0.093 7.1 1.3 14.59
1/11/2022 12:15:00 PM 0.76 33.368 0.093 7.1 1.3 14.57
1/11/2022 12:30:00 PM 0.9 33.62 0.093 7.1 1.3 14.56
1/11/2022 12:45:00 PM 0.94 33.692 0.093 7.1 1.32 14.54
1/11/2022 1:00:00 PM 1.01 33.818 0.093 7.1 1.33 14.53
1/11/2022 1:15:00 PM 0.96 33.728 0.093 7.1 1.34 14.52
1/11/2022 1:30:00 PM 0.97 33.746 0.093 7.1 1.31 14.51
1/11/2022 1:45:00 PM 1.08 33.944 0.093 7.11 1.3 14.5
1/11/2022 2:00:00 PM 1.12 34.016 0.093 7.12 1.27 14.49
1/11/2022 2:15:00 PM 1.04 33.872 0.093 7.12 1.27 14.48
1/11/2022 2:30:00 PM 0.95 33.71 0.093 7.12 1.26 14.47
1/11/2022 2:45:00 PM 0.91 33.638 0.093 7.11 1.24 14.46
1/11/2022 3:00:00 PM 0.84 33.512 0.093 7.11 1.26 14.45
1/11/2022 3:15:00 PM 0.83 33.494 0.093 7.11 1.27 14.43
1/11/2022 3:30:00 PM 0.79 33.422 0.093 7.11 1.26 14.42
1/11/2022 3:45:00 PM 0.75 33.35 0.093 7.11 1.27 14.41
1/11/2022 4:00:00 PM 0.72 33.296 0.094 7.1 1.26 14.39
1/11/2022 4:15:00 PM 0.69 33.242 0.094 7.09 1.31 14.38
1/11/2022 4:30:00 PM 0.64 33.152 0.094 7.09 1.29 14.38
1/11/2022 4:45:00 PM 0.59 33.062 0.094 7.09 1.27 14.37
1/11/2022 5:00:00 PM 0.52 32.936 0.094 7.08 1.26 14.37
1/11/2022 5:15:00 PM 0.45 32.81 0.094 7.08 1.26 14.36
1/11/2022 5:30:00 PM 0.39 32.702 0.095 7.07 1.24 14.35
1/11/2022 5:45:00 PM 0.34 32.612 0.095 7.07 1.26 14.35
1/11/2022 6:00:00 PM 0.29 32.522 0.095 7.06 1.25 14.36
1/11/2022 6:15:00 PM 0.26 32.468 0.095 7.06 1.21 14.35
1/11/2022 6:30:00 PM 0.22 32.396 0.095 7.05 1.28 14.36
1/11/2022 6:45:00 PM 0.19 32.342 0.095 7.05 1.23 14.35
1/11/2022 7:00:00 PM 0.16 32.288 0.095 7.05 1.26 14.36
1/11/2022 7:15:00 PM 0.13 32.234 0.095 7.05 1.32 14.36
1/11/2022 7:30:00 PM 0.1 32.18 0.095 7.05 1.29 14.36
1/11/2022 7:45:00 PM 0.07 32.126 0.096 7.04 1.3 14.36
1/11/2022 8:00:00 PM 0.05 32.09 0.096 7.04 1.27 14.36
1/11/2022 8:15:00 PM 0.03 32.054 0.096 7.04 1.25 14.36
1/11/2022 8:30:00 PM 0.01 32.018 0.096 7.04 1.31 14.37
1/11/2022 8:45:00 PM 0 32 0.096 7.04 1.28 14.36
1/11/2022 9:00:00 PM -0.01 31.982 0.096 7.04 1.27 14.37
1/11/2022 9:15:00 PM 0 32 0.096 7.04 1.28 14.36
1/11/2022 9:30:00 PM 0.01 32.018 0.096 7.04 1.33 14.37
1/11/2022 9:45:00 PM 0.01 32.018 0.094 7.04 1.27 14.38
1/11/2022 10:00:00 PM 0.02 32.036 0.094 7.04 1.26 14.38
1/11/2022 10:15:00 PM 0.02 32.036 0.093 7.04 1.26 14.38
1/11/2022 10:30:00 PM 0.02 32.036 0.094 7.04 1.3 14.38
1/11/2022 10:45:00 PM 0.02 32.036 0.094 7.04 1.23 14.39
1/11/2022 11:00:00 PM 0.02 32.036 0.094 7.04 1.27 14.38
1/11/2022 11:15:00 PM 0.02 32.036 0.094 7.04 1.27 14.38
1/11/2022 11:30:00 PM 0.02 32.036 0.094 7.04 1.25 14.39
1/11/2022 11:45:00 PM 0.02 32.036 0.094 7.04 1.28 14.39
1/12/2022 12:00:00 AM 0.02 32.036 0.094 7.04 1.24 14.39
1/12/2022 12:15:00 AM 0.02 32.036 0.095 7.04 1.23 14.39
1/12/2022 12:30:00 AM 0.02 32.036 0.095 7.04 1.3 14.39
1/12/2022 12:45:00 AM 0.02 32.036 0.095 7.04 1.25 14.39
1/12/2022 1:00:00 AM 0.02 32.036 0.095 7.04 1.19 14.39
1/12/2022 1:15:00 AM 0.02 32.036 0.096 7.04 1.43 14.39
1/12/2022 1:30:00 AM 0.02 32.036 0.096 7.04 1.36 14.39
1/12/2022 1:45:00 AM 0.02 32.036 0.096 7.04 1.27 14.39
1/12/2022 2:00:00 AM 0.02 32.036 0.097 7.04 1.28 14.39
1/12/2022 2:15:00 AM 0.02 32.036 0.097 7.03 1.28 14.39
1/12/2022 2:30:00 AM 0.02 32.036 0.097 7.03 1.3 14.39
1/12/2022 2:45:00 AM 0.02 32.036 0.097 7.03 1.33 14.39
1/12/2022 3:00:00 AM 0.02 32.036 0.098 7.03 1.32 14.39
1/12/2022 3:15:00 AM 0.02 32.036 0.098 7.03 1.3 14.39
1/12/2022 3:30:00 AM 0.02 32.036 0.098 7.03 1.28 14.38
1/12/2022 3:45:00 AM 0.02 32.036 0.098 7.03 1.32 14.39
1/12/2022 4:00:00 AM 0.02 32.036 0.098 7.03 1.28 14.38
1/12/2022 4:15:00 AM 0.02 32.036 0.099 7.04 1.28 14.38
1/12/2022 4:30:00 AM 0.02 32.036 0.099 7.04 1.33 14.38
1/12/2022 4:45:00 AM 0.02 32.036 0.099 7.04 1.32 14.38
1/12/2022 5:00:00 AM 0.02 32.036 0.099 7.04 1.32 14.37
1/12/2022 5:15:00 AM 0.02 32.036 0.099 7.04 1.31 14.37
1/12/2022 5:30:00 AM 0.02 32.036 0.099 7.04 1.31 14.37
1/12/2022 5:45:00 AM 0.02 32.036 0.099 7.04 1.3 14.36
1/12/2022 6:00:00 AM 0.02 32.036 0.099 7.04 1.29 14.36
1/12/2022 6:15:00 AM 0.02 32.036 0.099 7.04 1.33 14.36
1/12/2022 6:30:00 AM 0.02 32.036 0.099 7.04 1.34 14.36
1/12/2022 6:45:00 AM 0.02 32.036 0.099 7.04 1.32 14.36
1/12/2022 7:00:00 AM 0.02 32.036 0.099 7.04 1.33 14.36
1/12/2022 7:15:00 AM 0.02 32.036 0.099 7.04 1.33 14.36
1/12/2022 7:30:00 AM 0.02 32.036 0.1 7.04 1.32 14.36
1/12/2022 7:45:00 AM 0.02 32.036 0.1 7.04 1.3 14.36
1/12/2022 8:00:00 AM 0.02 32.036 0.1 7.04 1.32 14.36
1/12/2022 8:15:00 AM 0.02 32.036 0.1 7.04 1.32 14.38
1/12/2022 8:30:00 AM 0.02 32.036 0.1 7.04 1.31 14.39
1/12/2022 8:45:00 AM 0.02 32.036 0.1 7.05 1.31 14.41
1/12/2022 9:00:00 AM 0.02 32.036 0.1 7.05 1.28 14.43
1/12/2022 9:15:00 AM 0.02 32.036 0.1 7.06 1.27 14.44
1/12/2022 9:30:00 AM 0.02 32.036 0.098 7.06 1.34 14.45
1/12/2022 9:45:00 AM 0.02 32.036 0.098 7.07 1.31 14.47
1/12/2022 10:00:00 AM 0.02 32.036 0.098 7.07 1.24 14.48
1/12/2022 10:15:00 AM 0.02 32.036 0.098 7.08 1.26 14.49
1/12/2022 10:30:00 AM 0.02 32.036 0.098 7.09 1.25 14.49
1/12/2022 10:45:00 AM 0.02 32.036 0.098 7.09 1.27 14.5
1/12/2022 11:00:00 AM 0.02 32.036 0.097 7.1 1.26 14.51
1/12/2022 11:15:00 AM 0.02 32.036 0.098 7.1 1.24 14.52
1/12/2022 11:30:00 AM 0.02 32.036 0.098 7.1 1.35 14.52
1/12/2022 11:45:00 AM 0.02 32.036 0.098 7.11 1.34 14.52
1/12/2022 12:00:00 PM 0.02 32.036 0.098 7.11 1.32 14.51
1/12/2022 12:15:00 PM 0.02 32.036 0.098 7.11 1.41 14.48
1/12/2022 12:30:00 PM 0.02 32.036 0.099 7.12 1.47 14.46
1/12/2022 12:45:00 PM 0.02 32.036 0.099 7.1 1.42 14.43
1/12/2022 1:00:00 PM 0.02 32.036 0.099 7.1 1.37 14.36
1/12/2022 1:15:00 PM 0.02 32.036 0.099 7.08 1.49 14.28
1/12/2022 1:30:00 PM 0.02 32.036 0.097 7.07 1.43 14.22
1/12/2022 1:45:00 PM 0.28 32.504 0.101 7.09 1.83 14.19
1/12/2022 2:00:00 PM 0.64 33.152 0.101 7.08 1.37 14.17
1/12/2022 2:15:00 PM 0.93 33.674 0.101 7.09 1.35 14.16
1/12/2022 2:30:00 PM 1.09 33.962 0.102 7.1 1.36 14.15
1/12/2022 2:45:00 PM 1.15 34.07 0.102 7.1 1.34 14.13
1/12/2022 3:00:00 PM 1.15 34.07 0.102 7.1 1.33 14.12
1/12/2022 3:15:00 PM 1.16 34.088 0.102 7.11 1.27 14.11
1/12/2022 3:30:00 PM 1.16 34.088 0.102 7.11 1.29 14.09
1/12/2022 3:45:00 PM 1.18 34.124 0.103 7.11 1.45 14.07
1/12/2022 4:00:00 PM 1.2 34.16 0.103 7.11 1.32 14.07
1/12/2022 4:15:00 PM 1.2 34.16 0.103 7.11 1.28 14.07
1/12/2022 4:30:00 PM 1.2 34.16 0.103 7.11 1.26 14.04
1/12/2022 4:45:00 PM 1.18 34.124 0.103 7.11 1.3 14.02
1/12/2022 5:00:00 PM 1.16 34.088 0.103 7.1 1.32 14
1/12/2022 5:15:00 PM 1.14 34.052 0.104 7.1 1.36 13.98
1/12/2022 5:30:00 PM 1.12 34.016 0.104 7.09 1.35 13.98
1/12/2022 5:45:00 PM 1.09 33.962 0.104 7.09 1.36 13.97
1/12/2022 6:00:00 PM 1.06 33.908 0.104 7.08 1.39 13.97
1/12/2022 6:15:00 PM 1.03 33.854 0.104 7.08 1.35 13.97
1/12/2022 6:30:00 PM 1 33.8 0.105 7.08 1.34 13.97
1/12/2022 6:45:00 PM 0.96 33.728 0.105 7.07 1.38 13.98
1/12/2022 7:00:00 PM 0.94 33.692 0.105 7.07 1.36 13.98
1/12/2022 7:15:00 PM 0.92 33.656 0.105 7.07 1.39 13.99
1/12/2022 7:30:00 PM 0.9 33.62 0.105 7.06 1.34 13.99
1/12/2022 7:45:00 PM 0.88 33.584 0.105 7.06 1.36 13.99
1/12/2022 8:00:00 PM 0.87 33.566 0.105 7.06 1.38 14
1/12/2022 8:15:00 PM 0.86 33.548 0.105 7.06 1.36 14
1/12/2022 8:30:00 PM 0.85 33.53 0.105 7.06 1.37 14
1/12/2022 8:45:00 PM 0.84 33.512 0.105 7.06 1.4 14.01
1/12/2022 9:00:00 PM 0.83 33.494 0.105 7.06 1.4 14.01
1/12/2022 9:15:00 PM 0.83 33.494 0.105 7.06 1.39 14.02
1/12/2022 9:30:00 PM 0.83 33.494 0.105 7.06 1.38 14.02
1/12/2022 9:45:00 PM 0.83 33.494 0.105 7.06 1.38 14.02
1/12/2022 10:00:00 PM 0.83 33.494 0.105 7.06 1.39 14.03
1/12/2022 10:15:00 PM 0.83 33.494 0.105 7.05 1.42 14.03
1/12/2022 10:30:00 PM 0.83 33.494 0.105 7.06 1.36 14.03
1/12/2022 10:45:00 PM 0.83 33.494 0.105 7.06 1.38 14.03
1/12/2022 11:00:00 PM 0.82 33.476 0.105 7.05 1.35 14.04
1/12/2022 11:15:00 PM 0.82 33.476 0.105 7.05 1.4 14.04
1/12/2022 11:30:00 PM 0.81 33.458 0.105 7.05 1.38 14.04
1/12/2022 11:45:00 PM 0.81 33.458 0.105 7.05 1.38 14.05
1/13/2022 12:00:00 AM 0.8 33.44 0.105 7.05 1.36 14.05
1/13/2022 12:15:00 AM 0.8 33.44 0.105 7.05 1.43 14.06
1/13/2022 12:30:00 AM 0.81 33.458 0.106 7.05 1.39 14.06
1/13/2022 12:45:00 AM 0.81 33.458 0.106 7.05 1.44 14.06
1/13/2022 1:00:00 AM 0.82 33.476 0.106 7.05 1.39 14.06
1/13/2022 1:15:00 AM 0.82 33.476 0.106 7.05 1.41 14.05
1/13/2022 1:30:00 AM 0.83 33.494 0.106 7.05 1.4 14.06
1/13/2022 1:45:00 AM 0.83 33.494 0.106 7.05 1.41 14.06
1/13/2022 2:00:00 AM 0.84 33.512 0.106 7.05 1.37 14.06
1/13/2022 2:15:00 AM 0.85 33.53 0.106 7.05 1.45 14.05
1/13/2022 2:30:00 AM 0.85 33.53 0.106 7.05 1.45 14.06
1/13/2022 2:45:00 AM 0.86 33.548 0.106 7.05 1.44 14.05
1/13/2022 3:00:00 AM 0.86 33.548 0.106 7.05 1.39 14.05
1/13/2022 3:15:00 AM 0.87 33.566 0.106 7.05 1.35 14.04
1/13/2022 3:30:00 AM 0.87 33.566 0.106 7.05 1.42 14.04
1/13/2022 3:45:00 AM 0.88 33.584 0.106 7.05 1.39 14.05
1/13/2022 4:00:00 AM 0.89 33.602 0.106 7.05 1.4 14.04
1/13/2022 4:15:00 AM 0.9 33.62 0.106 7.05 1.39 14.03
1/13/2022 4:30:00 AM 0.91 33.638 0.106 7.05 1.39 14.02
1/13/2022 4:45:00 AM 0.91 33.638 0.106 7.05 1.41 14.03
1/13/2022 5:00:00 AM 0.91 33.638 0.106 7.05 1.44 14.02
1/13/2022 5:15:00 AM 0.9 33.62 0.106 7.05 1.4 14.02
1/13/2022 5:30:00 AM 0.88 33.584 0.106 7.05 1.37 14.02
1/13/2022 5:45:00 AM 0.86 33.548 0.106 7.05 1.38 14.03
1/13/2022 6:00:00 AM 0.83 33.494 0.106 7.05 1.4 14.03
1/13/2022 6:15:00 AM 0.81 33.458 0.106 7.05 1.36 14.03
1/13/2022 6:30:00 AM 0.78 33.404 0.106 7.05 1.4 14.04
1/13/2022 6:45:00 AM 0.76 33.368 0.106 7.05 1.36 14.05
1/13/2022 7:00:00 AM 0.74 33.332 0.106 7.05 1.35 14.05
1/13/2022 7:15:00 AM 0.73 33.314 0.106 7.05 1.37 14.05
1/13/2022 7:30:00 AM 0.72 33.296 0.106 7.05 1.41 14.06
1/13/2022 7:45:00 AM 0.7 33.26 0.106 7.05 1.39 14.07
1/13/2022 8:00:00 AM 0.69 33.242 0.106 7.05 1.38 14.08
1/13/2022 8:15:00 AM 0.68 33.224 0.106 7.05 1.39 14.11
1/13/2022 8:30:00 AM 0.67 33.206 0.106 7.06 1.37 14.14
1/13/2022 8:45:00 AM 0.67 33.206 0.106 7.06 1.36 14.17
1/13/2022 9:00:00 AM 0.69 33.242 0.106 7.07 1.35 14.19
1/13/2022 9:15:00 AM 0.71 33.278 0.106 7.07 1.3 14.22
1/13/2022 9:30:00 AM 0.73 33.314 0.107 7.08 1.33 14.23
1/13/2022 9:45:00 AM 0.76 33.368 0.107 7.08 1.36 14.25
1/13/2022 10:00:00 AM 0.8 33.44 0.107 7.09 1.39 14.27
1/13/2022 10:15:00 AM 0.86 33.548 0.107 7.09 1.32 14.28
1/13/2022 10:30:00 AM 0.92 33.656 0.107 7.1 1.36 14.29
1/13/2022 10:45:00 AM 0.98 33.764 0.107 7.11 1.34 14.3
1/13/2022 11:00:00 AM 1.07 33.926 0.107 7.11 1.39 14.3
1/13/2022 11:15:00 AM 1.16 34.088 0.107 7.12 1.36 14.31
1/13/2022 11:30:00 AM 1.21 34.178 0.107 7.12 1.37 14.3
1/13/2022 11:45:00 AM 1.27 34.286 0.107 7.13 1.36 14.3
1/13/2022 12:00:00 PM 1.34 34.412 0.107 7.13 1.37 14.29
1/13/2022 12:15:00 PM 1.42 34.556 0.107 7.14 1.38 14.27
1/13/2022 12:30:00 PM 1.56 34.808 0.107 7.14 1.37 14.25
1/13/2022 12:45:00 PM 1.69 35.042 0.107 7.13 1.36 14.23
1/13/2022 1:00:00 PM 1.8 35.24 0.107 7.13 1.35 14.21
1/13/2022 1:15:00 PM 1.89 35.402 0.107 7.13 1.39 14.19
1/13/2022 1:30:00 PM 1.93 35.474 0.107 7.13 1.33 14.17
1/13/2022 1:45:00 PM 1.88 35.384 0.107 7.13 1.37 14.15
1/13/2022 2:00:00 PM 1.88 35.384 0.107 7.13 1.36 14.14
1/13/2022 2:15:00 PM 1.88 35.384 0.107 7.13 1.38 14.12
1/13/2022 2:30:00 PM 1.89 35.402 0.107 7.13 1.4 14.11
1/13/2022 2:45:00 PM 1.86 35.348 0.107 7.13 1.35 14.11
1/13/2022 3:00:00 PM 1.8 35.24 0.107 7.13 1.35 14.1
1/13/2022 3:15:00 PM 1.77 35.186 0.107 7.13 1.36 14.1
1/13/2022 3:30:00 PM 1.73 35.114 0.107 7.13 1.39 14.08
1/13/2022 3:45:00 PM 1.69 35.042 0.107 7.13 1.38 14.07
1/13/2022 4:00:00 PM 1.65 34.97 0.107 7.13 1.37 14.06
1/13/2022 4:15:00 PM 1.63 34.934 0.107 7.12 1.34 14.05
1/13/2022 4:30:00 PM 1.6 34.88 0.107 7.12 1.37 14.03
1/13/2022 4:45:00 PM 1.55 34.79 0.106 7.11 1.4 14.01
1/13/2022 5:00:00 PM 1.5 34.7 0.106 7.11 1.37 13.99
1/13/2022 5:15:00 PM 1.45 34.61 0.106 7.1 1.37 13.97
1/13/2022 5:30:00 PM 1.4 34.52 0.106 7.09 1.37 13.95
1/13/2022 5:45:00 PM 1.35 34.43 0.106 7.08 1.38 13.94
1/13/2022 6:00:00 PM 1.3 34.34 0.106 7.08 1.39 13.93
1/13/2022 6:15:00 PM 1.26 34.268 0.106 7.07 1.34 13.93
1/13/2022 6:30:00 PM 1.22 34.196 0.106 7.07 1.42 13.93
1/13/2022 6:45:00 PM 1.19 34.142 0.106 7.06 1.36 13.92
1/13/2022 7:00:00 PM 1.16 34.088 0.106 7.06 1.4 13.93
1/13/2022 7:15:00 PM 1.13 34.034 0.106 7.05 1.4 13.93
1/13/2022 7:30:00 PM 1.11 33.998 0.106 7.05 1.36 13.92
1/13/2022 7:45:00 PM 1.09 33.962 0.106 7.05 1.4 13.93
1/13/2022 8:00:00 PM 1.06 33.908 0.106 7.04 1.35 13.92
1/13/2022 8:15:00 PM 1.05 33.89 0.106 7.04 1.38 13.93
1/13/2022 8:30:00 PM 1.04 33.872 0.106 7.04 1.45 13.93
1/13/2022 8:45:00 PM 1.03 33.854 0.106 7.04 1.38 13.92
1/13/2022 9:00:00 PM 1.03 33.854 0.106 7.04 1.39 13.92
1/13/2022 9:15:00 PM 1.02 33.836 0.106 7.04 1.41 13.92
1/13/2022 9:30:00 PM 1.02 33.836 0.106 7.03 1.38 13.92
1/13/2022 9:45:00 PM 1.02 33.836 0.106 7.03 1.38 13.92
1/13/2022 10:00:00 PM 1.03 33.854 0.106 7.03 1.38 13.92
1/13/2022 10:15:00 PM 1.03 33.854 0.106 7.03 1.37 13.92
1/13/2022 10:30:00 PM 1.03 33.854 0.106 7.03 1.38 13.91
1/13/2022 10:45:00 PM 1.03 33.854 0.106 7.03 1.34 13.91
1/13/2022 11:00:00 PM 1.03 33.854 0.106 7.03 1.42 13.92
1/13/2022 11:15:00 PM 1.03 33.854 0.106 7.03 1.41 13.92
1/13/2022 11:30:00 PM 1.03 33.854 0.106 7.03 1.35 13.91
1/13/2022 11:45:00 PM 1.03 33.854 0.106 7.03 1.36 13.91
1/14/2022 12:00:00 AM 1.03 33.854 0.106 7.03 1.37 13.92
1/14/2022 12:15:00 AM 1.04 33.872 0.106 7.03 1.34 13.91
1/14/2022 12:30:00 AM 1.04 33.872 0.106 7.03 1.34 13.92
1/14/2022 12:45:00 AM 1.04 33.872 0.106 7.03 1.38 13.91
1/14/2022 1:00:00 AM 1.04 33.872 0.106 7.03 1.36 13.9
1/14/2022 1:15:00 AM 1.04 33.872 0.106 7.03 1.41 13.9
1/14/2022 1:30:00 AM 1.04 33.872 0.106 7.03 1.38 13.9
1/14/2022 1:45:00 AM 1.05 33.89 0.106 7.03 1.34 13.9
1/14/2022 2:00:00 AM 1.05 33.89 0.106 7.03 1.44 13.9
1/14/2022 2:15:00 AM 1.06 33.908 0.106 7.03 1.37 13.9
1/14/2022 2:30:00 AM 1.06 33.908 0.106 7.03 1.33 13.9
1/14/2022 2:45:00 AM 1.07 33.926 0.106 7.03 1.38 13.9
1/14/2022 3:00:00 AM 1.07 33.926 0.106 7.03 1.38 13.9
1/14/2022 3:15:00 AM 1.08 33.944 0.106 7.03 1.38 13.89
1/14/2022 3:30:00 AM 1.09 33.962 0.106 7.03 1.36 13.88
1/14/2022 3:45:00 AM 1.11 33.998 0.106 7.03 1.4 13.88
1/14/2022 4:00:00 AM 1.12 34.016 0.106 7.03 1.43 13.87
1/14/2022 4:15:00 AM 1.14 34.052 0.106 7.03 1.48 13.86
1/14/2022 4:30:00 AM 1.15 34.07 0.106 7.03 1.43 13.85
1/14/2022 4:45:00 AM 1.16 34.088 0.106 7.03 1.42 13.84
1/14/2022 5:00:00 AM 1.18 34.124 0.106 7.03 1.39 13.84
1/14/2022 5:15:00 AM 1.19 34.142 0.106 7.03 1.4 13.84
1/14/2022 5:30:00 AM 1.2 34.16 0.106 7.03 1.41 13.84
1/14/2022 5:45:00 AM 1.21 34.178 0.106 7.03 1.4 13.83
1/14/2022 6:00:00 AM 1.22 34.196 0.106 7.03 1.39 13.83
1/14/2022 6:15:00 AM 1.24 34.232 0.106 7.03 1.4 13.82
1/14/2022 6:30:00 AM 1.25 34.25 0.106 7.03 1.43 13.82
1/14/2022 6:45:00 AM 1.26 34.268 0.106 7.03 1.41 13.81
1/14/2022 7:00:00 AM 1.27 34.286 0.106 7.03 1.38 13.81
1/14/2022 7:15:00 AM 1.28 34.304 0.106 7.03 1.39 13.8
1/14/2022 7:30:00 AM 1.3 34.34 0.106 7.03 1.38 13.8
1/14/2022 7:45:00 AM 1.31 34.358 0.106 7.04 1.43 13.8
1/14/2022 8:00:00 AM 1.31 34.358 0.106 7.04 1.38 13.81
1/14/2022 8:15:00 AM 1.32 34.376 0.106 7.04 1.4 13.81
1/14/2022 8:30:00 AM 1.34 34.412 0.106 7.05 1.36 13.82
1/14/2022 8:45:00 AM 1.35 34.43 0.106 7.05 1.4 13.83
1/14/2022 9:00:00 AM 1.37 34.466 0.106 7.06 1.43 13.84
1/14/2022 9:15:00 AM 1.38 34.484 0.106 7.06 1.4 13.85
1/14/2022 9:30:00 AM 1.4 34.52 0.106 7.07 1.33 13.87
1/14/2022 9:45:00 AM 1.41 34.538 0.106 7.07 1.34 13.88
1/14/2022 10:00:00 AM 1.43 34.574 0.106 7.08 1.38 13.89
1/14/2022 10:15:00 AM 1.44 34.592 0.105 7.08 1.37 13.9
1/14/2022 10:30:00 AM 1.45 34.61 0.105 7.08 1.36 13.92
1/14/2022 10:45:00 AM 1.46 34.628 0.105 7.09 1.36 13.93
1/14/2022 11:00:00 AM 1.47 34.646 0.105 7.09 1.36 13.95
1/14/2022 11:15:00 AM 1.48 34.664 0.105 7.1 1.34 13.96
1/14/2022 11:30:00 AM 1.49 34.682 0.105 7.1 1.35 13.97
1/14/2022 11:45:00 AM 1.5 34.7 0.105 7.11 1.35 13.98
1/14/2022 12:00:00 PM 1.51 34.718 0.105 7.11 1.35 14
1/14/2022 12:15:00 PM 1.52 34.736 0.105 7.11 1.31 14
1/14/2022 12:30:00 PM 1.53 34.754 0.105 7.12 1.37 14
1/14/2022 12:45:00 PM 1.54 34.772 0.105 7.12 1.35 14
1/14/2022 1:00:00 PM 1.54 34.772 0.105 7.12 1.48 14.01
1/14/2022 1:15:00 PM 1.53 34.754 0.105 7.12 1.35 14
1/14/2022 1:30:00 PM 1.52 34.736 0.105 7.12 1.33 14
1/14/2022 1:45:00 PM 1.51 34.718 0.105 7.12 1.31 14
1/14/2022 2:00:00 PM 1.5 34.7 0.105 7.12 1.37 14
1/14/2022 2:15:00 PM 1.49 34.682 0.105 7.12 1.36 14
1/14/2022 2:30:00 PM 1.48 34.664 0.105 7.12 1.35 14.02
1/14/2022 2:45:00 PM 1.47 34.646 0.105 7.12 1.4 14.02
1/14/2022 3:00:00 PM 1.45 34.61 0.105 7.12 1.35 14.02
1/14/2022 3:15:00 PM 1.45 34.61 0.105 7.12 1.33 14.02
1/14/2022 3:30:00 PM 1.44 34.592 0.105 7.12 1.35 14.02
1/14/2022 3:45:00 PM 1.42 34.556 0.105 7.12 1.38 14.02
1/14/2022 4:00:00 PM 1.41 34.538 0.105 7.12 1.33 14.01
1/14/2022 4:15:00 PM 1.39 34.502 0.105 7.12 1.3 14
1/14/2022 4:30:00 PM 1.36 34.448 0.105 7.11 1.35 13.99
1/14/2022 4:45:00 PM 1.33 34.394 0.105 7.11 1.34 13.98
1/14/2022 5:00:00 PM 1.3 34.34 0.105 7.1 1.36 13.96
1/14/2022 5:15:00 PM 1.26 34.268 0.105 7.1 1.34 13.95
1/14/2022 5:30:00 PM 1.2 34.16 0.105 7.1 1.33 13.94
1/14/2022 5:45:00 PM 1.13 34.034 0.105 7.09 1.34 13.94
1/14/2022 6:00:00 PM 1.07 33.926 0.105 7.09 1.32 13.93
1/14/2022 6:15:00 PM 1.02 33.836 0.105 7.08 1.35 13.94
1/14/2022 6:30:00 PM 0.97 33.746 0.105 7.08 1.39 13.93
1/14/2022 6:45:00 PM 0.92 33.656 0.105 7.07 1.36 13.95
1/14/2022 7:00:00 PM 0.88 33.584 0.105 7.07 1.36 13.95
1/14/2022 7:15:00 PM 0.84 33.512 0.105 7.07 1.36 13.95
1/14/2022 7:30:00 PM 0.79 33.422 0.105 7.07 1.37 13.97
1/14/2022 7:45:00 PM 0.73 33.314 0.105 7.07 1.38 13.98
1/14/2022 8:00:00 PM 0.69 33.242 0.105 7.06 1.37 13.99
1/14/2022 8:15:00 PM 0.66 33.188 0.105 7.06 1.38 14.01
1/14/2022 8:30:00 PM 0.6 33.08 0.105 7.06 1.39 14.01
1/14/2022 8:45:00 PM 0.54 32.972 0.105 7.06 1.38 14.03
1/14/2022 9:00:00 PM 0.49 32.882 0.106 7.06 1.38 14.05
1/14/2022 9:15:00 PM 0.45 32.81 0.106 7.06 1.39 14.06
1/14/2022 9:30:00 PM 0.42 32.756 0.106 7.06 1.38 14.07
1/14/2022 9:45:00 PM 0.37 32.666 0.106 7.06 1.35 14.08
1/14/2022 10:00:00 PM 0.34 32.612 0.106 7.06 1.36 14.1
1/14/2022 10:15:00 PM 0.32 32.576 0.106 7.06 1.37 14.1
1/14/2022 10:30:00 PM 0.29 32.522 0.106 7.06 1.36 14.12
1/14/2022 10:45:00 PM 0.28 32.504 0.106 7.05 1.34 14.11
1/14/2022 11:00:00 PM 0.26 32.468 0.106 7.05 1.35 14.13
1/14/2022 11:15:00 PM 0.24 32.432 0.106 7.05 1.34 14.13
1/14/2022 11:30:00 PM 0.21 32.378 0.106 7.05 1.34 14.14
1/14/2022 11:45:00 PM 0.19 32.342 0.106 7.05 1.32 14.15
1/15/2022 12:00:00 AM 0.15 32.27 0.106 7.05 1.34 14.16
1/15/2022 12:15:00 AM 0.13 32.234 0.106 7.05 1.32 14.17
1/15/2022 12:30:00 AM 0.12 32.216 0.106 7.05 1.37 14.17
1/15/2022 12:45:00 AM 0.11 32.198 0.106 7.05 1.32 14.18
1/15/2022 1:00:00 AM 0.11 32.198 0.106 7.05 1.32 14.18
1/15/2022 1:15:00 AM 0.1 32.18 0.106 7.05 1.35 14.18
1/15/2022 1:30:00 AM 0.08 32.144 0.106 7.05 1.32 14.19
1/15/2022 1:45:00 AM 0.08 32.144 0.106 7.05 1.34 14.2
1/15/2022 2:00:00 AM 0.05 32.09 0.106 7.05 1.32 14.2
1/15/2022 2:15:00 AM 0.03 32.054 0.106 7.05 1.35 14.21
1/15/2022 2:30:00 AM 0.02 32.036 0.106 7.05 1.35 14.21
1/15/2022 2:45:00 AM 0.01 32.018 0.106 7.05 1.35 14.22
1/15/2022 3:00:00 AM 0.01 32.018 0.106 7.05 1.37 14.22
1/15/2022 3:15:00 AM 0.02 32.036 0.106 7.05 1.32 14.22
1/15/2022 3:30:00 AM 0 32 0.106 7.05 1.31 14.23
1/15/2022 3:45:00 AM -0.01 31.982 0.106 7.05 1.33 14.23
1/15/2022 4:00:00 AM 0 32 0.106 7.05 1.35 14.25
1/15/2022 4:15:00 AM 0.02 32.036 0.105 7.05 1.29 14.25
1/15/2022 4:30:00 AM 0.02 32.036 0.104 7.05 1.31 14.26
1/15/2022 4:45:00 AM 0.02 32.036 0.104 7.05 1.32 14.27
1/15/2022 5:00:00 AM 0.02 32.036 0.104 7.05 1.29 14.27
1/15/2022 5:15:00 AM 0.02 32.036 0.104 7.04 1.4 14.28
1/15/2022 5:30:00 AM 0.02 32.036 0.104 7.04 1.33 14.29
1/15/2022 5:45:00 AM 0.02 32.036 0.104 7.04 1.31 14.3
1/15/2022 6:00:00 AM 0.02 32.036 0.103 7.05 1.33 14.31
1/15/2022 6:15:00 AM 0.02 32.036 0.103 7.05 1.33 14.32
1/15/2022 6:30:00 AM 0.02 32.036 0.104 7.05 1.35 14.33
1/15/2022 6:45:00 AM 0.02 32.036 0.104 7.05 1.3 14.33
1/15/2022 7:00:00 AM 0.02 32.036 0.104 7.05 1.26 14.34
1/15/2022 7:15:00 AM 0.02 32.036 0.104 7.05 1.34 14.35
1/15/2022 7:30:00 AM 0.02 32.036 0.104 7.05 1.3 14.35
1/15/2022 7:45:00 AM 0.02 32.036 0.104 7.05 1.28 14.37
1/15/2022 8:00:00 AM 0.02 32.036 0.104 7.05 1.3 14.39
1/15/2022 8:15:00 AM 0.02 32.036 0.104 7.06 1.3 14.42
1/15/2022 8:30:00 AM 0.02 32.036 0.104 7.06 1.32 14.44
1/15/2022 8:45:00 AM 0.02 32.036 0.104 7.07 1.25 14.47
1/15/2022 9:00:00 AM 0.02 32.036 0.104 7.07 1.33 14.49
1/15/2022 9:15:00 AM 0.02 32.036 0.104 7.08 1.28 14.52
1/15/2022 9:30:00 AM 0.02 32.036 0.104 7.08 1.22 14.54
1/15/2022 9:45:00 AM 0.02 32.036 0.103 7.08 1.23 14.56
1/15/2022 10:00:00 AM 0.02 32.036 0.104 7.09 1.28 14.58
1/15/2022 10:15:00 AM 0.02 32.036 0.103 7.09 1.25 14.6
1/15/2022 10:30:00 AM 0.02 32.036 0.103 7.09 1.23 14.61
1/15/2022 10:45:00 AM 0.02 32.036 0.104 7.1 1.26 14.62
1/15/2022 11:00:00 AM 0.02 32.036 0.104 7.1 1.23 14.64
1/15/2022 11:15:00 AM 0.02 32.036 0.104 7.11 1.28 14.65
1/15/2022 11:30:00 AM 0.02 32.036 0.103 7.11 1.27 14.65
1/15/2022 11:45:00 AM 0.02 32.036 0.104 7.12 1.25 14.66
1/15/2022 12:00:00 PM 0.02 32.036 0.103 7.11 1.24 14.66
1/15/2022 12:15:00 PM 0.02 32.036 0.103 7.11 1.22 14.65
1/15/2022 12:30:00 PM 0.02 32.036 0.103 7.11 1.35 14.64
1/15/2022 12:45:00 PM 0.02 32.036 0.103 7.1 1.24 14.61
1/15/2022 1:00:00 PM 0.02 32.036 0.103 7.09 1.39 14.59
1/15/2022 1:15:00 PM 0.02 32.036 0.103 7.09 1.28 14.57
1/15/2022 1:30:00 PM 0.02 32.036 0.103 7.09 1.23 14.54
1/15/2022 1:45:00 PM 0.02 32.036 0.103 7.09 1.32 14.51
1/15/2022 2:00:00 PM 0.13 32.234 0.104 7.09 2.25 14.49
1/15/2022 2:15:00 PM 0.28 32.504 0.105 7.1 1.49 14.49
1/15/2022 2:30:00 PM 0.39 32.702 0.105 7.1 1.28 14.49
1/15/2022 2:45:00 PM 0.43 32.774 0.105 7.11 3.58 14.48
1/15/2022 3:00:00 PM 0.48 32.864 0.105 7.11 1.27 14.47
1/15/2022 3:15:00 PM 0.53 32.954 0.105 7.11 1.23 14.46
1/15/2022 3:30:00 PM 0.56 33.008 0.105 7.11 1.24 14.45
1/15/2022 3:45:00 PM 0.54 32.972 0.105 7.11 1.25 14.43
1/15/2022 4:00:00 PM 0.49 32.882 0.105 7.11 1.26 14.42
1/15/2022 4:15:00 PM 0.44 32.792 0.105 7.1 1.23 14.4
1/15/2022 4:30:00 PM 0.39 32.702 0.105 7.1 1.22 14.39
1/15/2022 4:45:00 PM 0.35 32.63 0.105 7.1 1.25 14.38
1/15/2022 5:00:00 PM 0.31 32.558 0.106 7.09 1.23 14.36
1/15/2022 5:15:00 PM 0.27 32.486 0.106 7.09 1.27 14.34
1/15/2022 5:30:00 PM 0.23 32.414 0.106 7.08 1.27 14.33
1/15/2022 5:45:00 PM 0.17 32.306 0.106 7.07 1.24 14.33
1/15/2022 6:00:00 PM 0.11 32.198 0.106 7.07 1.25 14.33
1/15/2022 6:15:00 PM 0.06 32.108 0.106 7.06 1.25 14.33
1/15/2022 6:30:00 PM 0.01 32.018 0.106 7.06 1.29 14.34
1/15/2022 6:45:00 PM 0 32 0.106 7.06 1.25 14.34
1/15/2022 7:00:00 PM 0.02 32.036 0.106 7.06 1.36 14.35
1/15/2022 7:15:00 PM 0.02 32.036 0.106 7.05 1.28 14.37
1/15/2022 7:30:00 PM 0.02 32.036 0.106 7.05 1.34 14.38
1/15/2022 7:45:00 PM 0.02 32.036 0.106 7.05 1.22 14.38
1/15/2022 8:00:00 PM 0.02 32.036 0.106 7.05 1.27 14.39
1/15/2022 8:15:00 PM 0.02 32.036 0.106 7.05 1.28 14.39
1/15/2022 8:30:00 PM 0.02 32.036 0.106 7.05 1.27 14.41
1/15/2022 8:45:00 PM 0.02 32.036 0.106 7.05 1.3 14.41
1/15/2022 9:00:00 PM 0.02 32.036 0.106 7.04 1.27 14.41
1/15/2022 9:15:00 PM 0.02 32.036 0.106 7.04 1.25 14.42
1/15/2022 9:30:00 PM 0.02 32.036 0.106 7.04 1.27 14.43
1/15/2022 9:45:00 PM 0.02 32.036 0.106 7.04 1.23 14.43
1/15/2022 10:00:00 PM 0.02 32.036 0.107 7.04 1.22 14.43
1/15/2022 10:15:00 PM 0.02 32.036 0.107 7.04 1.22 14.44
1/15/2022 10:30:00 PM 0.02 32.036 0.107 7.04 1.23 14.45
1/15/2022 10:45:00 PM 0.02 32.036 0.107 7.04 1.28 14.46
1/15/2022 11:00:00 PM 0.02 32.036 0.107 7.04 1.23 14.46
1/15/2022 11:15:00 PM 0.02 32.036 0.107 7.04 1.21 14.47
1/15/2022 11:30:00 PM 0.02 32.036 0.107 7.04 1.27 14.47
1/15/2022 11:45:00 PM 0.02 32.036 0.108 7.04 1.24 14.47
1/16/2022 12:00:00 AM 0.02 32.036 0.108 7.04 1.23 14.47
1/16/2022 12:15:00 AM 0.02 32.036 0.108 7.04 1.28 14.48
1/16/2022 12:30:00 AM 0.02 32.036 0.108 7.04 1.2 14.49
1/16/2022 12:45:00 AM 0.02 32.036 0.109 7.04 1.25 14.49
1/16/2022 1:00:00 AM 0.02 32.036 0.109 7.04 1.25 14.49
1/16/2022 1:15:00 AM 0.02 32.036 0.109 7.04 1.24 14.49
1/16/2022 1:30:00 AM 0.02 32.036 0.109 7.04 1.28 14.49
1/16/2022 1:45:00 AM 0.02 32.036 0.109 7.04 1.24 14.5
1/16/2022 2:00:00 AM 0.02 32.036 0.109 7.03 1.22 14.49
1/16/2022 2:15:00 AM 0.02 32.036 0.109 7.04 1.23 14.5
1/16/2022 2:30:00 AM 0.02 32.036 0.109 7.03 1.19 14.5
1/16/2022 2:45:00 AM 0.02 32.036 0.109 7.03 1.19 14.5
1/16/2022 3:00:00 AM 0.02 32.036 0.11 7.03 1.2 14.5
1/16/2022 3:15:00 AM 0.02 32.036 0.11 7.03 1.21 14.5
1/16/2022 3:30:00 AM 0.02 32.036 0.11 7.03 1.22 14.51
1/16/2022 3:45:00 AM 0.02 32.036 0.11 7.03 1.38 14.51
1/16/2022 4:00:00 AM 0.02 32.036 0.11 7.03 1.21 14.51
1/16/2022 4:15:00 AM 0.02 32.036 0.11 7.03 1.2 14.51
1/16/2022 4:30:00 AM 0.02 32.036 0.11 7.03 1.18 14.51
1/16/2022 4:45:00 AM 0.02 32.036 0.11 7.03 1.21 14.5
1/16/2022 5:00:00 AM 0.02 32.036 0.11 7.03 1.23 14.51
1/16/2022 5:15:00 AM 0.02 32.036 0.11 7.03 1.19 14.51
1/16/2022 5:30:00 AM 0.02 32.036 0.11 7.02 1.22 14.51
1/16/2022 5:45:00 AM 0.02 32.036 0.11 7.02 1.23 14.51
1/16/2022 6:00:00 AM 0.02 32.036 0.11 7.02 1.22 14.51
1/16/2022 6:15:00 AM 0.02 32.036 0.11 7.02 1.21 14.51
1/16/2022 6:30:00 AM 0.02 32.036 0.11 7.02 1.17 14.5
1/16/2022 6:45:00 AM 0.02 32.036 0.11 7.02 1.19 14.5
1/16/2022 7:00:00 AM 0.02 32.036 0.111 7.02 1.24 14.5
1/16/2022 7:15:00 AM 0.02 32.036 0.111 7.02 1.3 14.5
1/16/2022 7:30:00 AM 0.02 32.036 0.111 7.02 1.19 14.5
1/16/2022 7:45:00 AM 0.02 32.036 0.111 7.02 1.24 14.51
1/16/2022 8:00:00 AM 0.02 32.036 0.111 7.02 1.2 14.52
1/16/2022 8:15:00 AM 0.02 32.036 0.111 7.02 1.21 14.53
1/16/2022 8:30:00 AM 0.02 32.036 0.111 7.03 1.22 14.55
1/16/2022 8:45:00 AM 0.02 32.036 0.111 7.03 1.2 14.57
1/16/2022 9:00:00 AM 0.02 32.036 0.111 7.05 1.21 14.59
1/16/2022 9:15:00 AM 0.02 32.036 0.111 7.05 1.24 14.61
1/16/2022 9:30:00 AM 0.02 32.036 0.111 7.05 1.21 14.62
1/16/2022 9:45:00 AM 0.02 32.036 0.111 7.06 1.21 14.63
1/16/2022 10:00:00 AM 0.02 32.036 0.111 7.05 1.24 14.64
1/16/2022 10:15:00 AM 0.02 32.036 0.111 7.07 1.23 14.65
1/16/2022 10:30:00 AM